<?xml version='1.0' encoding='UTF-8'?><gpx version="1.1" creator="JPX - https://github.com/jenetics/jpx" xmlns="http://www.topografix.com/GPX/1/1"><trk><trkseg><trkpt lat="42.5906362" lon="12.5794227"><ele>156.42857142857144</ele><time>2026-04-08T14:07:01.992Z</time></trkpt><trkpt lat="42.5906297" lon="12.5795203"><ele>156.85714285714283</ele><time>2026-04-08T14:07:06.992Z</time></trkpt><trkpt lat="42.5906295" lon="12.5796175"><ele>157.28571428571428</ele><time>2026-04-08T14:07:12.992Z</time></trkpt><trkpt lat="42.5906668" lon="12.5795479"><ele>157.71428571428572</ele><time>2026-04-08T14:07:27.991Z</time></trkpt><trkpt lat="42.5906386" lon="12.5796287"><ele>158.14285714285717</ele><time>2026-04-08T14:08:39.991Z</time></trkpt><trkpt lat="42.5906227" lon="12.5797234"><ele>158.57142857142856</ele><time>2026-04-08T14:08:45.991Z</time></trkpt><trkpt lat="42.5906153" lon="12.5798184"><ele>159.0</ele><time>2026-04-08T14:08:55.991Z</time></trkpt><trkpt lat="42.5906155" lon="12.5799092"><ele>159.0</ele><time>2026-04-08T14:09:00.99Z</time></trkpt><trkpt lat="42.5906191" lon="12.5799951"><ele>159.0</ele><time>2026-04-08T14:09:03.991Z</time></trkpt><trkpt lat="42.5906108" lon="12.5801108"><ele>159.0</ele><time>2026-04-08T14:09:07.991Z</time></trkpt><trkpt lat="42.5906018" lon="12.5802163"><ele>159.0</ele><time>2026-04-08T14:09:10.991Z</time></trkpt><trkpt lat="42.5905444" lon="12.5802874"><ele>159.0</ele><time>2026-04-08T14:09:13.991Z</time></trkpt><trkpt lat="42.5904596" lon="12.5802617"><ele>159.0</ele><time>2026-04-08T14:09:16.991Z</time></trkpt><trkpt lat="42.5904078" lon="12.5802121"><ele>159.0</ele><time>2026-04-08T14:09:19.991Z</time></trkpt><trkpt lat="42.5903524" lon="12.5801549"><ele>159.0</ele><time>2026-04-08T14:09:25.991Z</time></trkpt><trkpt lat="42.5903172" lon="12.5800702"><ele>159.0</ele><time>2026-04-08T14:09:30.991Z</time></trkpt><trkpt lat="42.5902444" lon="12.5801254"><ele>159.0</ele><time>2026-04-08T14:09:33.991Z</time></trkpt><trkpt lat="42.5901595" lon="12.580115"><ele>159.0</ele><time>2026-04-08T14:09:36.991Z</time></trkpt><trkpt lat="42.5900919" lon="12.5801004"><ele>159.0</ele><time>2026-04-08T14:09:38.991Z</time></trkpt><trkpt lat="42.5900146" lon="12.58008"><ele>158.4</ele><time>2026-04-08T14:09:40.991Z</time></trkpt><trkpt lat="42.5899296" lon="12.5800691"><ele>157.8</ele><time>2026-04-08T14:09:42.992Z</time></trkpt><trkpt lat="42.5898336" lon="12.5800633"><ele>157.2</ele><time>2026-04-08T14:09:44.99Z</time></trkpt><trkpt lat="42.5897309" lon="12.5800581"><ele>156.6</ele><time>2026-04-08T14:09:46.991Z</time></trkpt><trkpt lat="42.5896118" lon="12.580034"><ele>156.0</ele><time>2026-04-08T14:09:48.991Z</time></trkpt><trkpt lat="42.5895458" lon="12.5800213"><ele>154.83333333333334</ele><time>2026-04-08T14:09:49.99Z</time></trkpt><trkpt lat="42.5894771" lon="12.580009"><ele>153.66666666666666</ele><time>2026-04-08T14:09:50.991Z</time></trkpt><trkpt lat="42.5894077" lon="12.5799973"><ele>152.5</ele><time>2026-04-08T14:09:51.991Z</time></trkpt><trkpt lat="42.5893232" lon="12.5799894"><ele>151.33333333333331</ele><time>2026-04-08T14:09:52.991Z</time></trkpt><trkpt lat="42.589242" lon="12.5799834"><ele>150.16666666666666</ele><time>2026-04-08T14:09:53.991Z</time></trkpt><trkpt lat="42.5891612" lon="12.5799747"><ele>149.0</ele><time>2026-04-08T14:09:54.991Z</time></trkpt><trkpt lat="42.5890746" lon="12.5799698"><ele>149.0</ele><time>2026-04-08T14:09:55.991Z</time></trkpt><trkpt lat="42.5889918" lon="12.5799675"><ele>149.0</ele><time>2026-04-08T14:09:56.991Z</time></trkpt><trkpt lat="42.588906" lon="12.5799633"><ele>149.0</ele><time>2026-04-08T14:09:57.991Z</time></trkpt><trkpt lat="42.588816" lon="12.5799516"><ele>149.0</ele><time>2026-04-08T14:09:58.991Z</time></trkpt><trkpt lat="42.588727" lon="12.5799446"><ele>149.0</ele><time>2026-04-08T14:09:59.992Z</time></trkpt><trkpt lat="42.5886392" lon="12.5799392"><ele>149.0</ele><time>2026-04-08T14:10:00.991Z</time></trkpt><trkpt lat="42.5885461" lon="12.5799377"><ele>148.16666666666666</ele><time>2026-04-08T14:10:01.991Z</time></trkpt><trkpt lat="42.5884554" lon="12.5799306"><ele>147.33333333333331</ele><time>2026-04-08T14:10:02.991Z</time></trkpt><trkpt lat="42.5883677" lon="12.5799371"><ele>146.5</ele><time>2026-04-08T14:10:03.991Z</time></trkpt><trkpt lat="42.5882743" lon="12.5799393"><ele>145.66666666666666</ele><time>2026-04-08T14:10:04.991Z</time></trkpt><trkpt lat="42.5881865" lon="12.5799353"><ele>144.83333333333334</ele><time>2026-04-08T14:10:05.991Z</time></trkpt><trkpt lat="42.5880978" lon="12.5799286"><ele>144.0</ele><time>2026-04-08T14:10:06.991Z</time></trkpt><trkpt lat="42.5880116" lon="12.5799293"><ele>144.0</ele><time>2026-04-08T14:10:07.991Z</time></trkpt><trkpt lat="42.5879199" lon="12.5799249"><ele>144.0</ele><time>2026-04-08T14:10:08.991Z</time></trkpt><trkpt lat="42.587828" lon="12.5799244"><ele>144.0</ele><time>2026-04-08T14:10:09.991Z</time></trkpt><trkpt lat="42.5877407" lon="12.5799208"><ele>144.0</ele><time>2026-04-08T14:10:10.99Z</time></trkpt><trkpt lat="42.5876457" lon="12.579917"><ele>144.0</ele><time>2026-04-08T14:10:11.991Z</time></trkpt><trkpt lat="42.5875538" lon="12.5799135"><ele>143.2</ele><time>2026-04-08T14:10:12.991Z</time></trkpt><trkpt lat="42.5874594" lon="12.579913"><ele>142.4</ele><time>2026-04-08T14:10:13.991Z</time></trkpt><trkpt lat="42.5873655" lon="12.5799116"><ele>141.6</ele><time>2026-04-08T14:10:14.991Z</time></trkpt><trkpt lat="42.5872675" lon="12.5799044"><ele>140.8</ele><time>2026-04-08T14:10:15.991Z</time></trkpt><trkpt lat="42.5871726" lon="12.5799045"><ele>140.0</ele><time>2026-04-08T14:10:16.991Z</time></trkpt><trkpt lat="42.5870745" lon="12.5799019"><ele>139.2</ele><time>2026-04-08T14:10:17.991Z</time></trkpt><trkpt lat="42.5869855" lon="12.5799026"><ele>138.4</ele><time>2026-04-08T14:10:18.991Z</time></trkpt><trkpt lat="42.5868877" lon="12.5798994"><ele>137.6</ele><time>2026-04-08T14:10:19.991Z</time></trkpt><trkpt lat="42.5867954" lon="12.5798932"><ele>136.8</ele><time>2026-04-08T14:10:20.991Z</time></trkpt><trkpt lat="42.5867008" lon="12.5798934"><ele>136.0</ele><time>2026-04-08T14:10:21.991Z</time></trkpt><trkpt lat="42.5866106" lon="12.5798921"><ele>136.0</ele><time>2026-04-08T14:10:22.991Z</time></trkpt><trkpt lat="42.5865219" lon="12.579884"><ele>136.0</ele><time>2026-04-08T14:10:23.991Z</time></trkpt><trkpt lat="42.5864301" lon="12.5798823"><ele>136.0</ele><time>2026-04-08T14:10:24.991Z</time></trkpt><trkpt lat="42.5863416" lon="12.5798783"><ele>136.0</ele><time>2026-04-08T14:10:25.991Z</time></trkpt><trkpt lat="42.5862547" lon="12.5798712"><ele>136.0</ele><time>2026-04-08T14:10:26.991Z</time></trkpt><trkpt lat="42.5861671" lon="12.5798687"><ele>136.0</ele><time>2026-04-08T14:10:27.991Z</time></trkpt><trkpt lat="42.5860827" lon="12.5798662"><ele>135.5</ele><time>2026-04-08T14:10:28.991Z</time></trkpt><trkpt lat="42.5859958" lon="12.5798629"><ele>135.0</ele><time>2026-04-08T14:10:29.991Z</time></trkpt><trkpt lat="42.5859153" lon="12.5798653"><ele>134.5</ele><time>2026-04-08T14:10:30.99Z</time></trkpt><trkpt lat="42.5858321" lon="12.5798664"><ele>134.0</ele><time>2026-04-08T14:10:31.991Z</time></trkpt><trkpt lat="42.5857446" lon="12.5798656"><ele>133.5</ele><time>2026-04-08T14:10:32.991Z</time></trkpt><trkpt lat="42.5856647" lon="12.5798692"><ele>133.0</ele><time>2026-04-08T14:10:33.991Z</time></trkpt><trkpt lat="42.5855793" lon="12.5798724"><ele>133.0</ele><time>2026-04-08T14:10:34.991Z</time></trkpt><trkpt lat="42.5854934" lon="12.5798775"><ele>133.0</ele><time>2026-04-08T14:10:35.991Z</time></trkpt><trkpt lat="42.5854111" lon="12.5798803"><ele>133.0</ele><time>2026-04-08T14:10:36.99Z</time></trkpt><trkpt lat="42.5853278" lon="12.579886"><ele>133.0</ele><time>2026-04-08T14:10:37.991Z</time></trkpt><trkpt lat="42.5852475" lon="12.579893"><ele>133.0</ele><time>2026-04-08T14:10:38.991Z</time></trkpt><trkpt lat="42.5851655" lon="12.5798983"><ele>133.0</ele><time>2026-04-08T14:10:39.991Z</time></trkpt><trkpt lat="42.585087" lon="12.5798996"><ele>132.5</ele><time>2026-04-08T14:10:40.991Z</time></trkpt><trkpt lat="42.5850066" lon="12.5799079"><ele>132.0</ele><time>2026-04-08T14:10:41.991Z</time></trkpt><trkpt lat="42.5849277" lon="12.5799152"><ele>131.5</ele><time>2026-04-08T14:10:42.991Z</time></trkpt><trkpt lat="42.5848492" lon="12.579926"><ele>131.0</ele><time>2026-04-08T14:10:43.991Z</time></trkpt><trkpt lat="42.5847731" lon="12.5799386"><ele>130.5</ele><time>2026-04-08T14:10:44.991Z</time></trkpt><trkpt lat="42.5846924" lon="12.5799497"><ele>130.0</ele><time>2026-04-08T14:10:45.991Z</time></trkpt><trkpt lat="42.584618" lon="12.5799582"><ele>130.0</ele><time>2026-04-08T14:10:46.991Z</time></trkpt><trkpt lat="42.5845398" lon="12.5799669"><ele>130.0</ele><time>2026-04-08T14:10:47.99Z</time></trkpt><trkpt lat="42.5844623" lon="12.5799782"><ele>130.0</ele><time>2026-04-08T14:10:48.989Z</time></trkpt><trkpt lat="42.5843838" lon="12.5799876"><ele>130.0</ele><time>2026-04-08T14:10:49.991Z</time></trkpt><trkpt lat="42.5843065" lon="12.5799964"><ele>130.0</ele><time>2026-04-08T14:10:50.99Z</time></trkpt><trkpt lat="42.5842313" lon="12.5800067"><ele>130.0</ele><time>2026-04-08T14:10:51.991Z</time></trkpt><trkpt lat="42.5841594" lon="12.5800131"><ele>129.5</ele><time>2026-04-08T14:10:52.991Z</time></trkpt><trkpt lat="42.5840839" lon="12.5800288"><ele>129.0</ele><time>2026-04-08T14:10:53.991Z</time></trkpt><trkpt lat="42.5840082" lon="12.5800467"><ele>128.5</ele><time>2026-04-08T14:10:54.991Z</time></trkpt><trkpt lat="42.5839322" lon="12.5800738"><ele>128.0</ele><time>2026-04-08T14:10:55.991Z</time></trkpt><trkpt lat="42.5838566" lon="12.5801002"><ele>127.50000000000001</ele><time>2026-04-08T14:10:56.991Z</time></trkpt><trkpt lat="42.5837835" lon="12.5801313"><ele>127.0</ele><time>2026-04-08T14:10:57.991Z</time></trkpt><trkpt lat="42.5837093" lon="12.5801606"><ele>126.66666666666667</ele><time>2026-04-08T14:10:58.991Z</time></trkpt><trkpt lat="42.5836343" lon="12.5801935"><ele>126.33333333333334</ele><time>2026-04-08T14:10:59.991Z</time></trkpt><trkpt lat="42.5835632" lon="12.580225"><ele>126.0</ele><time>2026-04-08T14:11:00.991Z</time></trkpt><trkpt lat="42.5834916" lon="12.5802548"><ele>125.66666666666666</ele><time>2026-04-08T14:11:01.991Z</time></trkpt><trkpt lat="42.5834222" lon="12.580288"><ele>125.33333333333333</ele><time>2026-04-08T14:11:02.991Z</time></trkpt><trkpt lat="42.583354" lon="12.5803217"><ele>125.0</ele><time>2026-04-08T14:11:03.991Z</time></trkpt><trkpt lat="42.5832833" lon="12.5803588"><ele>125.0</ele><time>2026-04-08T14:11:04.991Z</time></trkpt><trkpt lat="42.5832122" lon="12.5804012"><ele>125.0</ele><time>2026-04-08T14:11:05.991Z</time></trkpt><trkpt lat="42.5831448" lon="12.5804424"><ele>125.0</ele><time>2026-04-08T14:11:06.99Z</time></trkpt><trkpt lat="42.5830804" lon="12.5804812"><ele>125.0</ele><time>2026-04-08T14:11:07.991Z</time></trkpt><trkpt lat="42.5830133" lon="12.5805174"><ele>125.0</ele><time>2026-04-08T14:11:08.991Z</time></trkpt><trkpt lat="42.5829477" lon="12.5805533"><ele>125.0</ele><time>2026-04-08T14:11:09.991Z</time></trkpt><trkpt lat="42.5828833" lon="12.58059"><ele>125.0</ele><time>2026-04-08T14:11:10.99Z</time></trkpt><trkpt lat="42.5828204" lon="12.5806276"><ele>125.0</ele><time>2026-04-08T14:11:11.99Z</time></trkpt><trkpt lat="42.5827539" lon="12.5806667"><ele>125.0</ele><time>2026-04-08T14:11:12.991Z</time></trkpt><trkpt lat="42.5826897" lon="12.5807013"><ele>125.0</ele><time>2026-04-08T14:11:13.991Z</time></trkpt><trkpt lat="42.5826218" lon="12.5807364"><ele>125.0</ele><time>2026-04-08T14:11:14.989Z</time></trkpt><trkpt lat="42.5825557" lon="12.5807692"><ele>125.0</ele><time>2026-04-08T14:11:15.991Z</time></trkpt><trkpt lat="42.5824899" lon="12.5808014"><ele>125.0</ele><time>2026-04-08T14:11:16.991Z</time></trkpt><trkpt lat="42.582426" lon="12.5808335"><ele>125.0</ele><time>2026-04-08T14:11:17.991Z</time></trkpt><trkpt lat="42.5823622" lon="12.5808631"><ele>125.0</ele><time>2026-04-08T14:11:18.991Z</time></trkpt><trkpt lat="42.5822954" lon="12.5808927"><ele>125.0</ele><time>2026-04-08T14:11:19.991Z</time></trkpt><trkpt lat="42.5822289" lon="12.5809096"><ele>125.0</ele><time>2026-04-08T14:11:20.991Z</time></trkpt><trkpt lat="42.5821606" lon="12.5809212"><ele>125.0</ele><time>2026-04-08T14:11:21.991Z</time></trkpt><trkpt lat="42.5820975" lon="12.5809353"><ele>125.0</ele><time>2026-04-08T14:11:22.991Z</time></trkpt><trkpt lat="42.5820318" lon="12.5809511"><ele>125.0</ele><time>2026-04-08T14:11:23.991Z</time></trkpt><trkpt lat="42.5819648" lon="12.5809672"><ele>125.0</ele><time>2026-04-08T14:11:24.991Z</time></trkpt><trkpt lat="42.5819015" lon="12.5809793"><ele>124.8</ele><time>2026-04-08T14:11:25.991Z</time></trkpt><trkpt lat="42.5818337" lon="12.5809925"><ele>124.6</ele><time>2026-04-08T14:11:26.991Z</time></trkpt><trkpt lat="42.5817044" lon="12.5810162"><ele>124.4</ele><time>2026-04-08T14:11:28.99Z</time></trkpt><trkpt lat="42.5816388" lon="12.5810299"><ele>124.2</ele><time>2026-04-08T14:11:29.991Z</time></trkpt><trkpt lat="42.5815148" lon="12.5810582"><ele>124.0</ele><time>2026-04-08T14:11:31.991Z</time></trkpt><trkpt lat="42.5814494" lon="12.5810725"><ele>124.00000000000001</ele><time>2026-04-08T14:11:32.991Z</time></trkpt><trkpt lat="42.5813855" lon="12.5810889"><ele>124.0</ele><time>2026-04-08T14:11:33.991Z</time></trkpt><trkpt lat="42.58132" lon="12.5810992"><ele>124.0</ele><time>2026-04-08T14:11:34.991Z</time></trkpt><trkpt lat="42.5811955" lon="12.5811234"><ele>124.0</ele><time>2026-04-08T14:11:36.99Z</time></trkpt><trkpt lat="42.5811319" lon="12.5811369"><ele>124.00000000000001</ele><time>2026-04-08T14:11:37.991Z</time></trkpt><trkpt lat="42.5810672" lon="12.5811466"><ele>124.0</ele><time>2026-04-08T14:11:38.99Z</time></trkpt><trkpt lat="42.5810019" lon="12.5811623"><ele>123.83333333333334</ele><time>2026-04-08T14:11:39.991Z</time></trkpt><trkpt lat="42.5809346" lon="12.5811792"><ele>123.66666666666667</ele><time>2026-04-08T14:11:40.991Z</time></trkpt><trkpt lat="42.5808681" lon="12.5811973"><ele>123.5</ele><time>2026-04-08T14:11:41.991Z</time></trkpt><trkpt lat="42.5808039" lon="12.5812202"><ele>123.33333333333334</ele><time>2026-04-08T14:11:42.99Z</time></trkpt><trkpt lat="42.5806906" lon="12.5812909"><ele>123.16666666666667</ele><time>2026-04-08T14:11:44.991Z</time></trkpt><trkpt lat="42.5806426" lon="12.5813467"><ele>123.0</ele><time>2026-04-08T14:11:45.991Z</time></trkpt><trkpt lat="42.5805996" lon="12.5814181"><ele>123.0</ele><time>2026-04-08T14:11:46.99Z</time></trkpt><trkpt lat="42.5805358" lon="12.5815721"><ele>123.00000000000001</ele><time>2026-04-08T14:11:48.991Z</time></trkpt><trkpt lat="42.5805186" lon="12.5816616"><ele>123.00000000000001</ele><time>2026-04-08T14:11:49.99Z</time></trkpt><trkpt lat="42.5804788" lon="12.5818274"><ele>123.0</ele><time>2026-04-08T14:11:51.991Z</time></trkpt><trkpt lat="42.5804592" lon="12.5819212"><ele>123.0</ele><time>2026-04-08T14:11:52.99Z</time></trkpt><trkpt lat="42.5804393" lon="12.5820085"><ele>122.85714285714288</ele><time>2026-04-08T14:11:53.99Z</time></trkpt><trkpt lat="42.5804161" lon="12.5820942"><ele>122.71428571428572</ele><time>2026-04-08T14:11:54.99Z</time></trkpt><trkpt lat="42.5803896" lon="12.5821784"><ele>122.57142857142857</ele><time>2026-04-08T14:11:55.99Z</time></trkpt><trkpt lat="42.5803697" lon="12.5822689"><ele>122.42857142857143</ele><time>2026-04-08T14:11:56.99Z</time></trkpt><trkpt lat="42.5803476" lon="12.5823543"><ele>122.28571428571428</ele><time>2026-04-08T14:11:57.99Z</time></trkpt><trkpt lat="42.5803198" lon="12.5824348"><ele>122.14285714285712</ele><time>2026-04-08T14:11:58.991Z</time></trkpt><trkpt lat="42.580297" lon="12.5825233"><ele>121.99999999999999</ele><time>2026-04-08T14:11:59.991Z</time></trkpt><trkpt lat="42.5802719" lon="12.5826043"><ele>121.99999999999999</ele><time>2026-04-08T14:12:00.991Z</time></trkpt><trkpt lat="42.5802498" lon="12.582691"><ele>122.0</ele><time>2026-04-08T14:12:01.991Z</time></trkpt><trkpt lat="42.5802234" lon="12.5827732"><ele>122.0</ele><time>2026-04-08T14:12:02.991Z</time></trkpt><trkpt lat="42.5801932" lon="12.5828525"><ele>122.0</ele><time>2026-04-08T14:12:03.991Z</time></trkpt><trkpt lat="42.5801338" lon="12.5830038"><ele>121.99999999999999</ele><time>2026-04-08T14:12:05.99Z</time></trkpt><trkpt lat="42.5801069" lon="12.5830856"><ele>122.0</ele><time>2026-04-08T14:12:06.99Z</time></trkpt><trkpt lat="42.5800806" lon="12.5831682"><ele>121.99999999999999</ele><time>2026-04-08T14:12:07.991Z</time></trkpt><trkpt lat="42.5800541" lon="12.5832498"><ele>122.0</ele><time>2026-04-08T14:12:08.99Z</time></trkpt><trkpt lat="42.5800241" lon="12.5833311"><ele>122.0</ele><time>2026-04-08T14:12:09.99Z</time></trkpt><trkpt lat="42.5799948" lon="12.5834079"><ele>122.0</ele><time>2026-04-08T14:12:10.99Z</time></trkpt><trkpt lat="42.579965" lon="12.583492"><ele>121.99999999999999</ele><time>2026-04-08T14:12:11.991Z</time></trkpt><trkpt lat="42.5799144" lon="12.5836612"><ele>122.0</ele><time>2026-04-08T14:12:13.99Z</time></trkpt><trkpt lat="42.5798937" lon="12.5837474"><ele>121.7142857142857</ele><time>2026-04-08T14:12:14.991Z</time></trkpt><trkpt lat="42.5798733" lon="12.5838355"><ele>121.42857142857142</ele><time>2026-04-08T14:12:15.991Z</time></trkpt><trkpt lat="42.5798504" lon="12.583924"><ele>121.14285714285714</ele><time>2026-04-08T14:12:16.991Z</time></trkpt><trkpt lat="42.5798279" lon="12.5840149"><ele>120.85714285714285</ele><time>2026-04-08T14:12:17.991Z</time></trkpt><trkpt lat="42.5798098" lon="12.5841131"><ele>120.57142857142856</ele><time>2026-04-08T14:12:18.99Z</time></trkpt><trkpt lat="42.5797902" lon="12.5842081"><ele>120.28571428571429</ele><time>2026-04-08T14:12:19.991Z</time></trkpt><trkpt lat="42.5797689" lon="12.5843036"><ele>120.0</ele><time>2026-04-08T14:12:20.99Z</time></trkpt><trkpt lat="42.5797477" lon="12.5844005"><ele>120.0</ele><time>2026-04-08T14:12:21.991Z</time></trkpt><trkpt lat="42.5797274" lon="12.5844935"><ele>120.0</ele><time>2026-04-08T14:12:22.991Z</time></trkpt><trkpt lat="42.5797069" lon="12.5845847"><ele>120.0</ele><time>2026-04-08T14:12:23.991Z</time></trkpt><trkpt lat="42.5796849" lon="12.5846737"><ele>120.0</ele><time>2026-04-08T14:12:24.991Z</time></trkpt><trkpt lat="42.5796604" lon="12.5847656"><ele>120.0</ele><time>2026-04-08T14:12:25.991Z</time></trkpt><trkpt lat="42.5796388" lon="12.5848605"><ele>120.0</ele><time>2026-04-08T14:12:26.991Z</time></trkpt><trkpt lat="42.5796163" lon="12.5849529"><ele>120.0</ele><time>2026-04-08T14:12:27.991Z</time></trkpt><trkpt lat="42.5795883" lon="12.5850431"><ele>120.28571428571429</ele><time>2026-04-08T14:12:28.989Z</time></trkpt><trkpt lat="42.5795657" lon="12.5851372"><ele>120.57142857142856</ele><time>2026-04-08T14:12:29.991Z</time></trkpt><trkpt lat="42.5795443" lon="12.5852342"><ele>120.85714285714285</ele><time>2026-04-08T14:12:30.991Z</time></trkpt><trkpt lat="42.5795228" lon="12.5853265"><ele>121.14285714285714</ele><time>2026-04-08T14:12:31.991Z</time></trkpt><trkpt lat="42.579502" lon="12.5854207"><ele>121.42857142857142</ele><time>2026-04-08T14:12:32.991Z</time></trkpt><trkpt lat="42.5794759" lon="12.5855116"><ele>121.7142857142857</ele><time>2026-04-08T14:12:33.99Z</time></trkpt><trkpt lat="42.5794513" lon="12.5856062"><ele>121.99999999999999</ele><time>2026-04-08T14:12:34.991Z</time></trkpt><trkpt lat="42.5794261" lon="12.5856967"><ele>121.99999999999999</ele><time>2026-04-08T14:12:35.99Z</time></trkpt><trkpt lat="42.5793987" lon="12.5857854"><ele>122.0</ele><time>2026-04-08T14:12:36.991Z</time></trkpt><trkpt lat="42.5793713" lon="12.5858715"><ele>121.99999999999999</ele><time>2026-04-08T14:12:37.991Z</time></trkpt><trkpt lat="42.579345" lon="12.5859591"><ele>121.99999999999999</ele><time>2026-04-08T14:12:38.991Z</time></trkpt><trkpt lat="42.5793144" lon="12.586047"><ele>122.0</ele><time>2026-04-08T14:12:39.991Z</time></trkpt><trkpt lat="42.5792895" lon="12.5861337"><ele>121.99999999999999</ele><time>2026-04-08T14:12:40.991Z</time></trkpt><trkpt lat="42.5792629" lon="12.5862228"><ele>121.99999999999999</ele><time>2026-04-08T14:12:41.99Z</time></trkpt><trkpt lat="42.5792336" lon="12.5863083"><ele>121.42857142857142</ele><time>2026-04-08T14:12:42.991Z</time></trkpt><trkpt lat="42.5792049" lon="12.5863917"><ele>120.85714285714286</ele><time>2026-04-08T14:12:43.991Z</time></trkpt><trkpt lat="42.5791768" lon="12.5864768"><ele>120.28571428571428</ele><time>2026-04-08T14:12:44.991Z</time></trkpt><trkpt lat="42.57915" lon="12.5865591"><ele>119.71428571428571</ele><time>2026-04-08T14:12:45.991Z</time></trkpt><trkpt lat="42.5791239" lon="12.5866393"><ele>119.14285714285714</ele><time>2026-04-08T14:12:46.991Z</time></trkpt><trkpt lat="42.5791013" lon="12.5867203"><ele>118.57142857142857</ele><time>2026-04-08T14:12:47.99Z</time></trkpt><trkpt lat="42.5790809" lon="12.5868025"><ele>118.0</ele><time>2026-04-08T14:12:48.99Z</time></trkpt><trkpt lat="42.5790598" lon="12.5868855"><ele>118.0</ele><time>2026-04-08T14:12:49.991Z</time></trkpt><trkpt lat="42.5790351" lon="12.5869651"><ele>118.0</ele><time>2026-04-08T14:12:50.991Z</time></trkpt><trkpt lat="42.5790127" lon="12.5870526"><ele>118.0</ele><time>2026-04-08T14:12:51.99Z</time></trkpt><trkpt lat="42.5789879" lon="12.5871376"><ele>118.0</ele><time>2026-04-08T14:12:52.99Z</time></trkpt><trkpt lat="42.5789636" lon="12.5872181"><ele>118.0</ele><time>2026-04-08T14:12:53.991Z</time></trkpt><trkpt lat="42.5789421" lon="12.5872993"><ele>118.0</ele><time>2026-04-08T14:12:54.991Z</time></trkpt><trkpt lat="42.5789263" lon="12.5873847"><ele>118.0</ele><time>2026-04-08T14:12:55.989Z</time></trkpt><trkpt lat="42.5788938" lon="12.5875448"><ele>118.0</ele><time>2026-04-08T14:12:57.991Z</time></trkpt><trkpt lat="42.5788645" lon="12.587703"><ele>118.00000000000001</ele><time>2026-04-08T14:12:59.99Z</time></trkpt><trkpt lat="42.5788228" lon="12.5878566"><ele>118.00000000000001</ele><time>2026-04-08T14:13:01.991Z</time></trkpt><trkpt lat="42.5787792" lon="12.5880109"><ele>118.0</ele><time>2026-04-08T14:13:03.991Z</time></trkpt><trkpt lat="42.5787509" lon="12.5880929"><ele>118.0</ele><time>2026-04-08T14:13:04.991Z</time></trkpt><trkpt lat="42.5787255" lon="12.5881717"><ele>118.2</ele><time>2026-04-08T14:13:05.991Z</time></trkpt><trkpt lat="42.5786819" lon="12.5883282"><ele>118.4</ele><time>2026-04-08T14:13:07.991Z</time></trkpt><trkpt lat="42.5786327" lon="12.5884838"><ele>118.60000000000001</ele><time>2026-04-08T14:13:09.991Z</time></trkpt><trkpt lat="42.5786068" lon="12.5885633"><ele>118.80000000000001</ele><time>2026-04-08T14:13:10.99Z</time></trkpt><trkpt lat="42.5785646" lon="12.5887283"><ele>119.0</ele><time>2026-04-08T14:13:12.991Z</time></trkpt><trkpt lat="42.5785422" lon="12.5888084"><ele>118.66666666666666</ele><time>2026-04-08T14:13:13.991Z</time></trkpt><trkpt lat="42.5785218" lon="12.5888904"><ele>118.33333333333333</ele><time>2026-04-08T14:13:14.991Z</time></trkpt><trkpt lat="42.5784746" lon="12.5890521"><ele>118.0</ele><time>2026-04-08T14:13:16.991Z</time></trkpt><trkpt lat="42.5784529" lon="12.5891394"><ele>117.66666666666666</ele><time>2026-04-08T14:13:17.991Z</time></trkpt><trkpt lat="42.5784308" lon="12.5892199"><ele>117.33333333333333</ele><time>2026-04-08T14:13:18.989Z</time></trkpt><trkpt lat="42.5784046" lon="12.5893052"><ele>117.0</ele><time>2026-04-08T14:13:19.991Z</time></trkpt><trkpt lat="42.5783737" lon="12.5893841"><ele>117.0</ele><time>2026-04-08T14:13:20.991Z</time></trkpt><trkpt lat="42.5783422" lon="12.5894691"><ele>117.00000000000001</ele><time>2026-04-08T14:13:21.989Z</time></trkpt><trkpt lat="42.5783064" lon="12.5895458"><ele>117.0</ele><time>2026-04-08T14:13:22.991Z</time></trkpt><trkpt lat="42.5782667" lon="12.5896218"><ele>117.0</ele><time>2026-04-08T14:13:23.99Z</time></trkpt><trkpt lat="42.5782246" lon="12.589694"><ele>117.00000000000001</ele><time>2026-04-08T14:13:24.99Z</time></trkpt><trkpt lat="42.5781799" lon="12.58976"><ele>117.0</ele><time>2026-04-08T14:13:25.991Z</time></trkpt><trkpt lat="42.5781347" lon="12.5898313"><ele>117.0</ele><time>2026-04-08T14:13:26.991Z</time></trkpt><trkpt lat="42.5780896" lon="12.589891"><ele>117.19999999999999</ele><time>2026-04-08T14:13:27.991Z</time></trkpt><trkpt lat="42.5780434" lon="12.5899548"><ele>117.39999999999999</ele><time>2026-04-08T14:13:28.991Z</time></trkpt><trkpt lat="42.5779991" lon="12.5900179"><ele>117.60000000000001</ele><time>2026-04-08T14:13:29.991Z</time></trkpt><trkpt lat="42.577912" lon="12.5901384"><ele>117.80000000000001</ele><time>2026-04-08T14:13:31.991Z</time></trkpt><trkpt lat="42.5778275" lon="12.5902565"><ele>118.0</ele><time>2026-04-08T14:13:33.991Z</time></trkpt><trkpt lat="42.5777446" lon="12.5903679"><ele>117.5</ele><time>2026-04-08T14:13:35.991Z</time></trkpt><trkpt lat="42.5776733" lon="12.5904964"><ele>117.0</ele><time>2026-04-08T14:13:37.99Z</time></trkpt><trkpt lat="42.5776102" lon="12.5906305"><ele>116.5</ele><time>2026-04-08T14:13:39.991Z</time></trkpt><trkpt lat="42.5775407" lon="12.5907608"><ele>116.0</ele><time>2026-04-08T14:13:41.99Z</time></trkpt><trkpt lat="42.5774755" lon="12.5908993"><ele>116.0</ele><time>2026-04-08T14:13:43.989Z</time></trkpt><trkpt lat="42.5774409" lon="12.5909719"><ele>116.0</ele><time>2026-04-08T14:13:44.991Z</time></trkpt><trkpt lat="42.5773787" lon="12.5911138"><ele>116.0</ele><time>2026-04-08T14:13:46.991Z</time></trkpt><trkpt lat="42.5773125" lon="12.5912636"><ele>116.0</ele><time>2026-04-08T14:13:48.99Z</time></trkpt><trkpt lat="42.5772368" lon="12.5913963"><ele>116.0</ele><time>2026-04-08T14:13:50.991Z</time></trkpt><trkpt lat="42.5771422" lon="12.5915112"><ele>115.99999999999999</ele><time>2026-04-08T14:13:52.99Z</time></trkpt><trkpt lat="42.5770903" lon="12.5915622"><ele>116.0</ele><time>2026-04-08T14:13:53.991Z</time></trkpt><trkpt lat="42.5770371" lon="12.591611"><ele>116.0</ele><time>2026-04-08T14:13:54.99Z</time></trkpt><trkpt lat="42.5769825" lon="12.5916551"><ele>116.0</ele><time>2026-04-08T14:13:55.991Z</time></trkpt><trkpt lat="42.5769277" lon="12.591698"><ele>115.99999999999999</ele><time>2026-04-08T14:13:56.991Z</time></trkpt><trkpt lat="42.5768748" lon="12.5918286"><ele>116.0</ele><time>2026-04-08T14:13:58.99Z</time></trkpt><trkpt lat="42.5768946" lon="12.5919692"><ele>116.19999999999999</ele><time>2026-04-08T14:14:00.99Z</time></trkpt><trkpt lat="42.5769234" lon="12.5921079"><ele>116.39999999999999</ele><time>2026-04-08T14:14:02.991Z</time></trkpt><trkpt lat="42.5769606" lon="12.5922496"><ele>116.6</ele><time>2026-04-08T14:14:04.991Z</time></trkpt><trkpt lat="42.5770076" lon="12.5923902"><ele>116.8</ele><time>2026-04-08T14:14:06.991Z</time></trkpt><trkpt lat="42.5770585" lon="12.5925293"><ele>117.0</ele><time>2026-04-08T14:14:08.991Z</time></trkpt><trkpt lat="42.5771108" lon="12.5926654"><ele>117.0</ele><time>2026-04-08T14:14:10.99Z</time></trkpt><trkpt lat="42.5771594" lon="12.5928019"><ele>117.0</ele><time>2026-04-08T14:14:12.99Z</time></trkpt><trkpt lat="42.5772135" lon="12.5929343"><ele>117.0</ele><time>2026-04-08T14:14:14.991Z</time></trkpt><trkpt lat="42.5772676" lon="12.5930675"><ele>117.0</ele><time>2026-04-08T14:14:16.99Z</time></trkpt><trkpt lat="42.5773268" lon="12.5932049"><ele>117.0</ele><time>2026-04-08T14:14:18.991Z</time></trkpt><trkpt lat="42.5773888" lon="12.5933337"><ele>116.99999999999999</ele><time>2026-04-08T14:14:20.99Z</time></trkpt><trkpt lat="42.5774501" lon="12.5934574"><ele>116.99999999999999</ele><time>2026-04-08T14:14:22.991Z</time></trkpt><trkpt lat="42.577517" lon="12.5935772"><ele>117.0</ele><time>2026-04-08T14:14:24.991Z</time></trkpt><trkpt lat="42.5775818" lon="12.5937004"><ele>117.0</ele><time>2026-04-08T14:14:26.991Z</time></trkpt><trkpt lat="42.5776399" lon="12.5938165"><ele>117.0</ele><time>2026-04-08T14:14:28.991Z</time></trkpt><trkpt lat="42.5776904" lon="12.5939417"><ele>116.99999999999999</ele><time>2026-04-08T14:14:30.99Z</time></trkpt><trkpt lat="42.5777351" lon="12.5940661"><ele>116.99999999999999</ele><time>2026-04-08T14:14:32.99Z</time></trkpt><trkpt lat="42.5777902" lon="12.5941792"><ele>117.0</ele><time>2026-04-08T14:14:34.99Z</time></trkpt><trkpt lat="42.5778359" lon="12.5942985"><ele>117.0</ele><time>2026-04-08T14:14:36.991Z</time></trkpt><trkpt lat="42.5778822" lon="12.594412"><ele>117.66666666666667</ele><time>2026-04-08T14:14:38.989Z</time></trkpt><trkpt lat="42.5779291" lon="12.594525"><ele>118.33333333333334</ele><time>2026-04-08T14:14:40.991Z</time></trkpt><trkpt lat="42.577959" lon="12.5946384"><ele>119.0</ele><time>2026-04-08T14:14:42.991Z</time></trkpt><trkpt lat="42.5779752" lon="12.5947471"><ele>119.66666666666667</ele><time>2026-04-08T14:14:44.99Z</time></trkpt><trkpt lat="42.5779842" lon="12.5948481"><ele>120.33333333333334</ele><time>2026-04-08T14:14:46.99Z</time></trkpt><trkpt lat="42.5779837" lon="12.5949387"><ele>121.0</ele><time>2026-04-08T14:14:48.991Z</time></trkpt><trkpt lat="42.5779665" lon="12.5950624"><ele>121.00000000000001</ele><time>2026-04-08T14:14:51.991Z</time></trkpt><trkpt lat="42.5779544" lon="12.5951847"><ele>121.0</ele><time>2026-04-08T14:14:54.99Z</time></trkpt><trkpt lat="42.5779033" lon="12.5952865"><ele>121.0</ele><time>2026-04-08T14:14:57.989Z</time></trkpt><trkpt lat="42.5778569" lon="12.5953664"><ele>121.0</ele><time>2026-04-08T14:14:59.991Z</time></trkpt><trkpt lat="42.5778241" lon="12.595468"><ele>121.00000000000001</ele><time>2026-04-08T14:15:01.991Z</time></trkpt><trkpt lat="42.5778133" lon="12.5955827"><ele>121.0</ele><time>2026-04-08T14:15:03.99Z</time></trkpt><trkpt lat="42.5777914" lon="12.5957078"><ele>121.4</ele><time>2026-04-08T14:15:05.99Z</time></trkpt><trkpt lat="42.5777345" lon="12.5958092"><ele>121.8</ele><time>2026-04-08T14:15:07.99Z</time></trkpt><trkpt lat="42.5776644" lon="12.5958979"><ele>122.20000000000002</ele><time>2026-04-08T14:15:09.99Z</time></trkpt><trkpt lat="42.5775882" lon="12.5959769"><ele>122.60000000000001</ele><time>2026-04-08T14:15:11.991Z</time></trkpt><trkpt lat="42.5775063" lon="12.5960548"><ele>123.0</ele><time>2026-04-08T14:15:13.99Z</time></trkpt><trkpt lat="42.5774314" lon="12.5961397"><ele>122.80000000000001</ele><time>2026-04-08T14:15:15.99Z</time></trkpt><trkpt lat="42.5773478" lon="12.5962288"><ele>122.60000000000001</ele><time>2026-04-08T14:15:17.99Z</time></trkpt><trkpt lat="42.5772657" lon="12.5963184"><ele>122.39999999999999</ele><time>2026-04-08T14:15:19.99Z</time></trkpt><trkpt lat="42.5771805" lon="12.5964126"><ele>122.19999999999999</ele><time>2026-04-08T14:15:21.99Z</time></trkpt><trkpt lat="42.5770886" lon="12.5965043"><ele>122.0</ele><time>2026-04-08T14:15:23.99Z</time></trkpt><trkpt lat="42.576997" lon="12.5966012"><ele>122.0</ele><time>2026-04-08T14:15:25.99Z</time></trkpt><trkpt lat="42.576907" lon="12.596702"><ele>122.0</ele><time>2026-04-08T14:15:27.99Z</time></trkpt><trkpt lat="42.576815" lon="12.5967993"><ele>122.0</ele><time>2026-04-08T14:15:29.99Z</time></trkpt><trkpt lat="42.5767223" lon="12.5968897"><ele>122.0</ele><time>2026-04-08T14:15:31.99Z</time></trkpt><trkpt lat="42.5766299" lon="12.5969866"><ele>123.75</ele><time>2026-04-08T14:15:33.991Z</time></trkpt><trkpt lat="42.5765357" lon="12.5970849"><ele>125.5</ele><time>2026-04-08T14:15:35.99Z</time></trkpt><trkpt lat="42.5764443" lon="12.5971798"><ele>127.25</ele><time>2026-04-08T14:15:37.99Z</time></trkpt><trkpt lat="42.5763517" lon="12.5972824"><ele>129.0</ele><time>2026-04-08T14:15:39.99Z</time></trkpt><trkpt lat="42.5762555" lon="12.59738"><ele>129.0</ele><time>2026-04-08T14:15:41.99Z</time></trkpt><trkpt lat="42.5762037" lon="12.5974297"><ele>129.0</ele><time>2026-04-08T14:15:42.99Z</time></trkpt><trkpt lat="42.5761538" lon="12.5974823"><ele>129.0</ele><time>2026-04-08T14:15:43.99Z</time></trkpt><trkpt lat="42.5760554" lon="12.5975849"><ele>129.0</ele><time>2026-04-08T14:15:45.99Z</time></trkpt><trkpt lat="42.575952" lon="12.5976887"><ele>129.0</ele><time>2026-04-08T14:15:47.991Z</time></trkpt><trkpt lat="42.5758955" lon="12.5977289"><ele>129.0</ele><time>2026-04-08T14:15:48.99Z</time></trkpt><trkpt lat="42.5758395" lon="12.5977695"><ele>128.83333333333334</ele><time>2026-04-08T14:15:49.99Z</time></trkpt><trkpt lat="42.5757887" lon="12.597821"><ele>128.66666666666666</ele><time>2026-04-08T14:15:50.99Z</time></trkpt><trkpt lat="42.5757379" lon="12.5978747"><ele>128.5</ele><time>2026-04-08T14:15:51.99Z</time></trkpt><trkpt lat="42.5756365" lon="12.5979836"><ele>128.33333333333331</ele><time>2026-04-08T14:15:53.99Z</time></trkpt><trkpt lat="42.5755878" lon="12.5980474"><ele>128.16666666666666</ele><time>2026-04-08T14:15:54.99Z</time></trkpt><trkpt lat="42.5755406" lon="12.5981097"><ele>128.0</ele><time>2026-04-08T14:15:55.991Z</time></trkpt><trkpt lat="42.5754927" lon="12.5981718"><ele>128.0</ele><time>2026-04-08T14:15:56.99Z</time></trkpt><trkpt lat="42.5754408" lon="12.5982321"><ele>127.99999999999999</ele><time>2026-04-08T14:15:57.991Z</time></trkpt><trkpt lat="42.5753875" lon="12.5982871"><ele>128.0</ele><time>2026-04-08T14:15:58.991Z</time></trkpt><trkpt lat="42.5753346" lon="12.5983421"><ele>128.0</ele><time>2026-04-08T14:15:59.991Z</time></trkpt><trkpt lat="42.5752813" lon="12.5983983"><ele>127.99999999999999</ele><time>2026-04-08T14:16:00.99Z</time></trkpt><trkpt lat="42.5752292" lon="12.5984545"><ele>128.0</ele><time>2026-04-08T14:16:01.991Z</time></trkpt><trkpt lat="42.5751741" lon="12.5985133"><ele>128.0</ele><time>2026-04-08T14:16:02.99Z</time></trkpt><trkpt lat="42.5751198" lon="12.5985714"><ele>126.71428571428571</ele><time>2026-04-08T14:16:03.991Z</time></trkpt><trkpt lat="42.575065" lon="12.5986329"><ele>125.42857142857142</ele><time>2026-04-08T14:16:04.99Z</time></trkpt><trkpt lat="42.5750076" lon="12.598695"><ele>124.14285714285714</ele><time>2026-04-08T14:16:05.99Z</time></trkpt><trkpt lat="42.5749571" lon="12.5987526"><ele>122.85714285714286</ele><time>2026-04-08T14:16:06.991Z</time></trkpt><trkpt lat="42.5749031" lon="12.5988091"><ele>121.57142857142857</ele><time>2026-04-08T14:16:07.991Z</time></trkpt><trkpt lat="42.574845" lon="12.5988689"><ele>120.28571428571428</ele><time>2026-04-08T14:16:08.99Z</time></trkpt><trkpt lat="42.574784" lon="12.5989285"><ele>119.0</ele><time>2026-04-08T14:16:09.991Z</time></trkpt><trkpt lat="42.5747289" lon="12.5989896"><ele>119.0</ele><time>2026-04-08T14:16:10.99Z</time></trkpt><trkpt lat="42.5746709" lon="12.5990491"><ele>119.0</ele><time>2026-04-08T14:16:11.991Z</time></trkpt><trkpt lat="42.574616" lon="12.599108"><ele>119.0</ele><time>2026-04-08T14:16:12.99Z</time></trkpt><trkpt lat="42.5745569" lon="12.5991741"><ele>119.0</ele><time>2026-04-08T14:16:13.991Z</time></trkpt><trkpt lat="42.574498" lon="12.5992336"><ele>119.0</ele><time>2026-04-08T14:16:14.99Z</time></trkpt><trkpt lat="42.5744433" lon="12.5992946"><ele>119.0</ele><time>2026-04-08T14:16:15.99Z</time></trkpt><trkpt lat="42.5743871" lon="12.5993515"><ele>119.0</ele><time>2026-04-08T14:16:16.99Z</time></trkpt><trkpt lat="42.5743312" lon="12.5994086"><ele>118.42857142857143</ele><time>2026-04-08T14:16:17.99Z</time></trkpt><trkpt lat="42.5742773" lon="12.5994675"><ele>117.85714285714286</ele><time>2026-04-08T14:16:18.99Z</time></trkpt><trkpt lat="42.5742204" lon="12.5995212"><ele>117.28571428571428</ele><time>2026-04-08T14:16:19.991Z</time></trkpt><trkpt lat="42.5741688" lon="12.5995754"><ele>116.71428571428571</ele><time>2026-04-08T14:16:20.989Z</time></trkpt><trkpt lat="42.5741162" lon="12.5996355"><ele>116.14285714285714</ele><time>2026-04-08T14:16:21.99Z</time></trkpt><trkpt lat="42.5740596" lon="12.5996936"><ele>115.57142857142856</ele><time>2026-04-08T14:16:22.991Z</time></trkpt><trkpt lat="42.5740048" lon="12.5997541"><ele>114.99999999999999</ele><time>2026-04-08T14:16:23.99Z</time></trkpt><trkpt lat="42.5739534" lon="12.5998147"><ele>114.99999999999999</ele><time>2026-04-08T14:16:24.99Z</time></trkpt><trkpt lat="42.5738982" lon="12.5998768"><ele>115.0</ele><time>2026-04-08T14:16:25.99Z</time></trkpt><trkpt lat="42.5738422" lon="12.5999343"><ele>114.99999999999999</ele><time>2026-04-08T14:16:26.991Z</time></trkpt><trkpt lat="42.5737833" lon="12.5999935"><ele>114.99999999999999</ele><time>2026-04-08T14:16:27.991Z</time></trkpt><trkpt lat="42.5737264" lon="12.600053"><ele>115.0</ele><time>2026-04-08T14:16:28.99Z</time></trkpt><trkpt lat="42.5736654" lon="12.6001092"><ele>114.99999999999999</ele><time>2026-04-08T14:16:29.99Z</time></trkpt><trkpt lat="42.5736113" lon="12.6001634"><ele>114.99999999999999</ele><time>2026-04-08T14:16:30.991Z</time></trkpt><trkpt lat="42.5735494" lon="12.6002215"><ele>114.85714285714283</ele><time>2026-04-08T14:16:31.99Z</time></trkpt><trkpt lat="42.5734927" lon="12.6002871"><ele>114.71428571428571</ele><time>2026-04-08T14:16:32.991Z</time></trkpt><trkpt lat="42.5734364" lon="12.6003473"><ele>114.57142857142856</ele><time>2026-04-08T14:16:33.989Z</time></trkpt><trkpt lat="42.5733818" lon="12.6004071"><ele>114.42857142857142</ele><time>2026-04-08T14:16:34.99Z</time></trkpt><trkpt lat="42.5733268" lon="12.600469"><ele>114.28571428571428</ele><time>2026-04-08T14:16:35.991Z</time></trkpt><trkpt lat="42.573269" lon="12.6005249"><ele>114.14285714285714</ele><time>2026-04-08T14:16:36.99Z</time></trkpt><trkpt lat="42.5732118" lon="12.6005818"><ele>114.0</ele><time>2026-04-08T14:16:37.99Z</time></trkpt><trkpt lat="42.5731581" lon="12.6006398"><ele>114.0</ele><time>2026-04-08T14:16:38.991Z</time></trkpt><trkpt lat="42.5731031" lon="12.6007013"><ele>113.99999999999999</ele><time>2026-04-08T14:16:39.989Z</time></trkpt><trkpt lat="42.5730468" lon="12.600767"><ele>114.0</ele><time>2026-04-08T14:16:40.99Z</time></trkpt><trkpt lat="42.5729886" lon="12.6008253"><ele>114.0</ele><time>2026-04-08T14:16:41.99Z</time></trkpt><trkpt lat="42.572933" lon="12.6008897"><ele>113.99999999999999</ele><time>2026-04-08T14:16:42.99Z</time></trkpt><trkpt lat="42.5728805" lon="12.6009484"><ele>114.0</ele><time>2026-04-08T14:16:43.991Z</time></trkpt><trkpt lat="42.5728268" lon="12.6010087"><ele>114.0</ele><time>2026-04-08T14:16:44.991Z</time></trkpt><trkpt lat="42.5727725" lon="12.6010681"><ele>113.42857142857142</ele><time>2026-04-08T14:16:45.989Z</time></trkpt><trkpt lat="42.5727155" lon="12.6011217"><ele>112.85714285714285</ele><time>2026-04-08T14:16:46.991Z</time></trkpt><trkpt lat="42.5726607" lon="12.6011775"><ele>112.28571428571428</ele><time>2026-04-08T14:16:47.99Z</time></trkpt><trkpt lat="42.5726046" lon="12.601238"><ele>111.71428571428571</ele><time>2026-04-08T14:16:48.991Z</time></trkpt><trkpt lat="42.5725491" lon="12.6012947"><ele>111.14285714285714</ele><time>2026-04-08T14:16:49.99Z</time></trkpt><trkpt lat="42.5724928" lon="12.6013549"><ele>110.57142857142856</ele><time>2026-04-08T14:16:50.99Z</time></trkpt><trkpt lat="42.5724408" lon="12.6014178"><ele>110.0</ele><time>2026-04-08T14:16:51.991Z</time></trkpt><trkpt lat="42.5723889" lon="12.6014732"><ele>110.0</ele><time>2026-04-08T14:16:52.991Z</time></trkpt><trkpt lat="42.5723308" lon="12.6015326"><ele>110.0</ele><time>2026-04-08T14:16:53.99Z</time></trkpt><trkpt lat="42.5722805" lon="12.6015858"><ele>110.0</ele><time>2026-04-08T14:16:54.991Z</time></trkpt><trkpt lat="42.5721879" lon="12.6016766"><ele>110.0</ele><time>2026-04-08T14:16:56.99Z</time></trkpt><trkpt lat="42.5720958" lon="12.6017491"><ele>110.0</ele><time>2026-04-08T14:16:58.991Z</time></trkpt><trkpt lat="42.5719955" lon="12.6017519"><ele>109.8</ele><time>2026-04-08T14:17:00.99Z</time></trkpt><trkpt lat="42.5719116" lon="12.6016828"><ele>109.6</ele><time>2026-04-08T14:17:02.991Z</time></trkpt><trkpt lat="42.5718704" lon="12.6015625"><ele>109.4</ele><time>2026-04-08T14:17:04.991Z</time></trkpt><trkpt lat="42.5718511" lon="12.6014434"><ele>109.2</ele><time>2026-04-08T14:17:06.99Z</time></trkpt><trkpt lat="42.5718287" lon="12.6013318"><ele>109.0</ele><time>2026-04-08T14:17:08.991Z</time></trkpt><trkpt lat="42.5718189" lon="12.6012241"><ele>109.00000000000001</ele><time>2026-04-08T14:17:10.989Z</time></trkpt><trkpt lat="42.5718145" lon="12.6011305"><ele>109.0</ele><time>2026-04-08T14:17:13.99Z</time></trkpt><trkpt lat="42.5717748" lon="12.60104"><ele>109.0</ele><time>2026-04-08T14:18:00.99Z</time></trkpt><trkpt lat="42.5717631" lon="12.600909"><ele>109.0</ele><time>2026-04-08T14:18:03.99Z</time></trkpt><trkpt lat="42.5717557" lon="12.6008134"><ele>109.00000000000001</ele><time>2026-04-08T14:18:05.99Z</time></trkpt><trkpt lat="42.5717466" lon="12.6007067"><ele>109.0</ele><time>2026-04-08T14:18:07.99Z</time></trkpt><trkpt lat="42.5717358" lon="12.6005933"><ele>109.0</ele><time>2026-04-08T14:18:09.991Z</time></trkpt><trkpt lat="42.5717243" lon="12.6004685"><ele>109.0</ele><time>2026-04-08T14:18:11.99Z</time></trkpt><trkpt lat="42.5717148" lon="12.6003484"><ele>109.0</ele><time>2026-04-08T14:18:13.991Z</time></trkpt><trkpt lat="42.5717033" lon="12.6002225"><ele>109.0</ele><time>2026-04-08T14:18:15.99Z</time></trkpt><trkpt lat="42.5716952" lon="12.6001045"><ele>109.0</ele><time>2026-04-08T14:18:17.99Z</time></trkpt><trkpt lat="42.5716864" lon="12.5999799"><ele>109.2</ele><time>2026-04-08T14:18:19.99Z</time></trkpt><trkpt lat="42.571671" lon="12.5998427"><ele>109.4</ele><time>2026-04-08T14:18:21.99Z</time></trkpt><trkpt lat="42.5716544" lon="12.5997031"><ele>109.6</ele><time>2026-04-08T14:18:23.99Z</time></trkpt><trkpt lat="42.5716398" lon="12.599578"><ele>109.8</ele><time>2026-04-08T14:18:25.99Z</time></trkpt><trkpt lat="42.5716271" lon="12.599442"><ele>110.0</ele><time>2026-04-08T14:18:27.99Z</time></trkpt><trkpt lat="42.5716143" lon="12.5993118"><ele>110.2</ele><time>2026-04-08T14:18:29.99Z</time></trkpt><trkpt lat="42.5716018" lon="12.5991808"><ele>110.4</ele><time>2026-04-08T14:18:31.989Z</time></trkpt><trkpt lat="42.5715838" lon="12.5990566"><ele>110.6</ele><time>2026-04-08T14:18:33.991Z</time></trkpt><trkpt lat="42.571558" lon="12.5989274"><ele>110.8</ele><time>2026-04-08T14:18:35.991Z</time></trkpt><trkpt lat="42.5715316" lon="12.5988018"><ele>111.0</ele><time>2026-04-08T14:18:37.991Z</time></trkpt><trkpt lat="42.5714917" lon="12.5986743"><ele>110.6</ele><time>2026-04-08T14:18:39.99Z</time></trkpt><trkpt lat="42.571448" lon="12.5985534"><ele>110.19999999999999</ele><time>2026-04-08T14:18:41.989Z</time></trkpt><trkpt lat="42.5713936" lon="12.5984428"><ele>109.80000000000001</ele><time>2026-04-08T14:18:43.99Z</time></trkpt><trkpt lat="42.5713386" lon="12.5983353"><ele>109.4</ele><time>2026-04-08T14:18:45.991Z</time></trkpt><trkpt lat="42.5712847" lon="12.5982382"><ele>109.0</ele><time>2026-04-08T14:18:47.991Z</time></trkpt><trkpt lat="42.5712242" lon="12.5981409"><ele>109.00000000000001</ele><time>2026-04-08T14:18:49.989Z</time></trkpt><trkpt lat="42.5711673" lon="12.5980533"><ele>109.0</ele><time>2026-04-08T14:18:51.99Z</time></trkpt><trkpt lat="42.5711023" lon="12.5979713"><ele>109.0</ele><time>2026-04-08T14:18:53.99Z</time></trkpt><trkpt lat="42.5710345" lon="12.5978982"><ele>109.0</ele><time>2026-04-08T14:18:55.99Z</time></trkpt><trkpt lat="42.5709636" lon="12.5978297"><ele>109.00000000000001</ele><time>2026-04-08T14:18:57.989Z</time></trkpt><trkpt lat="42.5708902" lon="12.5977648"><ele>109.0</ele><time>2026-04-08T14:18:59.99Z</time></trkpt><trkpt lat="42.5708139" lon="12.5977051"><ele>109.0</ele><time>2026-04-08T14:19:01.99Z</time></trkpt><trkpt lat="42.5707355" lon="12.5976478"><ele>109.0</ele><time>2026-04-08T14:19:03.99Z</time></trkpt><trkpt lat="42.5706545" lon="12.5975952"><ele>109.0</ele><time>2026-04-08T14:19:05.991Z</time></trkpt><trkpt lat="42.5705641" lon="12.5975587"><ele>109.0</ele><time>2026-04-08T14:19:07.99Z</time></trkpt><trkpt lat="42.5704761" lon="12.5975327"><ele>109.0</ele><time>2026-04-08T14:19:09.99Z</time></trkpt><trkpt lat="42.5703836" lon="12.5975178"><ele>109.6</ele><time>2026-04-08T14:19:11.99Z</time></trkpt><trkpt lat="42.5702866" lon="12.5975072"><ele>110.2</ele><time>2026-04-08T14:19:13.991Z</time></trkpt><trkpt lat="42.5701851" lon="12.5974974"><ele>110.79999999999998</ele><time>2026-04-08T14:19:15.99Z</time></trkpt><trkpt lat="42.5700799" lon="12.5974882"><ele>111.39999999999999</ele><time>2026-04-08T14:19:17.989Z</time></trkpt><trkpt lat="42.569975" lon="12.5974906"><ele>112.0</ele><time>2026-04-08T14:19:19.99Z</time></trkpt><trkpt lat="42.5698792" lon="12.5974863"><ele>112.0</ele><time>2026-04-08T14:19:21.99Z</time></trkpt><trkpt lat="42.5697862" lon="12.597494"><ele>111.99999999999999</ele><time>2026-04-08T14:19:23.99Z</time></trkpt><trkpt lat="42.5696853" lon="12.5975017"><ele>111.99999999999999</ele><time>2026-04-08T14:19:25.99Z</time></trkpt><trkpt lat="42.5695799" lon="12.597508"><ele>112.0</ele><time>2026-04-08T14:19:27.99Z</time></trkpt><trkpt lat="42.5694693" lon="12.5975005"><ele>112.0</ele><time>2026-04-08T14:19:29.99Z</time></trkpt><trkpt lat="42.569359" lon="12.597503"><ele>112.0</ele><time>2026-04-08T14:19:31.99Z</time></trkpt><trkpt lat="42.5692435" lon="12.597516"><ele>111.99999999999999</ele><time>2026-04-08T14:19:33.99Z</time></trkpt><trkpt lat="42.5691327" lon="12.5975187"><ele>111.99999999999999</ele><time>2026-04-08T14:19:35.99Z</time></trkpt><trkpt lat="42.569029" lon="12.5975181"><ele>112.0</ele><time>2026-04-08T14:19:37.99Z</time></trkpt><trkpt lat="42.56892" lon="12.5975255"><ele>112.0</ele><time>2026-04-08T14:19:39.99Z</time></trkpt><trkpt lat="42.5688031" lon="12.5975266"><ele>111.83333333333334</ele><time>2026-04-08T14:19:41.991Z</time></trkpt><trkpt lat="42.5686738" lon="12.5975329"><ele>111.66666666666667</ele><time>2026-04-08T14:19:43.99Z</time></trkpt><trkpt lat="42.5686084" lon="12.5975373"><ele>111.5</ele><time>2026-04-08T14:19:44.99Z</time></trkpt><trkpt lat="42.5685396" lon="12.597537"><ele>111.33333333333334</ele><time>2026-04-08T14:19:45.99Z</time></trkpt><trkpt lat="42.5684657" lon="12.5975416"><ele>111.16666666666667</ele><time>2026-04-08T14:19:46.99Z</time></trkpt><trkpt lat="42.5683932" lon="12.5975476"><ele>111.0</ele><time>2026-04-08T14:19:47.989Z</time></trkpt><trkpt lat="42.5683145" lon="12.5975523"><ele>111.0</ele><time>2026-04-08T14:19:48.989Z</time></trkpt><trkpt lat="42.5682373" lon="12.5975566"><ele>111.0</ele><time>2026-04-08T14:19:49.99Z</time></trkpt><trkpt lat="42.5681571" lon="12.5975648"><ele>111.0</ele><time>2026-04-08T14:19:50.99Z</time></trkpt><trkpt lat="42.5680739" lon="12.597572"><ele>111.0</ele><time>2026-04-08T14:19:51.99Z</time></trkpt><trkpt lat="42.5679924" lon="12.5975797"><ele>111.0</ele><time>2026-04-08T14:19:52.989Z</time></trkpt><trkpt lat="42.5679051" lon="12.5975908"><ele>111.0</ele><time>2026-04-08T14:19:53.989Z</time></trkpt><trkpt lat="42.5678191" lon="12.5976098"><ele>110.33333333333333</ele><time>2026-04-08T14:19:54.989Z</time></trkpt><trkpt lat="42.5677338" lon="12.5976337"><ele>109.66666666666666</ele><time>2026-04-08T14:19:55.99Z</time></trkpt><trkpt lat="42.5676596" lon="12.5976506"><ele>109.0</ele><time>2026-04-08T14:19:56.99Z</time></trkpt><trkpt lat="42.5675924" lon="12.5976745"><ele>108.33333333333333</ele><time>2026-04-08T14:19:57.989Z</time></trkpt><trkpt lat="42.5675238" lon="12.5976986"><ele>107.66666666666666</ele><time>2026-04-08T14:19:58.99Z</time></trkpt><trkpt lat="42.567407" lon="12.5977385"><ele>107.0</ele><time>2026-04-08T14:20:00.989Z</time></trkpt><trkpt lat="42.567316" lon="12.597775"><ele>107.0</ele><time>2026-04-08T14:20:02.99Z</time></trkpt><trkpt lat="42.5672342" lon="12.5977956"><ele>106.99999999999999</ele><time>2026-04-08T14:20:04.989Z</time></trkpt><trkpt lat="42.5671528" lon="12.597818"><ele>106.99999999999999</ele><time>2026-04-08T14:20:07.99Z</time></trkpt><trkpt lat="42.5670617" lon="12.5978291"><ele>107.0</ele><time>2026-04-08T14:20:11.99Z</time></trkpt><trkpt lat="42.5669656" lon="12.5978558"><ele>107.0</ele><time>2026-04-08T14:20:13.99Z</time></trkpt><trkpt lat="42.5668874" lon="12.5979345"><ele>107.0</ele><time>2026-04-08T14:20:15.989Z</time></trkpt><trkpt lat="42.5668675" lon="12.5980798"><ele>107.0</ele><time>2026-04-08T14:20:17.99Z</time></trkpt><trkpt lat="42.5669126" lon="12.5982199"><ele>107.0</ele><time>2026-04-08T14:20:19.99Z</time></trkpt><trkpt lat="42.5669857" lon="12.5983497"><ele>107.0</ele><time>2026-04-08T14:20:21.99Z</time></trkpt><trkpt lat="42.5670532" lon="12.5984849"><ele>106.75</ele><time>2026-04-08T14:20:23.99Z</time></trkpt><trkpt lat="42.5671122" lon="12.5986282"><ele>106.5</ele><time>2026-04-08T14:20:25.99Z</time></trkpt><trkpt lat="42.5671692" lon="12.5987805"><ele>106.25</ele><time>2026-04-08T14:20:27.989Z</time></trkpt><trkpt lat="42.5672215" lon="12.598927"><ele>106.0</ele><time>2026-04-08T14:20:29.99Z</time></trkpt><trkpt lat="42.5672689" lon="12.5990841"><ele>106.00000000000001</ele><time>2026-04-08T14:20:31.991Z</time></trkpt><trkpt lat="42.5673125" lon="12.5992435"><ele>106.0</ele><time>2026-04-08T14:20:33.99Z</time></trkpt><trkpt lat="42.5673339" lon="12.5993278"><ele>106.0</ele><time>2026-04-08T14:20:34.99Z</time></trkpt><trkpt lat="42.5673726" lon="12.5994887"><ele>106.0</ele><time>2026-04-08T14:20:36.991Z</time></trkpt><trkpt lat="42.5673923" lon="12.5995726"><ele>106.00000000000001</ele><time>2026-04-08T14:20:37.99Z</time></trkpt><trkpt lat="42.567409" lon="12.5996597"><ele>106.0</ele><time>2026-04-08T14:20:38.99Z</time></trkpt><trkpt lat="42.567427" lon="12.5997486"><ele>106.0</ele><time>2026-04-08T14:20:39.99Z</time></trkpt><trkpt lat="42.5674442" lon="12.5998316"><ele>106.0</ele><time>2026-04-08T14:20:40.99Z</time></trkpt><trkpt lat="42.5674595" lon="12.5999197"><ele>106.0</ele><time>2026-04-08T14:20:41.99Z</time></trkpt><trkpt lat="42.5674701" lon="12.6000057"><ele>106.0</ele><time>2026-04-08T14:20:42.99Z</time></trkpt><trkpt lat="42.567484" lon="12.6001009"><ele>106.0</ele><time>2026-04-08T14:20:43.99Z</time></trkpt><trkpt lat="42.5675" lon="12.6001912"><ele>106.0</ele><time>2026-04-08T14:20:44.99Z</time></trkpt><trkpt lat="42.5675096" lon="12.6002773"><ele>106.0</ele><time>2026-04-08T14:20:45.989Z</time></trkpt><trkpt lat="42.5675202" lon="12.6003678"><ele>106.0</ele><time>2026-04-08T14:20:46.99Z</time></trkpt><trkpt lat="42.5675274" lon="12.600454"><ele>106.0</ele><time>2026-04-08T14:20:47.99Z</time></trkpt><trkpt lat="42.5675355" lon="12.600544"><ele>106.0</ele><time>2026-04-08T14:20:48.99Z</time></trkpt><trkpt lat="42.5675443" lon="12.6006289"><ele>106.0</ele><time>2026-04-08T14:20:49.99Z</time></trkpt><trkpt lat="42.5675524" lon="12.6007215"><ele>106.0</ele><time>2026-04-08T14:20:50.99Z</time></trkpt><trkpt lat="42.5675626" lon="12.6008081"><ele>106.0</ele><time>2026-04-08T14:20:51.99Z</time></trkpt><trkpt lat="42.5675665" lon="12.6008992"><ele>106.0</ele><time>2026-04-08T14:20:52.99Z</time></trkpt><trkpt lat="42.5675742" lon="12.6009922"><ele>106.0</ele><time>2026-04-08T14:20:53.99Z</time></trkpt><trkpt lat="42.5675778" lon="12.6010824"><ele>106.0</ele><time>2026-04-08T14:20:54.99Z</time></trkpt><trkpt lat="42.5675779" lon="12.6011711"><ele>106.0</ele><time>2026-04-08T14:20:55.99Z</time></trkpt><trkpt lat="42.567581" lon="12.6012611"><ele>106.0</ele><time>2026-04-08T14:20:56.989Z</time></trkpt><trkpt lat="42.5675844" lon="12.6013541"><ele>106.0</ele><time>2026-04-08T14:20:57.989Z</time></trkpt><trkpt lat="42.5675822" lon="12.6014457"><ele>106.0</ele><time>2026-04-08T14:20:58.99Z</time></trkpt><trkpt lat="42.5675793" lon="12.6015344"><ele>106.0</ele><time>2026-04-08T14:20:59.989Z</time></trkpt><trkpt lat="42.5675757" lon="12.6016244"><ele>106.0</ele><time>2026-04-08T14:21:00.99Z</time></trkpt><trkpt lat="42.5675675" lon="12.6017154"><ele>106.0</ele><time>2026-04-08T14:21:01.99Z</time></trkpt><trkpt lat="42.5675617" lon="12.6018051"><ele>106.0</ele><time>2026-04-08T14:21:02.989Z</time></trkpt><trkpt lat="42.5675573" lon="12.6018973"><ele>106.0</ele><time>2026-04-08T14:21:03.99Z</time></trkpt><trkpt lat="42.5675545" lon="12.601989"><ele>106.0</ele><time>2026-04-08T14:21:04.99Z</time></trkpt><trkpt lat="42.5675462" lon="12.6020775"><ele>106.0</ele><time>2026-04-08T14:21:05.99Z</time></trkpt><trkpt lat="42.5675349" lon="12.6021672"><ele>106.0</ele><time>2026-04-08T14:21:06.99Z</time></trkpt><trkpt lat="42.5675273" lon="12.6022556"><ele>106.00000000000001</ele><time>2026-04-08T14:21:07.99Z</time></trkpt><trkpt lat="42.5675155" lon="12.6023446"><ele>106.0</ele><time>2026-04-08T14:21:08.99Z</time></trkpt><trkpt lat="42.5675046" lon="12.6024341"><ele>106.0</ele><time>2026-04-08T14:21:09.99Z</time></trkpt><trkpt lat="42.5674944" lon="12.6025219"><ele>106.0</ele><time>2026-04-08T14:21:10.99Z</time></trkpt><trkpt lat="42.5674616" lon="12.6026856"><ele>106.00000000000001</ele><time>2026-04-08T14:21:12.99Z</time></trkpt><trkpt lat="42.5674467" lon="12.6027704"><ele>106.0</ele><time>2026-04-08T14:21:13.99Z</time></trkpt><trkpt lat="42.5674119" lon="12.602939"><ele>106.0</ele><time>2026-04-08T14:21:15.989Z</time></trkpt><trkpt lat="42.5673948" lon="12.6030241"><ele>106.0</ele><time>2026-04-08T14:21:16.99Z</time></trkpt><trkpt lat="42.5673568" lon="12.603188"><ele>106.0</ele><time>2026-04-08T14:21:18.99Z</time></trkpt><trkpt lat="42.5673198" lon="12.6033437"><ele>106.0</ele><time>2026-04-08T14:21:20.99Z</time></trkpt><trkpt lat="42.5672804" lon="12.6034946"><ele>106.0</ele><time>2026-04-08T14:21:22.99Z</time></trkpt><trkpt lat="42.5672362" lon="12.6036523"><ele>106.25</ele><time>2026-04-08T14:21:24.99Z</time></trkpt><trkpt lat="42.5671955" lon="12.6037985"><ele>106.5</ele><time>2026-04-08T14:21:26.989Z</time></trkpt><trkpt lat="42.5671559" lon="12.6039526"><ele>106.75</ele><time>2026-04-08T14:21:28.99Z</time></trkpt><trkpt lat="42.5671286" lon="12.604113"><ele>107.0</ele><time>2026-04-08T14:21:30.99Z</time></trkpt><trkpt lat="42.5670811" lon="12.6042413"><ele>107.0</ele><time>2026-04-08T14:21:32.99Z</time></trkpt><trkpt lat="42.5670389" lon="12.6043836"><ele>107.0</ele><time>2026-04-08T14:21:34.99Z</time></trkpt><trkpt lat="42.5669961" lon="12.6045377"><ele>107.0</ele><time>2026-04-08T14:21:36.99Z</time></trkpt><trkpt lat="42.5669567" lon="12.6046852"><ele>107.0</ele><time>2026-04-08T14:21:38.99Z</time></trkpt><trkpt lat="42.5669132" lon="12.6048356"><ele>107.19999999999999</ele><time>2026-04-08T14:21:40.99Z</time></trkpt><trkpt lat="42.5668675" lon="12.604977"><ele>107.39999999999999</ele><time>2026-04-08T14:21:42.99Z</time></trkpt><trkpt lat="42.5668261" lon="12.6051107"><ele>107.60000000000001</ele><time>2026-04-08T14:21:44.989Z</time></trkpt><trkpt lat="42.5667761" lon="12.6052404"><ele>107.80000000000001</ele><time>2026-04-08T14:21:46.99Z</time></trkpt><trkpt lat="42.5667113" lon="12.6053505"><ele>108.0</ele><time>2026-04-08T14:21:48.99Z</time></trkpt><trkpt lat="42.5666156" lon="12.6054191"><ele>108.0</ele><time>2026-04-08T14:21:50.99Z</time></trkpt><trkpt lat="42.5665125" lon="12.6053872"><ele>108.0</ele><time>2026-04-08T14:21:52.99Z</time></trkpt><trkpt lat="42.5664172" lon="12.6052982"><ele>108.0</ele><time>2026-04-08T14:21:54.99Z</time></trkpt><trkpt lat="42.5663233" lon="12.6052082"><ele>108.0</ele><time>2026-04-08T14:21:56.99Z</time></trkpt><trkpt lat="42.5662244" lon="12.6051071"><ele>108.2</ele><time>2026-04-08T14:21:58.99Z</time></trkpt><trkpt lat="42.5661709" lon="12.6050619"><ele>108.4</ele><time>2026-04-08T14:21:59.989Z</time></trkpt><trkpt lat="42.5660594" lon="12.6049941"><ele>108.60000000000001</ele><time>2026-04-08T14:22:01.99Z</time></trkpt><trkpt lat="42.5659387" lon="12.6049572"><ele>108.80000000000001</ele><time>2026-04-08T14:22:03.99Z</time></trkpt><trkpt lat="42.5658169" lon="12.6049394"><ele>109.0</ele><time>2026-04-08T14:22:05.99Z</time></trkpt><trkpt lat="42.5656923" lon="12.6049345"><ele>109.00000000000001</ele><time>2026-04-08T14:22:07.99Z</time></trkpt><trkpt lat="42.5656263" lon="12.6049387"><ele>109.0</ele><time>2026-04-08T14:22:08.99Z</time></trkpt><trkpt lat="42.5655074" lon="12.6049422"><ele>109.0</ele><time>2026-04-08T14:22:10.99Z</time></trkpt><trkpt lat="42.5654438" lon="12.604946"><ele>109.0</ele><time>2026-04-08T14:22:11.99Z</time></trkpt><trkpt lat="42.5653199" lon="12.6049414"><ele>109.00000000000001</ele><time>2026-04-08T14:22:13.99Z</time></trkpt><trkpt lat="42.5652567" lon="12.6049371"><ele>109.0</ele><time>2026-04-08T14:22:14.99Z</time></trkpt><trkpt lat="42.5651398" lon="12.6049437"><ele>108.75</ele><time>2026-04-08T14:22:16.99Z</time></trkpt><trkpt lat="42.565022" lon="12.6049385"><ele>108.5</ele><time>2026-04-08T14:22:18.99Z</time></trkpt><trkpt lat="42.5649053" lon="12.6049406"><ele>108.25</ele><time>2026-04-08T14:22:20.989Z</time></trkpt><trkpt lat="42.5647886" lon="12.6049477"><ele>108.0</ele><time>2026-04-08T14:22:22.99Z</time></trkpt><trkpt lat="42.5646713" lon="12.6049439"><ele>108.0</ele><time>2026-04-08T14:22:24.99Z</time></trkpt><trkpt lat="42.5645506" lon="12.6049446"><ele>108.0</ele><time>2026-04-08T14:22:26.989Z</time></trkpt><trkpt lat="42.5644352" lon="12.604944"><ele>108.0</ele><time>2026-04-08T14:22:28.99Z</time></trkpt><trkpt lat="42.5643153" lon="12.6049487"><ele>108.0</ele><time>2026-04-08T14:22:30.99Z</time></trkpt><trkpt lat="42.5642061" lon="12.6049493"><ele>108.2</ele><time>2026-04-08T14:22:32.99Z</time></trkpt><trkpt lat="42.5641028" lon="12.6049556"><ele>108.4</ele><time>2026-04-08T14:22:34.99Z</time></trkpt><trkpt lat="42.5640058" lon="12.6049526"><ele>108.60000000000001</ele><time>2026-04-08T14:22:36.99Z</time></trkpt><trkpt lat="42.5639141" lon="12.6049598"><ele>108.80000000000001</ele><time>2026-04-08T14:22:38.989Z</time></trkpt><trkpt lat="42.5638204" lon="12.6049727"><ele>109.0</ele><time>2026-04-08T14:22:40.99Z</time></trkpt><trkpt lat="42.563713" lon="12.6049941"><ele>109.0</ele><time>2026-04-08T14:22:42.99Z</time></trkpt><trkpt lat="42.5636158" lon="12.6049971"><ele>109.0</ele><time>2026-04-08T14:22:44.99Z</time></trkpt><trkpt lat="42.5635055" lon="12.6050403"><ele>109.0</ele><time>2026-04-08T14:22:46.99Z</time></trkpt><trkpt lat="42.5634099" lon="12.605097"><ele>109.0</ele><time>2026-04-08T14:22:48.99Z</time></trkpt><trkpt lat="42.5632997" lon="12.6051038"><ele>109.0</ele><time>2026-04-08T14:22:50.99Z</time></trkpt><trkpt lat="42.5631905" lon="12.6051097"><ele>109.0</ele><time>2026-04-08T14:22:52.99Z</time></trkpt><trkpt lat="42.563085" lon="12.6051019"><ele>109.0</ele><time>2026-04-08T14:22:54.99Z</time></trkpt><trkpt lat="42.5630215" lon="12.6050977"><ele>109.0</ele><time>2026-04-08T14:22:55.99Z</time></trkpt><trkpt lat="42.5629031" lon="12.6051028"><ele>109.0</ele><time>2026-04-08T14:22:57.99Z</time></trkpt><trkpt lat="42.5627897" lon="12.6051087"><ele>109.0</ele><time>2026-04-08T14:22:59.99Z</time></trkpt><trkpt lat="42.5626796" lon="12.6051118"><ele>108.80000000000001</ele><time>2026-04-08T14:23:01.99Z</time></trkpt><trkpt lat="42.5625669" lon="12.6051125"><ele>108.60000000000001</ele><time>2026-04-08T14:23:03.99Z</time></trkpt><trkpt lat="42.5624569" lon="12.6051123"><ele>108.4</ele><time>2026-04-08T14:23:05.991Z</time></trkpt><trkpt lat="42.5623451" lon="12.6051157"><ele>108.2</ele><time>2026-04-08T14:23:07.99Z</time></trkpt><trkpt lat="42.5622492" lon="12.6051184"><ele>108.0</ele><time>2026-04-08T14:23:09.989Z</time></trkpt><trkpt lat="42.5621561" lon="12.6051206"><ele>108.0</ele><time>2026-04-08T14:23:11.99Z</time></trkpt><trkpt lat="42.5620639" lon="12.6051213"><ele>108.0</ele><time>2026-04-08T14:23:13.989Z</time></trkpt><trkpt lat="42.5619771" lon="12.6051312"><ele>108.0</ele><time>2026-04-08T14:23:15.99Z</time></trkpt><trkpt lat="42.5618973" lon="12.6051299"><ele>108.0</ele><time>2026-04-08T14:23:17.99Z</time></trkpt><trkpt lat="42.5618111" lon="12.6051326"><ele>108.0</ele><time>2026-04-08T14:23:19.99Z</time></trkpt><trkpt lat="42.5617316" lon="12.6051373"><ele>108.0</ele><time>2026-04-08T14:23:21.99Z</time></trkpt><trkpt lat="42.5616524" lon="12.6051353"><ele>108.0</ele><time>2026-04-08T14:23:23.989Z</time></trkpt><trkpt lat="42.5615719" lon="12.6051308"><ele>108.0</ele><time>2026-04-08T14:23:25.99Z</time></trkpt><trkpt lat="42.5614874" lon="12.6051396"><ele>108.0</ele><time>2026-04-08T14:23:27.99Z</time></trkpt><trkpt lat="42.5613962" lon="12.6051473"><ele>108.0</ele><time>2026-04-08T14:23:29.99Z</time></trkpt><trkpt lat="42.5613085" lon="12.6051465"><ele>108.0</ele><time>2026-04-08T14:23:31.99Z</time></trkpt><trkpt lat="42.561215" lon="12.6051435"><ele>108.0</ele><time>2026-04-08T14:23:33.99Z</time></trkpt><trkpt lat="42.5611185" lon="12.6051507"><ele>108.0</ele><time>2026-04-08T14:23:35.99Z</time></trkpt><trkpt lat="42.5610229" lon="12.605157"><ele>108.00000000000001</ele><time>2026-04-08T14:23:37.99Z</time></trkpt><trkpt lat="42.5609222" lon="12.6051582"><ele>108.00000000000001</ele><time>2026-04-08T14:23:39.989Z</time></trkpt><trkpt lat="42.56082" lon="12.6051576"><ele>108.0</ele><time>2026-04-08T14:23:41.989Z</time></trkpt><trkpt lat="42.5607149" lon="12.6051537"><ele>108.0</ele><time>2026-04-08T14:23:43.99Z</time></trkpt><trkpt lat="42.5606132" lon="12.6051526"><ele>108.0</ele><time>2026-04-08T14:23:45.99Z</time></trkpt><trkpt lat="42.5605118" lon="12.6051494"><ele>108.00000000000001</ele><time>2026-04-08T14:23:47.99Z</time></trkpt><trkpt lat="42.5604102" lon="12.6051595"><ele>108.00000000000001</ele><time>2026-04-08T14:23:49.99Z</time></trkpt><trkpt lat="42.5603111" lon="12.6051863"><ele>108.0</ele><time>2026-04-08T14:23:51.989Z</time></trkpt><trkpt lat="42.560216" lon="12.6052195"><ele>108.0</ele><time>2026-04-08T14:23:53.989Z</time></trkpt><trkpt lat="42.5601228" lon="12.6052709"><ele>107.60000000000001</ele><time>2026-04-08T14:23:55.989Z</time></trkpt><trkpt lat="42.5600366" lon="12.6053425"><ele>107.20000000000002</ele><time>2026-04-08T14:23:57.989Z</time></trkpt><trkpt lat="42.559949" lon="12.6054261"><ele>106.8</ele><time>2026-04-08T14:23:59.99Z</time></trkpt><trkpt lat="42.5598713" lon="12.6055103"><ele>106.4</ele><time>2026-04-08T14:24:01.99Z</time></trkpt><trkpt lat="42.5597889" lon="12.6055934"><ele>106.0</ele><time>2026-04-08T14:24:03.989Z</time></trkpt><trkpt lat="42.5597007" lon="12.6056716"><ele>106.0</ele><time>2026-04-08T14:24:05.99Z</time></trkpt><trkpt lat="42.5596106" lon="12.6057399"><ele>106.0</ele><time>2026-04-08T14:24:07.99Z</time></trkpt><trkpt lat="42.5595185" lon="12.6057876"><ele>106.0</ele><time>2026-04-08T14:24:09.99Z</time></trkpt><trkpt lat="42.559428" lon="12.6058297"><ele>106.0</ele><time>2026-04-08T14:24:11.989Z</time></trkpt><trkpt lat="42.5593256" lon="12.6058611"><ele>106.0</ele><time>2026-04-08T14:24:13.99Z</time></trkpt><trkpt lat="42.5592352" lon="12.6058956"><ele>106.66666666666667</ele><time>2026-04-08T14:24:15.989Z</time></trkpt><trkpt lat="42.5591505" lon="12.6059139"><ele>107.33333333333334</ele><time>2026-04-08T14:24:17.989Z</time></trkpt><trkpt lat="42.5590668" lon="12.6059451"><ele>108.0</ele><time>2026-04-08T14:24:19.989Z</time></trkpt><trkpt lat="42.5590039" lon="12.6060199"><ele>108.66666666666666</ele><time>2026-04-08T14:24:21.99Z</time></trkpt><trkpt lat="42.5589586" lon="12.6061166"><ele>109.33333333333333</ele><time>2026-04-08T14:24:23.99Z</time></trkpt><trkpt lat="42.5589269" lon="12.6062282"><ele>110.0</ele><time>2026-04-08T14:24:25.99Z</time></trkpt><trkpt lat="42.5589176" lon="12.606344"><ele>110.6</ele><time>2026-04-08T14:24:27.99Z</time></trkpt><trkpt lat="42.5589314" lon="12.6064581"><ele>111.2</ele><time>2026-04-08T14:24:29.99Z</time></trkpt><trkpt lat="42.5589364" lon="12.6065912"><ele>111.80000000000001</ele><time>2026-04-08T14:24:31.99Z</time></trkpt><trkpt lat="42.5589308" lon="12.6067161"><ele>112.4</ele><time>2026-04-08T14:24:33.989Z</time></trkpt><trkpt lat="42.5588877" lon="12.6068366"><ele>113.0</ele><time>2026-04-08T14:24:35.989Z</time></trkpt><trkpt lat="42.5588148" lon="12.6069095"><ele>113.0</ele><time>2026-04-08T14:24:37.989Z</time></trkpt><trkpt lat="42.558731" lon="12.6069608"><ele>113.00000000000001</ele><time>2026-04-08T14:24:39.99Z</time></trkpt><trkpt lat="42.5586408" lon="12.6070079"><ele>113.00000000000001</ele><time>2026-04-08T14:24:41.99Z</time></trkpt><trkpt lat="42.558547" lon="12.6070568"><ele>113.0</ele><time>2026-04-08T14:24:43.989Z</time></trkpt><trkpt lat="42.5584687" lon="12.6071465"><ele>113.0</ele><time>2026-04-08T14:24:45.989Z</time></trkpt><trkpt lat="42.558415" lon="12.607264"><ele>112.80000000000001</ele><time>2026-04-08T14:24:47.989Z</time></trkpt><trkpt lat="42.5583962" lon="12.6074062"><ele>112.60000000000001</ele><time>2026-04-08T14:24:49.989Z</time></trkpt><trkpt lat="42.5583938" lon="12.6075509"><ele>112.39999999999999</ele><time>2026-04-08T14:24:51.989Z</time></trkpt><trkpt lat="42.5584056" lon="12.6077028"><ele>112.19999999999999</ele><time>2026-04-08T14:24:53.99Z</time></trkpt><trkpt lat="42.5584146" lon="12.6078485"><ele>112.0</ele><time>2026-04-08T14:24:55.99Z</time></trkpt><trkpt lat="42.5584263" lon="12.6079939"><ele>112.39999999999999</ele><time>2026-04-08T14:24:57.989Z</time></trkpt><trkpt lat="42.5584401" lon="12.6081385"><ele>112.79999999999998</ele><time>2026-04-08T14:24:59.989Z</time></trkpt><trkpt lat="42.5584474" lon="12.6082966"><ele>113.2</ele><time>2026-04-08T14:25:01.989Z</time></trkpt><trkpt lat="42.5584524" lon="12.608442"><ele>113.6</ele><time>2026-04-08T14:25:03.99Z</time></trkpt><trkpt lat="42.5584591" lon="12.6085909"><ele>114.0</ele><time>2026-04-08T14:25:05.989Z</time></trkpt><trkpt lat="42.5584082" lon="12.6087075"><ele>114.0</ele><time>2026-04-08T14:25:07.989Z</time></trkpt><trkpt lat="42.5583406" lon="12.6087317"><ele>114.0</ele><time>2026-04-08T14:25:09.989Z</time></trkpt><trkpt lat="42.5582574" lon="12.608673"><ele>114.0</ele><time>2026-04-08T14:25:11.99Z</time></trkpt><trkpt lat="42.5581708" lon="12.6086395"><ele>114.0</ele><time>2026-04-08T14:25:13.989Z</time></trkpt><trkpt lat="42.5580858" lon="12.6085805"><ele>114.0</ele><time>2026-04-08T14:25:15.99Z</time></trkpt><trkpt lat="42.5580033" lon="12.6085224"><ele>114.0</ele><time>2026-04-08T14:25:17.99Z</time></trkpt><trkpt lat="42.5579158" lon="12.6084817"><ele>113.5</ele><time>2026-04-08T14:25:19.989Z</time></trkpt><trkpt lat="42.5578232" lon="12.6084445"><ele>113.0</ele><time>2026-04-08T14:25:21.99Z</time></trkpt><trkpt lat="42.5577385" lon="12.608406"><ele>112.5</ele><time>2026-04-08T14:25:23.99Z</time></trkpt><trkpt lat="42.5576572" lon="12.6083651"><ele>112.0</ele><time>2026-04-08T14:25:25.989Z</time></trkpt><trkpt lat="42.5575814" lon="12.6083206"><ele>111.5</ele><time>2026-04-08T14:25:27.989Z</time></trkpt><trkpt lat="42.5575" lon="12.6082834"><ele>111.0</ele><time>2026-04-08T14:25:29.989Z</time></trkpt><trkpt lat="42.557429" lon="12.6082388"><ele>111.0</ele><time>2026-04-08T14:25:31.99Z</time></trkpt><trkpt lat="42.5573633" lon="12.6081901"><ele>111.0</ele><time>2026-04-08T14:25:33.99Z</time></trkpt><trkpt lat="42.5573047" lon="12.6081415"><ele>111.0</ele><time>2026-04-08T14:25:35.989Z</time></trkpt><trkpt lat="42.5572292" lon="12.6080689"><ele>111.0</ele><time>2026-04-08T14:25:38.99Z</time></trkpt><trkpt lat="42.5571424" lon="12.6080909"><ele>111.0</ele><time>2026-04-08T14:25:41.989Z</time></trkpt><trkpt lat="42.5571143" lon="12.6081857"><ele>111.0</ele><time>2026-04-08T14:25:43.99Z</time></trkpt><trkpt lat="42.5570851" lon="12.6082985"><ele>111.0</ele><time>2026-04-08T14:25:45.99Z</time></trkpt><trkpt lat="42.5570549" lon="12.6084136"><ele>111.0</ele><time>2026-04-08T14:25:47.989Z</time></trkpt><trkpt lat="42.5570218" lon="12.6086"><ele>111.0</ele><time>2026-04-08T14:25:50.99Z</time></trkpt><trkpt lat="42.5570109" lon="12.6087544"><ele>111.0</ele><time>2026-04-08T14:25:52.989Z</time></trkpt><trkpt lat="42.5570064" lon="12.6088405"><ele>111.0</ele><time>2026-04-08T14:25:53.99Z</time></trkpt><trkpt lat="42.5569996" lon="12.6089305"><ele>111.4</ele><time>2026-04-08T14:25:54.989Z</time></trkpt><trkpt lat="42.5569904" lon="12.6090194"><ele>111.8</ele><time>2026-04-08T14:25:55.988Z</time></trkpt><trkpt lat="42.5569806" lon="12.6091101"><ele>112.20000000000002</ele><time>2026-04-08T14:25:56.99Z</time></trkpt><trkpt lat="42.556958" lon="12.6092657"><ele>112.60000000000001</ele><time>2026-04-08T14:25:58.989Z</time></trkpt><trkpt lat="42.5568873" lon="12.6093912"><ele>113.0</ele><time>2026-04-08T14:26:00.989Z</time></trkpt><trkpt lat="42.5567887" lon="12.6094434"><ele>113.0</ele><time>2026-04-08T14:26:02.989Z</time></trkpt><trkpt lat="42.556668" lon="12.6094366"><ele>113.0</ele><time>2026-04-08T14:26:04.99Z</time></trkpt><trkpt lat="42.5565544" lon="12.6094311"><ele>113.0</ele><time>2026-04-08T14:26:06.99Z</time></trkpt><trkpt lat="42.5564326" lon="12.6094214"><ele>113.0</ele><time>2026-04-08T14:26:08.99Z</time></trkpt><trkpt lat="42.5563112" lon="12.6094149"><ele>113.0</ele><time>2026-04-08T14:26:10.989Z</time></trkpt><trkpt lat="42.5562481" lon="12.6094184"><ele>113.00000000000001</ele><time>2026-04-08T14:26:11.989Z</time></trkpt><trkpt lat="42.556131" lon="12.6094213"><ele>113.00000000000001</ele><time>2026-04-08T14:26:13.989Z</time></trkpt><trkpt lat="42.5560195" lon="12.6094144"><ele>113.0</ele><time>2026-04-08T14:26:15.989Z</time></trkpt><trkpt lat="42.5559055" lon="12.6094123"><ele>113.0</ele><time>2026-04-08T14:26:17.99Z</time></trkpt><trkpt lat="42.5557898" lon="12.609407"><ele>113.0</ele><time>2026-04-08T14:26:19.99Z</time></trkpt><trkpt lat="42.5556796" lon="12.6094013"><ele>113.0</ele><time>2026-04-08T14:26:21.99Z</time></trkpt><trkpt lat="42.555564" lon="12.6093943"><ele>113.0</ele><time>2026-04-08T14:26:23.989Z</time></trkpt><trkpt lat="42.5554531" lon="12.6093838"><ele>113.0</ele><time>2026-04-08T14:26:25.99Z</time></trkpt><trkpt lat="42.5553381" lon="12.6093793"><ele>113.0</ele><time>2026-04-08T14:26:27.99Z</time></trkpt><trkpt lat="42.5552279" lon="12.6093719"><ele>113.0</ele><time>2026-04-08T14:26:29.989Z</time></trkpt><trkpt lat="42.5551079" lon="12.6093715"><ele>113.0</ele><time>2026-04-08T14:26:31.989Z</time></trkpt><trkpt lat="42.5549963" lon="12.6093591"><ele>113.0</ele><time>2026-04-08T14:26:33.989Z</time></trkpt><trkpt lat="42.5548761" lon="12.6093501"><ele>113.0</ele><time>2026-04-08T14:26:35.99Z</time></trkpt><trkpt lat="42.5547614" lon="12.6093382"><ele>113.00000000000001</ele><time>2026-04-08T14:26:37.989Z</time></trkpt><trkpt lat="42.5546939" lon="12.6093357"><ele>113.00000000000001</ele><time>2026-04-08T14:26:38.989Z</time></trkpt><trkpt lat="42.5545747" lon="12.6093319"><ele>113.0</ele><time>2026-04-08T14:26:40.99Z</time></trkpt><trkpt lat="42.5544545" lon="12.6093264"><ele>113.0</ele><time>2026-04-08T14:26:42.989Z</time></trkpt><trkpt lat="42.5543441" lon="12.6093212"><ele>113.2</ele><time>2026-04-08T14:26:44.989Z</time></trkpt><trkpt lat="42.5542198" lon="12.6093245"><ele>113.4</ele><time>2026-04-08T14:26:46.99Z</time></trkpt><trkpt lat="42.5541559" lon="12.6093282"><ele>113.60000000000001</ele><time>2026-04-08T14:26:47.988Z</time></trkpt><trkpt lat="42.5540387" lon="12.6093492"><ele>113.80000000000001</ele><time>2026-04-08T14:26:49.99Z</time></trkpt><trkpt lat="42.5539194" lon="12.6093622"><ele>114.0</ele><time>2026-04-08T14:26:51.99Z</time></trkpt><trkpt lat="42.5537967" lon="12.609385"><ele>114.0</ele><time>2026-04-08T14:26:53.989Z</time></trkpt><trkpt lat="42.5536847" lon="12.6094074"><ele>114.0</ele><time>2026-04-08T14:26:55.99Z</time></trkpt><trkpt lat="42.5535709" lon="12.6094344"><ele>114.0</ele><time>2026-04-08T14:26:57.99Z</time></trkpt><trkpt lat="42.5534549" lon="12.6094687"><ele>114.0</ele><time>2026-04-08T14:26:59.989Z</time></trkpt><trkpt lat="42.5533439" lon="12.6095174"><ele>115.0</ele><time>2026-04-08T14:27:01.99Z</time></trkpt><trkpt lat="42.5532317" lon="12.6095657"><ele>116.0</ele><time>2026-04-08T14:27:03.989Z</time></trkpt><trkpt lat="42.553122" lon="12.6096034"><ele>117.0</ele><time>2026-04-08T14:27:05.989Z</time></trkpt><trkpt lat="42.5530125" lon="12.6096494"><ele>118.0</ele><time>2026-04-08T14:27:07.99Z</time></trkpt><trkpt lat="42.5529009" lon="12.6096909"><ele>117.25</ele><time>2026-04-08T14:27:09.988Z</time></trkpt><trkpt lat="42.5527855" lon="12.609732"><ele>116.5</ele><time>2026-04-08T14:27:11.989Z</time></trkpt><trkpt lat="42.5526704" lon="12.6097668"><ele>115.75</ele><time>2026-04-08T14:27:13.989Z</time></trkpt><trkpt lat="42.5525546" lon="12.6098044"><ele>115.0</ele><time>2026-04-08T14:27:15.989Z</time></trkpt><trkpt lat="42.5524395" lon="12.6098389"><ele>115.0</ele><time>2026-04-08T14:27:17.989Z</time></trkpt><trkpt lat="42.552324" lon="12.609873"><ele>115.0</ele><time>2026-04-08T14:27:19.989Z</time></trkpt><trkpt lat="42.5522116" lon="12.6098924"><ele>115.0</ele><time>2026-04-08T14:27:21.989Z</time></trkpt><trkpt lat="42.5521013" lon="12.6099169"><ele>115.0</ele><time>2026-04-08T14:27:23.99Z</time></trkpt><trkpt lat="42.5519899" lon="12.6099471"><ele>115.2</ele><time>2026-04-08T14:27:25.989Z</time></trkpt><trkpt lat="42.5518803" lon="12.6099916"><ele>115.4</ele><time>2026-04-08T14:27:27.99Z</time></trkpt><trkpt lat="42.5517719" lon="12.6100384"><ele>115.6</ele><time>2026-04-08T14:27:29.99Z</time></trkpt><trkpt lat="42.5516681" lon="12.6100877"><ele>115.8</ele><time>2026-04-08T14:27:31.99Z</time></trkpt><trkpt lat="42.5515661" lon="12.610148"><ele>116.0</ele><time>2026-04-08T14:27:33.989Z</time></trkpt><trkpt lat="42.5514638" lon="12.6102105"><ele>116.0</ele><time>2026-04-08T14:27:35.989Z</time></trkpt><trkpt lat="42.5513644" lon="12.610276"><ele>116.0</ele><time>2026-04-08T14:27:37.99Z</time></trkpt><trkpt lat="42.5512702" lon="12.6103441"><ele>116.0</ele><time>2026-04-08T14:27:39.99Z</time></trkpt><trkpt lat="42.5511737" lon="12.6104143"><ele>116.0</ele><time>2026-04-08T14:27:41.989Z</time></trkpt><trkpt lat="42.5510794" lon="12.6104834"><ele>116.0</ele><time>2026-04-08T14:27:43.989Z</time></trkpt><trkpt lat="42.5509815" lon="12.6105532"><ele>116.4</ele><time>2026-04-08T14:27:45.99Z</time></trkpt><trkpt lat="42.5508832" lon="12.6106157"><ele>116.8</ele><time>2026-04-08T14:27:47.99Z</time></trkpt><trkpt lat="42.5507826" lon="12.610692"><ele>117.20000000000002</ele><time>2026-04-08T14:27:49.988Z</time></trkpt><trkpt lat="42.5506852" lon="12.6107561"><ele>117.60000000000001</ele><time>2026-04-08T14:27:51.989Z</time></trkpt><trkpt lat="42.5505888" lon="12.610832"><ele>118.0</ele><time>2026-04-08T14:27:53.989Z</time></trkpt><trkpt lat="42.550496" lon="12.6109018"><ele>118.0</ele><time>2026-04-08T14:27:55.988Z</time></trkpt><trkpt lat="42.5504088" lon="12.6109736"><ele>118.00000000000001</ele><time>2026-04-08T14:27:57.99Z</time></trkpt><trkpt lat="42.5503212" lon="12.6110525"><ele>118.00000000000001</ele><time>2026-04-08T14:27:59.99Z</time></trkpt><trkpt lat="42.5502297" lon="12.6111393"><ele>118.0</ele><time>2026-04-08T14:28:01.989Z</time></trkpt><trkpt lat="42.5501432" lon="12.611228"><ele>118.0</ele><time>2026-04-08T14:28:03.988Z</time></trkpt><trkpt lat="42.5500539" lon="12.6113106"><ele>118.0</ele><time>2026-04-08T14:28:05.989Z</time></trkpt><trkpt lat="42.5499641" lon="12.611396"><ele>118.00000000000001</ele><time>2026-04-08T14:28:07.989Z</time></trkpt><trkpt lat="42.5498746" lon="12.611486"><ele>118.00000000000001</ele><time>2026-04-08T14:28:09.988Z</time></trkpt><trkpt lat="42.549774" lon="12.6115707"><ele>118.0</ele><time>2026-04-08T14:28:11.989Z</time></trkpt><trkpt lat="42.5496886" lon="12.6116439"><ele>118.0</ele><time>2026-04-08T14:28:13.989Z</time></trkpt><trkpt lat="42.5495956" lon="12.6117158"><ele>117.80000000000001</ele><time>2026-04-08T14:28:15.989Z</time></trkpt><trkpt lat="42.5495053" lon="12.6117993"><ele>117.60000000000001</ele><time>2026-04-08T14:28:17.989Z</time></trkpt><trkpt lat="42.5494165" lon="12.611874"><ele>117.39999999999999</ele><time>2026-04-08T14:28:19.99Z</time></trkpt><trkpt lat="42.5493203" lon="12.6119418"><ele>117.19999999999999</ele><time>2026-04-08T14:28:21.989Z</time></trkpt><trkpt lat="42.5492261" lon="12.6119989"><ele>117.0</ele><time>2026-04-08T14:28:23.99Z</time></trkpt><trkpt lat="42.5491326" lon="12.6120546"><ele>117.19999999999999</ele><time>2026-04-08T14:28:25.989Z</time></trkpt><trkpt lat="42.5490346" lon="12.6121242"><ele>117.39999999999999</ele><time>2026-04-08T14:28:27.99Z</time></trkpt><trkpt lat="42.5489372" lon="12.6121963"><ele>117.60000000000001</ele><time>2026-04-08T14:28:29.988Z</time></trkpt><trkpt lat="42.5488504" lon="12.612266"><ele>117.80000000000001</ele><time>2026-04-08T14:28:31.989Z</time></trkpt><trkpt lat="42.5487541" lon="12.6123295"><ele>118.0</ele><time>2026-04-08T14:28:33.989Z</time></trkpt><trkpt lat="42.5486624" lon="12.6123928"><ele>118.0</ele><time>2026-04-08T14:28:35.99Z</time></trkpt><trkpt lat="42.548571" lon="12.6124551"><ele>118.00000000000001</ele><time>2026-04-08T14:28:37.989Z</time></trkpt><trkpt lat="42.5484788" lon="12.6125285"><ele>118.00000000000001</ele><time>2026-04-08T14:28:39.99Z</time></trkpt><trkpt lat="42.5483879" lon="12.6125985"><ele>118.0</ele><time>2026-04-08T14:28:41.989Z</time></trkpt><trkpt lat="42.5483013" lon="12.6126565"><ele>118.0</ele><time>2026-04-08T14:28:43.989Z</time></trkpt><trkpt lat="42.5482178" lon="12.6127232"><ele>118.0</ele><time>2026-04-08T14:28:45.99Z</time></trkpt><trkpt lat="42.5481296" lon="12.6127932"><ele>118.00000000000001</ele><time>2026-04-08T14:28:47.989Z</time></trkpt><trkpt lat="42.548037" lon="12.6128608"><ele>118.00000000000001</ele><time>2026-04-08T14:28:49.99Z</time></trkpt><trkpt lat="42.5479531" lon="12.6129197"><ele>118.0</ele><time>2026-04-08T14:28:51.989Z</time></trkpt><trkpt lat="42.5478637" lon="12.6129792"><ele>118.0</ele><time>2026-04-08T14:28:53.988Z</time></trkpt><trkpt lat="42.5477782" lon="12.6130492"><ele>118.80000000000001</ele><time>2026-04-08T14:28:55.989Z</time></trkpt><trkpt lat="42.5476948" lon="12.6131123"><ele>119.60000000000001</ele><time>2026-04-08T14:28:57.989Z</time></trkpt><trkpt lat="42.5476135" lon="12.6131712"><ele>120.39999999999999</ele><time>2026-04-08T14:28:59.99Z</time></trkpt><trkpt lat="42.5475306" lon="12.6132361"><ele>121.19999999999999</ele><time>2026-04-08T14:29:01.99Z</time></trkpt><trkpt lat="42.5474476" lon="12.6132969"><ele>122.0</ele><time>2026-04-08T14:29:03.989Z</time></trkpt><trkpt lat="42.5473649" lon="12.6133612"><ele>122.0</ele><time>2026-04-08T14:29:05.989Z</time></trkpt><trkpt lat="42.5472873" lon="12.6134301"><ele>121.99999999999999</ele><time>2026-04-08T14:29:07.989Z</time></trkpt><trkpt lat="42.5472076" lon="12.6134998"><ele>121.99999999999999</ele><time>2026-04-08T14:29:09.989Z</time></trkpt><trkpt lat="42.5471228" lon="12.6135648"><ele>122.0</ele><time>2026-04-08T14:29:11.989Z</time></trkpt><trkpt lat="42.547044" lon="12.6136447"><ele>122.0</ele><time>2026-04-08T14:29:13.989Z</time></trkpt><trkpt lat="42.5469658" lon="12.6137244"><ele>121.83333333333333</ele><time>2026-04-08T14:29:15.989Z</time></trkpt><trkpt lat="42.5468915" lon="12.6137989"><ele>121.66666666666666</ele><time>2026-04-08T14:29:17.99Z</time></trkpt><trkpt lat="42.54682" lon="12.6138684"><ele>121.5</ele><time>2026-04-08T14:29:19.989Z</time></trkpt><trkpt lat="42.5467491" lon="12.6139377"><ele>121.33333333333334</ele><time>2026-04-08T14:29:21.989Z</time></trkpt><trkpt lat="42.5466659" lon="12.6139795"><ele>121.16666666666667</ele><time>2026-04-08T14:29:23.99Z</time></trkpt><trkpt lat="42.5465825" lon="12.6140311"><ele>121.0</ele><time>2026-04-08T14:29:25.989Z</time></trkpt><trkpt lat="42.5465182" lon="12.6141173"><ele>121.00000000000001</ele><time>2026-04-08T14:29:27.989Z</time></trkpt><trkpt lat="42.546446" lon="12.6141936"><ele>121.0</ele><time>2026-04-08T14:29:29.989Z</time></trkpt><trkpt lat="42.5463584" lon="12.6142562"><ele>121.0</ele><time>2026-04-08T14:29:31.989Z</time></trkpt><trkpt lat="42.5462851" lon="12.614312"><ele>121.0</ele><time>2026-04-08T14:29:33.988Z</time></trkpt><trkpt lat="42.5462133" lon="12.6143759"><ele>121.00000000000001</ele><time>2026-04-08T14:29:35.99Z</time></trkpt><trkpt lat="42.5461367" lon="12.6144241"><ele>121.0</ele><time>2026-04-08T14:29:37.989Z</time></trkpt><trkpt lat="42.5460633" lon="12.6144749"><ele>121.33333333333334</ele><time>2026-04-08T14:29:39.989Z</time></trkpt><trkpt lat="42.5459953" lon="12.6145282"><ele>121.66666666666667</ele><time>2026-04-08T14:29:41.989Z</time></trkpt><trkpt lat="42.5459248" lon="12.6145746"><ele>122.0</ele><time>2026-04-08T14:29:43.989Z</time></trkpt><trkpt lat="42.5458599" lon="12.6146276"><ele>122.33333333333334</ele><time>2026-04-08T14:29:45.989Z</time></trkpt><trkpt lat="42.5457966" lon="12.6146856"><ele>122.66666666666667</ele><time>2026-04-08T14:29:47.989Z</time></trkpt><trkpt lat="42.5457327" lon="12.6147344"><ele>123.0</ele><time>2026-04-08T14:29:49.99Z</time></trkpt><trkpt lat="42.5456635" lon="12.6147828"><ele>123.00000000000001</ele><time>2026-04-08T14:29:51.988Z</time></trkpt><trkpt lat="42.5456078" lon="12.6148486"><ele>123.0</ele><time>2026-04-08T14:29:53.99Z</time></trkpt><trkpt lat="42.5455783" lon="12.6149311"><ele>123.00000000000001</ele><time>2026-04-08T14:29:55.989Z</time></trkpt><trkpt lat="42.5455571" lon="12.6150254"><ele>123.00000000000001</ele><time>2026-04-08T14:29:57.99Z</time></trkpt><trkpt lat="42.5455147" lon="12.6151088"><ele>123.0</ele><time>2026-04-08T14:29:59.99Z</time></trkpt><trkpt lat="42.5454591" lon="12.6151814"><ele>123.00000000000001</ele><time>2026-04-08T14:30:01.99Z</time></trkpt><trkpt lat="42.5454004" lon="12.6152497"><ele>123.00000000000001</ele><time>2026-04-08T14:30:03.989Z</time></trkpt><trkpt lat="42.545342" lon="12.6153176"><ele>123.14285714285717</ele><time>2026-04-08T14:30:05.989Z</time></trkpt><trkpt lat="42.5452818" lon="12.6153767"><ele>123.28571428571429</ele><time>2026-04-08T14:30:07.989Z</time></trkpt><trkpt lat="42.545222" lon="12.6154355"><ele>123.42857142857144</ele><time>2026-04-08T14:30:09.989Z</time></trkpt><trkpt lat="42.5451566" lon="12.61549"><ele>123.57142857142858</ele><time>2026-04-08T14:30:11.988Z</time></trkpt><trkpt lat="42.5450934" lon="12.6155506"><ele>123.71428571428572</ele><time>2026-04-08T14:30:13.989Z</time></trkpt><trkpt lat="42.5450344" lon="12.6156067"><ele>123.85714285714286</ele><time>2026-04-08T14:30:15.989Z</time></trkpt><trkpt lat="42.5449674" lon="12.6156501"><ele>124.0</ele><time>2026-04-08T14:30:17.989Z</time></trkpt><trkpt lat="42.5449088" lon="12.6156998"><ele>124.0</ele><time>2026-04-08T14:30:19.989Z</time></trkpt><trkpt lat="42.5448493" lon="12.6157476"><ele>124.00000000000001</ele><time>2026-04-08T14:30:21.989Z</time></trkpt><trkpt lat="42.5447996" lon="12.6158038"><ele>124.0</ele><time>2026-04-08T14:30:23.989Z</time></trkpt><trkpt lat="42.5447458" lon="12.615858"><ele>124.0</ele><time>2026-04-08T14:30:25.989Z</time></trkpt><trkpt lat="42.5446919" lon="12.6159094"><ele>124.00000000000001</ele><time>2026-04-08T14:30:27.989Z</time></trkpt><trkpt lat="42.5446404" lon="12.6159622"><ele>124.0</ele><time>2026-04-08T14:30:29.989Z</time></trkpt><trkpt lat="42.5445808" lon="12.6160083"><ele>124.0</ele><time>2026-04-08T14:30:33.989Z</time></trkpt><trkpt lat="42.5445282" lon="12.6160815"><ele>124.33333333333334</ele><time>2026-04-08T14:31:39.989Z</time></trkpt><trkpt lat="42.5444622" lon="12.6161437"><ele>124.66666666666667</ele><time>2026-04-08T14:31:42.989Z</time></trkpt><trkpt lat="42.5444003" lon="12.6162192"><ele>125.0</ele><time>2026-04-08T14:31:45.989Z</time></trkpt><trkpt lat="42.5443299" lon="12.6162921"><ele>125.33333333333334</ele><time>2026-04-08T14:31:48.988Z</time></trkpt><trkpt lat="42.5442744" lon="12.6163478"><ele>125.66666666666667</ele><time>2026-04-08T14:31:50.989Z</time></trkpt><trkpt lat="42.544219" lon="12.6164063"><ele>126.0</ele><time>2026-04-08T14:31:52.989Z</time></trkpt><trkpt lat="42.5441644" lon="12.6164681"><ele>126.28571428571428</ele><time>2026-04-08T14:31:54.989Z</time></trkpt><trkpt lat="42.5441072" lon="12.6165241"><ele>126.57142857142857</ele><time>2026-04-08T14:31:56.989Z</time></trkpt><trkpt lat="42.5440499" lon="12.6165794"><ele>126.85714285714286</ele><time>2026-04-08T14:31:58.989Z</time></trkpt><trkpt lat="42.5439889" lon="12.6166104"><ele>127.14285714285714</ele><time>2026-04-08T14:32:00.989Z</time></trkpt><trkpt lat="42.5439276" lon="12.6165659"><ele>127.42857142857142</ele><time>2026-04-08T14:32:02.989Z</time></trkpt><trkpt lat="42.5438958" lon="12.616477"><ele>127.71428571428571</ele><time>2026-04-08T14:32:04.989Z</time></trkpt><trkpt lat="42.5438735" lon="12.6163772"><ele>128.0</ele><time>2026-04-08T14:32:06.989Z</time></trkpt><trkpt lat="42.5438486" lon="12.6162758"><ele>128.0</ele><time>2026-04-08T14:32:08.989Z</time></trkpt><trkpt lat="42.5438196" lon="12.6161714"><ele>127.99999999999999</ele><time>2026-04-08T14:32:10.989Z</time></trkpt><trkpt lat="42.5437938" lon="12.6160676"><ele>128.0</ele><time>2026-04-08T14:32:12.989Z</time></trkpt><trkpt lat="42.5437669" lon="12.6159688"><ele>128.0</ele><time>2026-04-08T14:32:14.988Z</time></trkpt><trkpt lat="42.5437482" lon="12.6158727"><ele>127.99999999999999</ele><time>2026-04-08T14:32:16.989Z</time></trkpt><trkpt lat="42.5437218" lon="12.6157944"><ele>128.0</ele><time>2026-04-08T14:32:18.989Z</time></trkpt><trkpt lat="42.5436999" lon="12.6157125"><ele>128.0</ele><time>2026-04-08T14:32:20.989Z</time></trkpt><trkpt lat="42.54368" lon="12.615626"><ele>129.16666666666666</ele><time>2026-04-08T14:32:22.988Z</time></trkpt><trkpt lat="42.5436596" lon="12.6155371"><ele>130.33333333333331</ele><time>2026-04-08T14:32:24.989Z</time></trkpt><trkpt lat="42.5436378" lon="12.6154477"><ele>131.5</ele><time>2026-04-08T14:32:26.989Z</time></trkpt><trkpt lat="42.5436146" lon="12.6153602"><ele>132.66666666666666</ele><time>2026-04-08T14:32:28.988Z</time></trkpt><trkpt lat="42.5435752" lon="12.6152434"><ele>133.83333333333334</ele><time>2026-04-08T14:32:31.989Z</time></trkpt><trkpt lat="42.5435326" lon="12.6151401"><ele>135.0</ele><time>2026-04-08T14:32:34.989Z</time></trkpt><trkpt lat="42.5435114" lon="12.6150145"><ele>135.14285714285714</ele><time>2026-04-08T14:32:37.989Z</time></trkpt><trkpt lat="42.5435027" lon="12.6149158"><ele>135.28571428571428</ele><time>2026-04-08T14:32:39.989Z</time></trkpt><trkpt lat="42.5434969" lon="12.6148243"><ele>135.42857142857142</ele><time>2026-04-08T14:32:41.989Z</time></trkpt><trkpt lat="42.5434933" lon="12.6147367"><ele>135.57142857142856</ele><time>2026-04-08T14:32:43.989Z</time></trkpt><trkpt lat="42.5434867" lon="12.6146465"><ele>135.71428571428572</ele><time>2026-04-08T14:32:45.989Z</time></trkpt><trkpt lat="42.5434794" lon="12.6145588"><ele>135.85714285714283</ele><time>2026-04-08T14:32:47.989Z</time></trkpt><trkpt lat="42.5434715" lon="12.6144694"><ele>136.0</ele><time>2026-04-08T14:32:49.989Z</time></trkpt><trkpt lat="42.5434532" lon="12.6143493"><ele>135.5</ele><time>2026-04-08T14:32:52.989Z</time></trkpt><trkpt lat="42.5434367" lon="12.6142464"><ele>135.0</ele><time>2026-04-08T14:32:55.989Z</time></trkpt><trkpt lat="42.543366" lon="12.6142087"><ele>134.5</ele><time>2026-04-08T14:32:58.989Z</time></trkpt><trkpt lat="42.5433075" lon="12.6142461"><ele>134.0</ele><time>2026-04-08T14:33:00.989Z</time></trkpt><trkpt lat="42.5432248" lon="12.6142942"><ele>133.5</ele><time>2026-04-08T14:33:03.988Z</time></trkpt><trkpt lat="42.5431493" lon="12.6143364"><ele>133.0</ele><time>2026-04-08T14:33:06.989Z</time></trkpt><trkpt lat="42.5430749" lon="12.6143667"><ele>133.0</ele><time>2026-04-08T14:33:09.989Z</time></trkpt><trkpt lat="42.543004" lon="12.6143891"><ele>133.0</ele><time>2026-04-08T14:33:12.988Z</time></trkpt><trkpt lat="42.5429251" lon="12.6144189"><ele>133.0</ele><time>2026-04-08T14:33:16.988Z</time></trkpt><trkpt lat="42.542863" lon="12.6144421"><ele>133.0</ele><time>2026-04-08T14:33:19.989Z</time></trkpt><trkpt lat="42.542793" lon="12.6144616"><ele>133.0</ele><time>2026-04-08T14:33:22.989Z</time></trkpt><trkpt lat="42.5427286" lon="12.6144866"><ele>133.0</ele><time>2026-04-08T14:33:25.989Z</time></trkpt><trkpt lat="42.542662" lon="12.6145028"><ele>133.0</ele><time>2026-04-08T14:33:28.989Z</time></trkpt><trkpt lat="42.542587" lon="12.6145267"><ele>135.14285714285714</ele><time>2026-04-08T14:33:31.989Z</time></trkpt><trkpt lat="42.542514" lon="12.6145537"><ele>137.28571428571428</ele><time>2026-04-08T14:33:34.989Z</time></trkpt><trkpt lat="42.5424443" lon="12.6145792"><ele>139.42857142857144</ele><time>2026-04-08T14:33:37.989Z</time></trkpt><trkpt lat="42.5423765" lon="12.614606"><ele>141.57142857142856</ele><time>2026-04-08T14:33:40.989Z</time></trkpt><trkpt lat="42.5423117" lon="12.6146418"><ele>143.71428571428572</ele><time>2026-04-08T14:33:43.989Z</time></trkpt><trkpt lat="42.5422496" lon="12.6146762"><ele>145.85714285714286</ele><time>2026-04-08T14:33:46.988Z</time></trkpt><trkpt lat="42.54219" lon="12.6147158"><ele>148.0</ele><time>2026-04-08T14:33:49.988Z</time></trkpt><trkpt lat="42.5421351" lon="12.6147675"><ele>148.0</ele><time>2026-04-08T14:33:52.989Z</time></trkpt><trkpt lat="42.5420812" lon="12.6148161"><ele>148.0</ele><time>2026-04-08T14:33:55.988Z</time></trkpt><trkpt lat="42.5420271" lon="12.6148724"><ele>148.0</ele><time>2026-04-08T14:33:58.989Z</time></trkpt><trkpt lat="42.5419676" lon="12.6149426"><ele>148.0</ele><time>2026-04-08T14:34:02.988Z</time></trkpt><trkpt lat="42.5419194" lon="12.6149997"><ele>148.0</ele><time>2026-04-08T14:34:05.989Z</time></trkpt><trkpt lat="42.5418678" lon="12.6150734"><ele>148.0</ele><time>2026-04-08T14:34:09.989Z</time></trkpt><trkpt lat="42.541822" lon="12.615142"><ele>148.0</ele><time>2026-04-08T14:34:13.988Z</time></trkpt><trkpt lat="42.5417679" lon="12.6152172"><ele>147.83333333333334</ele><time>2026-04-08T14:34:17.988Z</time></trkpt><trkpt lat="42.541712" lon="12.6152948"><ele>147.66666666666669</ele><time>2026-04-08T14:34:21.988Z</time></trkpt><trkpt lat="42.5416562" lon="12.6153752"><ele>147.5</ele><time>2026-04-08T14:34:25.988Z</time></trkpt><trkpt lat="42.5416077" lon="12.6154352"><ele>147.33333333333334</ele><time>2026-04-08T14:34:28.988Z</time></trkpt><trkpt lat="42.5415472" lon="12.6155105"><ele>147.16666666666666</ele><time>2026-04-08T14:34:32.988Z</time></trkpt><trkpt lat="42.5414926" lon="12.6155831"><ele>147.0</ele><time>2026-04-08T14:34:36.988Z</time></trkpt><trkpt lat="42.5414392" lon="12.6156612"><ele>147.57142857142858</ele><time>2026-04-08T14:34:40.989Z</time></trkpt><trkpt lat="42.5413973" lon="12.6157555"><ele>148.14285714285714</ele><time>2026-04-08T14:34:44.989Z</time></trkpt><trkpt lat="42.5413716" lon="12.6158374"><ele>148.71428571428572</ele><time>2026-04-08T14:34:47.989Z</time></trkpt><trkpt lat="42.5413522" lon="12.6159209"><ele>149.28571428571428</ele><time>2026-04-08T14:34:50.989Z</time></trkpt><trkpt lat="42.5413297" lon="12.6160088"><ele>149.85714285714286</ele><time>2026-04-08T14:34:53.989Z</time></trkpt><trkpt lat="42.5413031" lon="12.6160953"><ele>150.42857142857144</ele><time>2026-04-08T14:34:56.988Z</time></trkpt><trkpt lat="42.5412518" lon="12.6161688"><ele>151.0</ele><time>2026-04-08T14:34:59.987Z</time></trkpt><trkpt lat="42.5411722" lon="12.6161868"><ele>151.66666666666669</ele><time>2026-04-08T14:35:02.989Z</time></trkpt><trkpt lat="42.5410899" lon="12.6161593"><ele>152.33333333333334</ele><time>2026-04-08T14:35:05.989Z</time></trkpt><trkpt lat="42.5410065" lon="12.6161273"><ele>153.0</ele><time>2026-04-08T14:35:08.988Z</time></trkpt><trkpt lat="42.5409203" lon="12.6160965"><ele>153.66666666666666</ele><time>2026-04-08T14:35:11.989Z</time></trkpt><trkpt lat="42.5408577" lon="12.6160699"><ele>154.33333333333331</ele><time>2026-04-08T14:35:13.988Z</time></trkpt><trkpt lat="42.5407946" lon="12.6160506"><ele>155.0</ele><time>2026-04-08T14:35:15.989Z</time></trkpt><trkpt lat="42.5407095" lon="12.6160312"><ele>155.0</ele><time>2026-04-08T14:35:18.989Z</time></trkpt><trkpt lat="42.5406287" lon="12.6160226"><ele>155.0</ele><time>2026-04-08T14:35:21.988Z</time></trkpt><trkpt lat="42.5405497" lon="12.6160243"><ele>155.0</ele><time>2026-04-08T14:35:24.988Z</time></trkpt><trkpt lat="42.5404692" lon="12.6160338"><ele>155.0</ele><time>2026-04-08T14:35:27.989Z</time></trkpt><trkpt lat="42.5403906" lon="12.6160603"><ele>155.0</ele><time>2026-04-08T14:35:30.988Z</time></trkpt><trkpt lat="42.5403205" lon="12.6160862"><ele>155.0</ele><time>2026-04-08T14:35:33.988Z</time></trkpt><trkpt lat="42.5402535" lon="12.6161179"><ele>156.0</ele><time>2026-04-08T14:35:36.989Z</time></trkpt><trkpt lat="42.5401868" lon="12.6161592"><ele>157.0</ele><time>2026-04-08T14:35:39.988Z</time></trkpt><trkpt lat="42.5401189" lon="12.6162318"><ele>158.0</ele><time>2026-04-08T14:35:43.989Z</time></trkpt><trkpt lat="42.5400757" lon="12.6163016"><ele>159.0</ele><time>2026-04-08T14:35:46.988Z</time></trkpt><trkpt lat="42.5400333" lon="12.6163962"><ele>160.0</ele><time>2026-04-08T14:35:50.988Z</time></trkpt><trkpt lat="42.5399964" lon="12.6164655"><ele>161.0</ele><time>2026-04-08T14:35:53.988Z</time></trkpt><trkpt lat="42.5399546" lon="12.6165533"><ele>162.0</ele><time>2026-04-08T14:35:56.988Z</time></trkpt><trkpt lat="42.5399122" lon="12.6166369"><ele>162.0</ele><time>2026-04-08T14:35:59.988Z</time></trkpt><trkpt lat="42.5398638" lon="12.6166978"><ele>162.0</ele><time>2026-04-08T14:36:13.987Z</time></trkpt><trkpt lat="42.5398314" lon="12.6167883"><ele>162.0</ele><time>2026-04-08T14:36:31.987Z</time></trkpt><trkpt lat="42.53979" lon="12.6168661"><ele>162.0</ele><time>2026-04-08T14:36:35.989Z</time></trkpt><trkpt lat="42.5397344" lon="12.6169178"><ele>162.0</ele><time>2026-04-08T14:36:38.988Z</time></trkpt><trkpt lat="42.5396822" lon="12.6169665"><ele>162.0</ele><time>2026-04-08T14:36:41.988Z</time></trkpt><trkpt lat="42.5396311" lon="12.617018"><ele>162.0</ele><time>2026-04-08T14:36:44.989Z</time></trkpt><trkpt lat="42.5395561" lon="12.6170654"><ele>164.28571428571428</ele><time>2026-04-08T14:36:48.989Z</time></trkpt><trkpt lat="42.5394825" lon="12.6171099"><ele>166.57142857142856</ele><time>2026-04-08T14:36:52.988Z</time></trkpt><trkpt lat="42.539421" lon="12.6171358"><ele>168.85714285714283</ele><time>2026-04-08T14:36:55.988Z</time></trkpt><trkpt lat="42.5393595" lon="12.6171559"><ele>171.14285714285714</ele><time>2026-04-08T14:36:58.988Z</time></trkpt><trkpt lat="42.5392773" lon="12.617171"><ele>173.42857142857142</ele><time>2026-04-08T14:37:02.988Z</time></trkpt><trkpt lat="42.5391981" lon="12.617189"><ele>175.7142857142857</ele><time>2026-04-08T14:37:06.989Z</time></trkpt><trkpt lat="42.5391344" lon="12.6171858"><ele>178.0</ele><time>2026-04-08T14:37:09.989Z</time></trkpt><trkpt lat="42.539056" lon="12.6171799"><ele>177.99999999999997</ele><time>2026-04-08T14:37:13.988Z</time></trkpt><trkpt lat="42.538982" lon="12.6171714"><ele>178.0</ele><time>2026-04-08T14:37:23.988Z</time></trkpt><trkpt lat="42.5389179" lon="12.6171768"><ele>178.0</ele><time>2026-04-08T14:37:28.989Z</time></trkpt><trkpt lat="42.5388469" lon="12.6171607"><ele>178.0</ele><time>2026-04-08T14:37:34.988Z</time></trkpt><trkpt lat="42.53878" lon="12.6171863"><ele>178.0</ele><time>2026-04-08T14:39:10.988Z</time></trkpt><trkpt lat="42.5387212" lon="12.6172265"><ele>177.99999999999997</ele><time>2026-04-08T14:39:15.988Z</time></trkpt><trkpt lat="42.5386661" lon="12.6172786"><ele>178.0</ele><time>2026-04-08T14:39:20.988Z</time></trkpt><trkpt lat="42.5386163" lon="12.6173371"><ele>179.28571428571428</ele><time>2026-04-08T14:39:25.988Z</time></trkpt><trkpt lat="42.5385646" lon="12.6173913"><ele>180.57142857142856</ele><time>2026-04-08T14:39:30.988Z</time></trkpt><trkpt lat="42.5385176" lon="12.6174543"><ele>181.85714285714283</ele><time>2026-04-08T14:39:35.989Z</time></trkpt><trkpt lat="42.5384766" lon="12.6175308"><ele>183.14285714285714</ele><time>2026-04-08T14:39:40.988Z</time></trkpt><trkpt lat="42.5384339" lon="12.6176042"><ele>184.42857142857144</ele><time>2026-04-08T14:39:45.988Z</time></trkpt><trkpt lat="42.5383957" lon="12.6176798"><ele>185.7142857142857</ele><time>2026-04-08T14:39:50.988Z</time></trkpt><trkpt lat="42.5383608" lon="12.6177558"><ele>187.0</ele><time>2026-04-08T14:39:55.987Z</time></trkpt><trkpt lat="42.5383282" lon="12.6178456"><ele>188.85714285714286</ele><time>2026-04-08T14:40:01.988Z</time></trkpt><trkpt lat="42.5382866" lon="12.6179158"><ele>190.71428571428572</ele><time>2026-04-08T14:40:25.987Z</time></trkpt><trkpt lat="42.5382117" lon="12.6179266"><ele>192.57142857142858</ele><time>2026-04-08T14:40:31.988Z</time></trkpt><trkpt lat="42.538147" lon="12.6179307"><ele>194.42857142857144</ele><time>2026-04-08T14:41:13.988Z</time></trkpt><trkpt lat="42.5380799" lon="12.6179243"><ele>196.28571428571428</ele><time>2026-04-08T14:41:17.988Z</time></trkpt><trkpt lat="42.5380026" lon="12.6179363"><ele>198.14285714285717</ele><time>2026-04-08T14:41:21.988Z</time></trkpt><trkpt lat="42.5379217" lon="12.6179401"><ele>200.0</ele><time>2026-04-08T14:41:25.988Z</time></trkpt><trkpt lat="42.5378391" lon="12.617954"><ele>200.71428571428572</ele><time>2026-04-08T14:41:29.988Z</time></trkpt><trkpt lat="42.5377591" lon="12.6179645"><ele>201.42857142857144</ele><time>2026-04-08T14:41:33.988Z</time></trkpt><trkpt lat="42.5376904" lon="12.6179795"><ele>202.14285714285717</ele><time>2026-04-08T14:41:36.987Z</time></trkpt><trkpt lat="42.5376235" lon="12.6179914"><ele>202.85714285714286</ele><time>2026-04-08T14:41:39.988Z</time></trkpt><trkpt lat="42.5375447" lon="12.6180003"><ele>203.57142857142856</ele><time>2026-04-08T14:41:43.988Z</time></trkpt><trkpt lat="42.5374789" lon="12.6180129"><ele>204.2857142857143</ele><time>2026-04-08T14:41:46.988Z</time></trkpt><trkpt lat="42.5374087" lon="12.6180245"><ele>205.0</ele><time>2026-04-08T14:41:49.987Z</time></trkpt><trkpt lat="42.5373433" lon="12.6180478"><ele>205.0</ele><time>2026-04-08T14:41:52.988Z</time></trkpt><trkpt lat="42.5372813" lon="12.6180716"><ele>205.0</ele><time>2026-04-08T14:41:55.988Z</time></trkpt><trkpt lat="42.5372172" lon="12.6180866"><ele>205.0</ele><time>2026-04-08T14:41:59.988Z</time></trkpt><trkpt lat="42.5371637" lon="12.6181379"><ele>205.0</ele><time>2026-04-08T14:42:51.987Z</time></trkpt><trkpt lat="42.5371039" lon="12.6181844"><ele>205.0</ele><time>2026-04-08T14:42:55.988Z</time></trkpt><trkpt lat="42.537038" lon="12.6182456"><ele>205.0</ele><time>2026-04-08T14:42:59.987Z</time></trkpt><trkpt lat="42.5370041" lon="12.61832"><ele>205.0</ele><time>2026-04-08T14:43:02.988Z</time></trkpt><trkpt lat="42.5370366" lon="12.618428"><ele>205.0</ele><time>2026-04-08T14:43:05.988Z</time></trkpt><trkpt lat="42.5370766" lon="12.618501"><ele>205.0</ele><time>2026-04-08T14:43:08.988Z</time></trkpt><trkpt lat="42.5371499" lon="12.618559"><ele>205.0</ele><time>2026-04-08T14:43:11.987Z</time></trkpt><trkpt lat="42.537213" lon="12.6186026"><ele>205.0</ele><time>2026-04-08T14:43:14.988Z</time></trkpt><trkpt lat="42.5372771" lon="12.6186205"><ele>205.0</ele><time>2026-04-08T14:43:17.988Z</time></trkpt><trkpt lat="42.5373619" lon="12.618626"><ele>205.0</ele><time>2026-04-08T14:43:21.988Z</time></trkpt><trkpt lat="42.5374267" lon="12.6186538"><ele>205.0</ele><time>2026-04-08T14:43:24.988Z</time></trkpt><trkpt lat="42.5374935" lon="12.6186758"><ele>207.0</ele><time>2026-04-08T14:43:27.988Z</time></trkpt><trkpt lat="42.5375635" lon="12.6186973"><ele>209.0</ele><time>2026-04-08T14:43:30.988Z</time></trkpt><trkpt lat="42.5376272" lon="12.6187143"><ele>211.0</ele><time>2026-04-08T14:43:33.986Z</time></trkpt><trkpt lat="42.5377074" lon="12.6187405"><ele>213.0</ele><time>2026-04-08T14:43:37.988Z</time></trkpt><trkpt lat="42.537774" lon="12.6187672"><ele>215.0</ele><time>2026-04-08T14:43:40.987Z</time></trkpt><trkpt lat="42.5378471" lon="12.6187991"><ele>217.0</ele><time>2026-04-08T14:43:43.987Z</time></trkpt><trkpt lat="42.5379122" lon="12.618827"><ele>219.0</ele><time>2026-04-08T14:43:46.988Z</time></trkpt><trkpt lat="42.5379781" lon="12.6188473"><ele>219.0</ele><time>2026-04-08T14:43:49.988Z</time></trkpt><trkpt lat="42.5380447" lon="12.6188733"><ele>219.0</ele><time>2026-04-08T14:43:52.987Z</time></trkpt><trkpt lat="42.5381143" lon="12.6188936"><ele>219.0</ele><time>2026-04-08T14:43:55.987Z</time></trkpt><trkpt lat="42.5381867" lon="12.6189369"><ele>219.0</ele><time>2026-04-08T14:43:59.988Z</time></trkpt><trkpt lat="42.5382497" lon="12.6190119"><ele>219.0</ele><time>2026-04-08T14:44:03.987Z</time></trkpt><trkpt lat="42.5382969" lon="12.6190805"><ele>219.0</ele><time>2026-04-08T14:44:06.987Z</time></trkpt><trkpt lat="42.5383404" lon="12.6191504"><ele>219.0</ele><time>2026-04-08T14:44:09.988Z</time></trkpt><trkpt lat="42.5383822" lon="12.6192268"><ele>219.0</ele><time>2026-04-08T14:44:12.988Z</time></trkpt><trkpt lat="42.5384298" lon="12.619324"><ele>219.0</ele><time>2026-04-08T14:44:16.987Z</time></trkpt><trkpt lat="42.5384602" lon="12.6194016"><ele>219.0</ele><time>2026-04-08T14:44:19.988Z</time></trkpt><trkpt lat="42.5384922" lon="12.6194814"><ele>219.0</ele><time>2026-04-08T14:44:22.988Z</time></trkpt><trkpt lat="42.538502" lon="12.6195688"><ele>219.0</ele><time>2026-04-08T14:44:26.988Z</time></trkpt><trkpt lat="42.5384421" lon="12.6195138"><ele>219.0</ele><time>2026-04-08T14:44:31.987Z</time></trkpt><trkpt lat="42.5383963" lon="12.6194492"><ele>219.0</ele><time>2026-04-08T14:44:35.987Z</time></trkpt><trkpt lat="42.5383355" lon="12.619386"><ele>219.0</ele><time>2026-04-08T14:44:39.986Z</time></trkpt><trkpt lat="42.5382747" lon="12.6193464"><ele>219.0</ele><time>2026-04-08T14:44:46.988Z</time></trkpt><trkpt lat="42.5382103" lon="12.619296"><ele>219.0</ele><time>2026-04-08T14:44:52.988Z</time></trkpt><trkpt lat="42.5381425" lon="12.6192468"><ele>219.0</ele><time>2026-04-08T14:44:58.987Z</time></trkpt><trkpt lat="42.5380669" lon="12.619227"><ele>219.0</ele><time>2026-04-08T14:45:04.988Z</time></trkpt><trkpt lat="42.5379989" lon="12.6192191"><ele>219.0</ele><time>2026-04-08T14:45:19.988Z</time></trkpt><trkpt lat="42.537932" lon="12.6192096"><ele>219.0</ele><time>2026-04-08T14:45:24.988Z</time></trkpt><trkpt lat="42.5378677" lon="12.6192067"><ele>220.28571428571428</ele><time>2026-04-08T14:45:29.988Z</time></trkpt><trkpt lat="42.5377997" lon="12.6192078"><ele>221.57142857142856</ele><time>2026-04-08T14:45:34.988Z</time></trkpt><trkpt lat="42.5377324" lon="12.6192142"><ele>222.85714285714283</ele><time>2026-04-08T14:45:39.988Z</time></trkpt><trkpt lat="42.5376649" lon="12.6192216"><ele>224.14285714285714</ele><time>2026-04-08T14:45:44.988Z</time></trkpt><trkpt lat="42.5375891" lon="12.6192381"><ele>225.4285714285714</ele><time>2026-04-08T14:45:52.987Z</time></trkpt><trkpt lat="42.5375242" lon="12.6192447"><ele>226.7142857142857</ele><time>2026-04-08T14:45:55.988Z</time></trkpt><trkpt lat="42.537441" lon="12.6192576"><ele>228.0</ele><time>2026-04-08T14:45:59.988Z</time></trkpt><trkpt lat="42.5373752" lon="12.6192667"><ele>228.0</ele><time>2026-04-08T14:46:02.988Z</time></trkpt><trkpt lat="42.5373043" lon="12.6192817"><ele>228.0</ele><time>2026-04-08T14:46:05.988Z</time></trkpt><trkpt lat="42.5372321" lon="12.6192868"><ele>228.0</ele><time>2026-04-08T14:46:08.988Z</time></trkpt><trkpt lat="42.5371636" lon="12.6192882"><ele>228.0</ele><time>2026-04-08T14:46:11.986Z</time></trkpt><trkpt lat="42.537082" lon="12.6192775"><ele>228.0</ele><time>2026-04-08T14:46:14.986Z</time></trkpt><trkpt lat="42.5370024" lon="12.6192611"><ele>228.0</ele><time>2026-04-08T14:46:17.987Z</time></trkpt><trkpt lat="42.5369173" lon="12.6192492"><ele>227.85714285714283</ele><time>2026-04-08T14:46:20.987Z</time></trkpt><trkpt lat="42.5368371" lon="12.6192359"><ele>227.7142857142857</ele><time>2026-04-08T14:46:23.988Z</time></trkpt><trkpt lat="42.536756" lon="12.6192308"><ele>227.57142857142856</ele><time>2026-04-08T14:46:26.987Z</time></trkpt><trkpt lat="42.5366798" lon="12.6192295"><ele>227.42857142857144</ele><time>2026-04-08T14:46:30.987Z</time></trkpt><trkpt lat="42.5366171" lon="12.6192217"><ele>227.2857142857143</ele><time>2026-04-08T14:46:34.986Z</time></trkpt><trkpt lat="42.5366863" lon="12.6192436"><ele>227.14285714285717</ele><time>2026-04-08T14:46:44.987Z</time></trkpt><trkpt lat="42.536633" lon="12.6192987"><ele>227.0</ele><time>2026-04-08T14:47:07.995Z</time></trkpt><trkpt lat="42.5365812" lon="12.6193623"><ele>227.0</ele><time>2026-04-08T14:47:19.011Z</time></trkpt><trkpt lat="42.5365729" lon="12.6194617"><ele>227.0</ele><time>2026-04-08T14:48:27.985Z</time></trkpt></trkseg><trkseg><trkpt lat="42.538679" lon="12.619968"><ele>229.0</ele><time>2026-04-08T15:29:29.983Z</time></trkpt><trkpt lat="42.5386548" lon="12.6198671"><ele>229.0</ele><time>2026-04-08T15:29:45.983Z</time></trkpt><trkpt lat="42.5386181" lon="12.6197823"><ele>229.0</ele><time>2026-04-08T15:29:49.982Z</time></trkpt><trkpt lat="42.5385703" lon="12.6197235"><ele>229.0</ele><time>2026-04-08T15:29:52.982Z</time></trkpt><trkpt lat="42.5385381" lon="12.6196434"><ele>229.0</ele><time>2026-04-08T15:29:54.983Z</time></trkpt><trkpt lat="42.5385198" lon="12.6195394"><ele>229.0</ele><time>2026-04-08T15:29:56.982Z</time></trkpt><trkpt lat="42.5385089" lon="12.6194341"><ele>229.0</ele><time>2026-04-08T15:29:59.983Z</time></trkpt><trkpt lat="42.5385645" lon="12.6193871"><ele>229.0</ele><time>2026-04-08T15:30:05.983Z</time></trkpt><trkpt lat="42.5386111" lon="12.6194799"><ele>228.99999999999997</ele><time>2026-04-08T15:30:08.983Z</time></trkpt><trkpt lat="42.5386513" lon="12.6195868"><ele>228.99999999999997</ele><time>2026-04-08T15:30:10.983Z</time></trkpt><trkpt lat="42.5387033" lon="12.6196955"><ele>229.0</ele><time>2026-04-08T15:30:12.983Z</time></trkpt><trkpt lat="42.5387517" lon="12.619801"><ele>229.0</ele><time>2026-04-08T15:30:14.983Z</time></trkpt><trkpt lat="42.5388065" lon="12.6199084"><ele>225.33333333333331</ele><time>2026-04-08T15:30:16.981Z</time></trkpt><trkpt lat="42.5388575" lon="12.6200288"><ele>221.66666666666666</ele><time>2026-04-08T15:30:18.983Z</time></trkpt><trkpt lat="42.5388931" lon="12.6201478"><ele>218.0</ele><time>2026-04-08T15:30:20.983Z</time></trkpt><trkpt lat="42.5389098" lon="12.6202455"><ele>214.33333333333331</ele><time>2026-04-08T15:30:22.983Z</time></trkpt><trkpt lat="42.5389324" lon="12.6203357"><ele>210.66666666666666</ele><time>2026-04-08T15:30:24.983Z</time></trkpt><trkpt lat="42.5389745" lon="12.6204331"><ele>207.0</ele><time>2026-04-08T15:30:26.983Z</time></trkpt><trkpt lat="42.5390205" lon="12.620528"><ele>207.0</ele><time>2026-04-08T15:30:28.982Z</time></trkpt><trkpt lat="42.5390623" lon="12.6206206"><ele>207.0</ele><time>2026-04-08T15:30:30.982Z</time></trkpt><trkpt lat="42.5391083" lon="12.6207229"><ele>207.0</ele><time>2026-04-08T15:30:32.983Z</time></trkpt><trkpt lat="42.5391431" lon="12.6208427"><ele>207.0</ele><time>2026-04-08T15:30:34.983Z</time></trkpt><trkpt lat="42.539181" lon="12.6209531"><ele>207.0</ele><time>2026-04-08T15:30:36.983Z</time></trkpt><trkpt lat="42.5392207" lon="12.6210617"><ele>207.0</ele><time>2026-04-08T15:30:38.982Z</time></trkpt><trkpt lat="42.5392547" lon="12.6211635"><ele>204.5</ele><time>2026-04-08T15:30:40.983Z</time></trkpt><trkpt lat="42.5392959" lon="12.6212532"><ele>202.0</ele><time>2026-04-08T15:30:42.982Z</time></trkpt><trkpt lat="42.5393332" lon="12.6213498"><ele>199.5</ele><time>2026-04-08T15:30:44.983Z</time></trkpt><trkpt lat="42.5393752" lon="12.6214496"><ele>197.0</ele><time>2026-04-08T15:30:46.983Z</time></trkpt><trkpt lat="42.5394156" lon="12.6215358"><ele>194.5</ele><time>2026-04-08T15:30:48.981Z</time></trkpt><trkpt lat="42.5394709" lon="12.6216129"><ele>192.0</ele><time>2026-04-08T15:30:50.982Z</time></trkpt><trkpt lat="42.5395447" lon="12.6216968"><ele>191.33333333333334</ele><time>2026-04-08T15:30:52.983Z</time></trkpt><trkpt lat="42.5396133" lon="12.6217611"><ele>190.66666666666666</ele><time>2026-04-08T15:30:54.983Z</time></trkpt><trkpt lat="42.5396923" lon="12.6218137"><ele>190.0</ele><time>2026-04-08T15:30:56.983Z</time></trkpt><trkpt lat="42.5397534" lon="12.6218445"><ele>189.33333333333331</ele><time>2026-04-08T15:30:58.983Z</time></trkpt><trkpt lat="42.5398379" lon="12.6218771"><ele>188.66666666666666</ele><time>2026-04-08T15:31:01.983Z</time></trkpt><trkpt lat="42.5399005" lon="12.6219026"><ele>188.0</ele><time>2026-04-08T15:31:03.982Z</time></trkpt><trkpt lat="42.5399645" lon="12.6219234"><ele>188.0</ele><time>2026-04-08T15:31:05.983Z</time></trkpt><trkpt lat="42.5400336" lon="12.6219523"><ele>188.0</ele><time>2026-04-08T15:31:08.983Z</time></trkpt><trkpt lat="42.5400956" lon="12.6219783"><ele>188.0</ele><time>2026-04-08T15:31:10.982Z</time></trkpt><trkpt lat="42.5401785" lon="12.6219746"><ele>188.0</ele><time>2026-04-08T15:31:12.983Z</time></trkpt><trkpt lat="42.5402923" lon="12.6219684"><ele>188.0</ele><time>2026-04-08T15:31:14.983Z</time></trkpt><trkpt lat="42.5404102" lon="12.6219815"><ele>185.8</ele><time>2026-04-08T15:31:16.983Z</time></trkpt><trkpt lat="42.5404751" lon="12.6219953"><ele>183.60000000000002</ele><time>2026-04-08T15:31:17.983Z</time></trkpt><trkpt lat="42.5405909" lon="12.6219841"><ele>181.39999999999998</ele><time>2026-04-08T15:31:19.982Z</time></trkpt><trkpt lat="42.5406978" lon="12.6219623"><ele>179.2</ele><time>2026-04-08T15:31:21.983Z</time></trkpt><trkpt lat="42.540797" lon="12.6219207"><ele>177.0</ele><time>2026-04-08T15:31:23.982Z</time></trkpt><trkpt lat="42.5408894" lon="12.621866"><ele>177.0</ele><time>2026-04-08T15:31:25.983Z</time></trkpt><trkpt lat="42.5409737" lon="12.6217738"><ele>177.0</ele><time>2026-04-08T15:31:27.982Z</time></trkpt><trkpt lat="42.541057" lon="12.6216961"><ele>177.0</ele><time>2026-04-08T15:31:29.982Z</time></trkpt><trkpt lat="42.5411191" lon="12.6216466"><ele>177.0</ele><time>2026-04-08T15:31:31.983Z</time></trkpt><trkpt lat="42.5411847" lon="12.6216062"><ele>177.0</ele><time>2026-04-08T15:31:33.983Z</time></trkpt><trkpt lat="42.5412768" lon="12.6217095"><ele>175.0</ele><time>2026-04-08T15:31:36.982Z</time></trkpt><trkpt lat="42.5413492" lon="12.6218052"><ele>173.0</ele><time>2026-04-08T15:31:38.982Z</time></trkpt><trkpt lat="42.5414488" lon="12.6218719"><ele>171.0</ele><time>2026-04-08T15:31:40.983Z</time></trkpt><trkpt lat="42.5415213" lon="12.6218848"><ele>169.0</ele><time>2026-04-08T15:31:41.982Z</time></trkpt><trkpt lat="42.5415858" lon="12.621887"><ele>167.0</ele><time>2026-04-08T15:31:42.983Z</time></trkpt><trkpt lat="42.5416507" lon="12.6218734"><ele>165.0</ele><time>2026-04-08T15:31:43.983Z</time></trkpt><trkpt lat="42.541721" lon="12.6218283"><ele>165.0</ele><time>2026-04-08T15:31:44.983Z</time></trkpt><trkpt lat="42.5417865" lon="12.6217889"><ele>165.0</ele><time>2026-04-08T15:31:45.982Z</time></trkpt><trkpt lat="42.5418707" lon="12.6217451"><ele>165.0</ele><time>2026-04-08T15:31:46.983Z</time></trkpt><trkpt lat="42.5419496" lon="12.6216845"><ele>165.0</ele><time>2026-04-08T15:31:47.982Z</time></trkpt><trkpt lat="42.5420274" lon="12.6216226"><ele>165.0</ele><time>2026-04-08T15:31:48.983Z</time></trkpt><trkpt lat="42.5421095" lon="12.6215663"><ele>165.0</ele><time>2026-04-08T15:31:49.983Z</time></trkpt><trkpt lat="42.5421852" lon="12.6215129"><ele>164.6</ele><time>2026-04-08T15:31:50.983Z</time></trkpt><trkpt lat="42.5422619" lon="12.6214477"><ele>164.2</ele><time>2026-04-08T15:31:51.983Z</time></trkpt><trkpt lat="42.5423344" lon="12.6213858"><ele>163.8</ele><time>2026-04-08T15:31:52.983Z</time></trkpt><trkpt lat="42.5424195" lon="12.6213238"><ele>163.4</ele><time>2026-04-08T15:31:53.983Z</time></trkpt><trkpt lat="42.5425053" lon="12.621256"><ele>163.0</ele><time>2026-04-08T15:31:54.982Z</time></trkpt><trkpt lat="42.5425865" lon="12.6211913"><ele>162.20000000000002</ele><time>2026-04-08T15:31:55.982Z</time></trkpt><trkpt lat="42.5426712" lon="12.6211299"><ele>161.4</ele><time>2026-04-08T15:31:56.982Z</time></trkpt><trkpt lat="42.542757" lon="12.6210663"><ele>160.60000000000002</ele><time>2026-04-08T15:31:57.983Z</time></trkpt><trkpt lat="42.5428351" lon="12.6210054"><ele>159.8</ele><time>2026-04-08T15:31:58.983Z</time></trkpt><trkpt lat="42.5429198" lon="12.620941"><ele>159.0</ele><time>2026-04-08T15:31:59.982Z</time></trkpt><trkpt lat="42.5430015" lon="12.6208733"><ele>157.8</ele><time>2026-04-08T15:32:00.982Z</time></trkpt><trkpt lat="42.5430855" lon="12.6208081"><ele>156.60000000000002</ele><time>2026-04-08T15:32:01.982Z</time></trkpt><trkpt lat="42.5431658" lon="12.620741"><ele>155.4</ele><time>2026-04-08T15:32:02.982Z</time></trkpt><trkpt lat="42.5432492" lon="12.6206746"><ele>154.20000000000002</ele><time>2026-04-08T15:32:03.982Z</time></trkpt><trkpt lat="42.5433335" lon="12.6206142"><ele>153.0</ele><time>2026-04-08T15:32:04.983Z</time></trkpt><trkpt lat="42.5434173" lon="12.6205496"><ele>153.0</ele><time>2026-04-08T15:32:05.982Z</time></trkpt><trkpt lat="42.5434888" lon="12.6204879"><ele>153.0</ele><time>2026-04-08T15:32:06.982Z</time></trkpt><trkpt lat="42.5435676" lon="12.6204289"><ele>153.0</ele><time>2026-04-08T15:32:07.983Z</time></trkpt><trkpt lat="42.543647" lon="12.6203678"><ele>153.0</ele><time>2026-04-08T15:32:08.983Z</time></trkpt><trkpt lat="42.5437097" lon="12.6203151"><ele>153.0</ele><time>2026-04-08T15:32:09.983Z</time></trkpt><trkpt lat="42.5437759" lon="12.6202706"><ele>153.0</ele><time>2026-04-08T15:32:10.983Z</time></trkpt><trkpt lat="42.5438382" lon="12.6202386"><ele>152.14285714285714</ele><time>2026-04-08T15:32:11.982Z</time></trkpt><trkpt lat="42.5439093" lon="12.6202241"><ele>151.28571428571428</ele><time>2026-04-08T15:32:12.982Z</time></trkpt><trkpt lat="42.5439756" lon="12.6202386"><ele>150.42857142857144</ele><time>2026-04-08T15:32:13.982Z</time></trkpt><trkpt lat="42.5440442" lon="12.6202838"><ele>149.57142857142856</ele><time>2026-04-08T15:32:14.983Z</time></trkpt><trkpt lat="42.5441018" lon="12.6203399"><ele>148.71428571428572</ele><time>2026-04-08T15:32:15.983Z</time></trkpt><trkpt lat="42.5441328" lon="12.6204336"><ele>147.85714285714286</ele><time>2026-04-08T15:32:16.983Z</time></trkpt><trkpt lat="42.544157" lon="12.620536"><ele>147.0</ele><time>2026-04-08T15:32:17.982Z</time></trkpt><trkpt lat="42.5441565" lon="12.6206344"><ele>147.0</ele><time>2026-04-08T15:32:18.982Z</time></trkpt><trkpt lat="42.5441325" lon="12.6207296"><ele>147.0</ele><time>2026-04-08T15:32:19.982Z</time></trkpt><trkpt lat="42.5440998" lon="12.6208125"><ele>147.0</ele><time>2026-04-08T15:32:20.982Z</time></trkpt><trkpt lat="42.5440676" lon="12.6208968"><ele>147.0</ele><time>2026-04-08T15:32:21.983Z</time></trkpt><trkpt lat="42.5440213" lon="12.6209816"><ele>147.0</ele><time>2026-04-08T15:32:22.982Z</time></trkpt><trkpt lat="42.5439774" lon="12.6210595"><ele>147.0</ele><time>2026-04-08T15:32:23.982Z</time></trkpt><trkpt lat="42.5439372" lon="12.6211425"><ele>147.0</ele><time>2026-04-08T15:32:24.982Z</time></trkpt><trkpt lat="42.5438943" lon="12.6212234"><ele>146.33333333333334</ele><time>2026-04-08T15:32:25.983Z</time></trkpt><trkpt lat="42.5438513" lon="12.6213054"><ele>145.66666666666666</ele><time>2026-04-08T15:32:26.982Z</time></trkpt><trkpt lat="42.5438065" lon="12.6213879"><ele>145.0</ele><time>2026-04-08T15:32:27.983Z</time></trkpt><trkpt lat="42.5437634" lon="12.6214729"><ele>144.33333333333331</ele><time>2026-04-08T15:32:28.983Z</time></trkpt><trkpt lat="42.5437202" lon="12.6215569"><ele>143.66666666666666</ele><time>2026-04-08T15:32:29.983Z</time></trkpt><trkpt lat="42.5436784" lon="12.6216459"><ele>143.0</ele><time>2026-04-08T15:32:30.983Z</time></trkpt><trkpt lat="42.5436348" lon="12.6217334"><ele>143.33333333333331</ele><time>2026-04-08T15:32:31.983Z</time></trkpt><trkpt lat="42.5435915" lon="12.6218229"><ele>143.66666666666666</ele><time>2026-04-08T15:32:32.983Z</time></trkpt><trkpt lat="42.5435503" lon="12.6219088"><ele>144.0</ele><time>2026-04-08T15:32:33.982Z</time></trkpt><trkpt lat="42.543506" lon="12.6219917"><ele>144.33333333333334</ele><time>2026-04-08T15:32:34.982Z</time></trkpt><trkpt lat="42.5434714" lon="12.6220653"><ele>144.66666666666669</ele><time>2026-04-08T15:32:35.983Z</time></trkpt><trkpt lat="42.5434354" lon="12.6221387"><ele>145.0</ele><time>2026-04-08T15:32:36.982Z</time></trkpt><trkpt lat="42.5433907" lon="12.6222897"><ele>145.0</ele><time>2026-04-08T15:32:38.983Z</time></trkpt><trkpt lat="42.5433999" lon="12.6224531"><ele>145.0</ele><time>2026-04-08T15:32:40.982Z</time></trkpt><trkpt lat="42.5434345" lon="12.6225329"><ele>145.0</ele><time>2026-04-08T15:32:41.983Z</time></trkpt><trkpt lat="42.5435138" lon="12.6226674"><ele>145.0</ele><time>2026-04-08T15:32:43.983Z</time></trkpt><trkpt lat="42.543564" lon="12.622733"><ele>145.0</ele><time>2026-04-08T15:32:44.982Z</time></trkpt><trkpt lat="42.543632" lon="12.6227793"><ele>145.16666666666669</ele><time>2026-04-08T15:32:45.983Z</time></trkpt><trkpt lat="42.5436895" lon="12.622837"><ele>145.33333333333334</ele><time>2026-04-08T15:32:46.982Z</time></trkpt><trkpt lat="42.5437447" lon="12.6229035"><ele>145.5</ele><time>2026-04-08T15:32:47.983Z</time></trkpt><trkpt lat="42.5438139" lon="12.6229609"><ele>145.66666666666666</ele><time>2026-04-08T15:32:48.983Z</time></trkpt><trkpt lat="42.5438827" lon="12.6230177"><ele>145.83333333333331</ele><time>2026-04-08T15:32:49.982Z</time></trkpt><trkpt lat="42.5439469" lon="12.6230702"><ele>146.0</ele><time>2026-04-08T15:32:50.983Z</time></trkpt><trkpt lat="42.5440125" lon="12.6231309"><ele>145.66666666666666</ele><time>2026-04-08T15:32:51.982Z</time></trkpt><trkpt lat="42.544078" lon="12.6231918"><ele>145.33333333333331</ele><time>2026-04-08T15:32:52.983Z</time></trkpt><trkpt lat="42.5441376" lon="12.623247"><ele>145.0</ele><time>2026-04-08T15:32:53.982Z</time></trkpt><trkpt lat="42.5441978" lon="12.6233063"><ele>144.66666666666666</ele><time>2026-04-08T15:32:54.982Z</time></trkpt><trkpt lat="42.5442669" lon="12.6233616"><ele>144.33333333333334</ele><time>2026-04-08T15:32:55.982Z</time></trkpt><trkpt lat="42.5443377" lon="12.6234168"><ele>144.0</ele><time>2026-04-08T15:32:56.982Z</time></trkpt><trkpt lat="42.5444084" lon="12.6234549"><ele>144.0</ele><time>2026-04-08T15:32:57.983Z</time></trkpt><trkpt lat="42.5444707" lon="12.6234951"><ele>144.0</ele><time>2026-04-08T15:32:58.982Z</time></trkpt><trkpt lat="42.544552" lon="12.6235166"><ele>144.0</ele><time>2026-04-08T15:32:59.983Z</time></trkpt><trkpt lat="42.5446335" lon="12.6235274"><ele>144.0</ele><time>2026-04-08T15:33:00.982Z</time></trkpt><trkpt lat="42.5447102" lon="12.6235276"><ele>144.0</ele><time>2026-04-08T15:33:01.982Z</time></trkpt><trkpt lat="42.544795" lon="12.623527"><ele>144.0</ele><time>2026-04-08T15:33:02.982Z</time></trkpt><trkpt lat="42.5448784" lon="12.6235088"><ele>142.83333333333334</ele><time>2026-04-08T15:33:03.983Z</time></trkpt><trkpt lat="42.5449533" lon="12.6234894"><ele>141.66666666666666</ele><time>2026-04-08T15:33:04.983Z</time></trkpt><trkpt lat="42.5450362" lon="12.6234653"><ele>140.5</ele><time>2026-04-08T15:33:05.983Z</time></trkpt><trkpt lat="42.5451128" lon="12.6234372"><ele>139.33333333333331</ele><time>2026-04-08T15:33:06.982Z</time></trkpt><trkpt lat="42.5451913" lon="12.6234105"><ele>138.16666666666666</ele><time>2026-04-08T15:33:07.982Z</time></trkpt><trkpt lat="42.5452712" lon="12.6233825"><ele>137.0</ele><time>2026-04-08T15:33:08.983Z</time></trkpt><trkpt lat="42.5453558" lon="12.6233592"><ele>136.5</ele><time>2026-04-08T15:33:09.982Z</time></trkpt><trkpt lat="42.5454383" lon="12.6233366"><ele>136.0</ele><time>2026-04-08T15:33:10.982Z</time></trkpt><trkpt lat="42.545522" lon="12.6233173"><ele>135.5</ele><time>2026-04-08T15:33:11.983Z</time></trkpt><trkpt lat="42.5455955" lon="12.6232864"><ele>135.0</ele><time>2026-04-08T15:33:12.982Z</time></trkpt><trkpt lat="42.5456737" lon="12.6232609"><ele>134.5</ele><time>2026-04-08T15:33:13.983Z</time></trkpt><trkpt lat="42.5457481" lon="12.6232372"><ele>134.0</ele><time>2026-04-08T15:33:14.981Z</time></trkpt><trkpt lat="42.5458217" lon="12.6232123"><ele>134.0</ele><time>2026-04-08T15:33:15.982Z</time></trkpt><trkpt lat="42.5459036" lon="12.6231927"><ele>134.0</ele><time>2026-04-08T15:33:16.983Z</time></trkpt><trkpt lat="42.54598" lon="12.6231689"><ele>134.0</ele><time>2026-04-08T15:33:17.982Z</time></trkpt><trkpt lat="42.5460637" lon="12.6231502"><ele>134.0</ele><time>2026-04-08T15:33:18.983Z</time></trkpt><trkpt lat="42.5461349" lon="12.6231359"><ele>134.0</ele><time>2026-04-08T15:33:19.982Z</time></trkpt><trkpt lat="42.5462074" lon="12.6231174"><ele>134.0</ele><time>2026-04-08T15:33:20.982Z</time></trkpt><trkpt lat="42.5462849" lon="12.6230886"><ele>133.42857142857144</ele><time>2026-04-08T15:33:21.982Z</time></trkpt><trkpt lat="42.5463674" lon="12.6230616"><ele>132.85714285714286</ele><time>2026-04-08T15:33:22.982Z</time></trkpt><trkpt lat="42.5464406" lon="12.6230396"><ele>132.28571428571428</ele><time>2026-04-08T15:33:23.983Z</time></trkpt><trkpt lat="42.5465114" lon="12.6230205"><ele>131.71428571428572</ele><time>2026-04-08T15:33:24.983Z</time></trkpt><trkpt lat="42.5465838" lon="12.6229923"><ele>131.14285714285714</ele><time>2026-04-08T15:33:25.983Z</time></trkpt><trkpt lat="42.5466546" lon="12.6229682"><ele>130.57142857142858</ele><time>2026-04-08T15:33:26.983Z</time></trkpt><trkpt lat="42.5467221" lon="12.6229483"><ele>130.0</ele><time>2026-04-08T15:33:27.983Z</time></trkpt><trkpt lat="42.5467917" lon="12.6229266"><ele>130.0</ele><time>2026-04-08T15:33:28.982Z</time></trkpt><trkpt lat="42.5468589" lon="12.6229103"><ele>130.0</ele><time>2026-04-08T15:33:29.982Z</time></trkpt><trkpt lat="42.5469243" lon="12.6228859"><ele>130.0</ele><time>2026-04-08T15:33:30.983Z</time></trkpt><trkpt lat="42.5470187" lon="12.6228546"><ele>130.0</ele><time>2026-04-08T15:33:32.983Z</time></trkpt><trkpt lat="42.5471244" lon="12.6228169"><ele>130.0</ele><time>2026-04-08T15:33:34.983Z</time></trkpt><trkpt lat="42.5472267" lon="12.6227745"><ele>130.0</ele><time>2026-04-08T15:33:36.983Z</time></trkpt><trkpt lat="42.547318" lon="12.6227413"><ele>129.6</ele><time>2026-04-08T15:33:38.982Z</time></trkpt><trkpt lat="42.5474104" lon="12.6227086"><ele>129.2</ele><time>2026-04-08T15:33:40.982Z</time></trkpt><trkpt lat="42.547515" lon="12.6226751"><ele>128.8</ele><time>2026-04-08T15:33:42.983Z</time></trkpt><trkpt lat="42.5475771" lon="12.6226592"><ele>128.4</ele><time>2026-04-08T15:33:43.983Z</time></trkpt><trkpt lat="42.5476885" lon="12.6226244"><ele>128.0</ele><time>2026-04-08T15:33:45.983Z</time></trkpt><trkpt lat="42.5478103" lon="12.6225858"><ele>128.0</ele><time>2026-04-08T15:33:47.982Z</time></trkpt><trkpt lat="42.5479126" lon="12.6225514"><ele>128.0</ele><time>2026-04-08T15:33:49.982Z</time></trkpt><trkpt lat="42.5480313" lon="12.6225144"><ele>128.0</ele><time>2026-04-08T15:33:51.982Z</time></trkpt><trkpt lat="42.5481455" lon="12.622473"><ele>128.0</ele><time>2026-04-08T15:33:53.983Z</time></trkpt><trkpt lat="42.5482588" lon="12.6224461"><ele>127.99999999999999</ele><time>2026-04-08T15:33:55.982Z</time></trkpt><trkpt lat="42.5483708" lon="12.6224158"><ele>128.0</ele><time>2026-04-08T15:33:57.983Z</time></trkpt><trkpt lat="42.5484573" lon="12.6223889"><ele>128.0</ele><time>2026-04-08T15:33:59.983Z</time></trkpt><trkpt lat="42.5485595" lon="12.6223645"><ele>128.0</ele><time>2026-04-08T15:34:01.982Z</time></trkpt><trkpt lat="42.5486287" lon="12.6223522"><ele>127.99999999999999</ele><time>2026-04-08T15:34:05.983Z</time></trkpt><trkpt lat="42.5486945" lon="12.6223625"><ele>128.0</ele><time>2026-04-08T15:34:40.983Z</time></trkpt><trkpt lat="42.5487487" lon="12.6223176"><ele>128.0</ele><time>2026-04-08T15:34:45.982Z</time></trkpt><trkpt lat="42.5487002" lon="12.6222279"><ele>127.99999999999999</ele><time>2026-04-08T15:34:58.982Z</time></trkpt><trkpt lat="42.5486947" lon="12.6221378"><ele>128.0</ele><time>2026-04-08T15:35:01.982Z</time></trkpt><trkpt lat="42.5486737" lon="12.6220536"><ele>128.0</ele><time>2026-04-08T15:35:07.983Z</time></trkpt><trkpt lat="42.5487296" lon="12.6219931"><ele>127.99999999999999</ele><time>2026-04-08T15:35:11.983Z</time></trkpt><trkpt lat="42.5487326" lon="12.6219009"><ele>128.0</ele><time>2026-04-08T15:35:19.981Z</time></trkpt><trkpt lat="42.5486986" lon="12.6218275"><ele>128.0</ele><time>2026-04-08T15:35:23.982Z</time></trkpt><trkpt lat="42.5487061" lon="12.6217169"><ele>127.66666666666666</ele><time>2026-04-08T15:35:28.982Z</time></trkpt><trkpt lat="42.5486729" lon="12.6216264"><ele>127.33333333333333</ele><time>2026-04-08T15:35:31.982Z</time></trkpt><trkpt lat="42.5486211" lon="12.6215454"><ele>127.0</ele><time>2026-04-08T15:35:34.982Z</time></trkpt><trkpt lat="42.5485866" lon="12.6214603"><ele>126.66666666666666</ele><time>2026-04-08T15:35:36.983Z</time></trkpt><trkpt lat="42.5485567" lon="12.6213545"><ele>126.33333333333333</ele><time>2026-04-08T15:35:38.982Z</time></trkpt><trkpt lat="42.5485209" lon="12.6212334"><ele>126.0</ele><time>2026-04-08T15:35:40.983Z</time></trkpt><trkpt lat="42.5484911" lon="12.6211171"><ele>125.83333333333333</ele><time>2026-04-08T15:35:42.982Z</time></trkpt><trkpt lat="42.5484578" lon="12.6210064"><ele>125.66666666666666</ele><time>2026-04-08T15:35:44.983Z</time></trkpt><trkpt lat="42.5484182" lon="12.620894"><ele>125.5</ele><time>2026-04-08T15:35:46.982Z</time></trkpt><trkpt lat="42.5483884" lon="12.6207767"><ele>125.33333333333333</ele><time>2026-04-08T15:35:48.983Z</time></trkpt><trkpt lat="42.5483554" lon="12.6206817"><ele>125.16666666666666</ele><time>2026-04-08T15:35:50.982Z</time></trkpt><trkpt lat="42.5483315" lon="12.6205792"><ele>125.0</ele><time>2026-04-08T15:35:53.983Z</time></trkpt><trkpt lat="42.5483023" lon="12.6204889"><ele>124.99999999999999</ele><time>2026-04-08T15:35:56.982Z</time></trkpt><trkpt lat="42.548258" lon="12.6203731"><ele>125.0</ele><time>2026-04-08T15:35:59.982Z</time></trkpt><trkpt lat="42.5482237" lon="12.6202783"><ele>125.0</ele><time>2026-04-08T15:36:01.982Z</time></trkpt><trkpt lat="42.5481812" lon="12.6201818"><ele>125.0</ele><time>2026-04-08T15:36:03.983Z</time></trkpt><trkpt lat="42.5481424" lon="12.6200699"><ele>124.99999999999999</ele><time>2026-04-08T15:36:05.983Z</time></trkpt><trkpt lat="42.5481037" lon="12.6199537"><ele>125.0</ele><time>2026-04-08T15:36:07.982Z</time></trkpt><trkpt lat="42.5480576" lon="12.6198455"><ele>124.83333333333333</ele><time>2026-04-08T15:36:09.982Z</time></trkpt><trkpt lat="42.5480169" lon="12.6197717"><ele>124.66666666666666</ele><time>2026-04-08T15:36:11.983Z</time></trkpt><trkpt lat="42.5479924" lon="12.6196928"><ele>124.5</ele><time>2026-04-08T15:36:14.982Z</time></trkpt><trkpt lat="42.5479555" lon="12.6196073"><ele>124.33333333333334</ele><time>2026-04-08T15:36:19.982Z</time></trkpt><trkpt lat="42.5479213" lon="12.6195139"><ele>124.16666666666667</ele><time>2026-04-08T15:36:22.983Z</time></trkpt><trkpt lat="42.547896" lon="12.6194069"><ele>124.0</ele><time>2026-04-08T15:36:24.983Z</time></trkpt><trkpt lat="42.5478726" lon="12.6192802"><ele>124.4</ele><time>2026-04-08T15:36:26.982Z</time></trkpt><trkpt lat="42.5478356" lon="12.619149"><ele>124.80000000000001</ele><time>2026-04-08T15:36:28.982Z</time></trkpt><trkpt lat="42.5477951" lon="12.6190291"><ele>125.19999999999999</ele><time>2026-04-08T15:36:30.982Z</time></trkpt><trkpt lat="42.5477542" lon="12.6189113"><ele>125.6</ele><time>2026-04-08T15:36:32.983Z</time></trkpt><trkpt lat="42.5477237" lon="12.6188016"><ele>126.0</ele><time>2026-04-08T15:36:34.982Z</time></trkpt><trkpt lat="42.5476968" lon="12.6186952"><ele>126.19999999999999</ele><time>2026-04-08T15:36:36.982Z</time></trkpt><trkpt lat="42.5476572" lon="12.6185942"><ele>126.39999999999999</ele><time>2026-04-08T15:36:38.983Z</time></trkpt><trkpt lat="42.5476244" lon="12.6184753"><ele>126.6</ele><time>2026-04-08T15:36:40.982Z</time></trkpt><trkpt lat="42.5475852" lon="12.6183397"><ele>126.8</ele><time>2026-04-08T15:36:42.982Z</time></trkpt><trkpt lat="42.5475576" lon="12.6181996"><ele>127.0</ele><time>2026-04-08T15:36:44.982Z</time></trkpt><trkpt lat="42.5475227" lon="12.6180524"><ele>127.0</ele><time>2026-04-08T15:36:46.983Z</time></trkpt><trkpt lat="42.5474829" lon="12.6179048"><ele>127.0</ele><time>2026-04-08T15:36:48.982Z</time></trkpt><trkpt lat="42.5474497" lon="12.6177597"><ele>127.0</ele><time>2026-04-08T15:36:50.982Z</time></trkpt><trkpt lat="42.5474182" lon="12.6176023"><ele>127.0</ele><time>2026-04-08T15:36:52.982Z</time></trkpt><trkpt lat="42.5473822" lon="12.6174558"><ele>127.00000000000001</ele><time>2026-04-08T15:36:54.982Z</time></trkpt><trkpt lat="42.5473718" lon="12.6173714"><ele>127.0</ele><time>2026-04-08T15:36:55.982Z</time></trkpt><trkpt lat="42.5473578" lon="12.6172829"><ele>127.0</ele><time>2026-04-08T15:36:56.982Z</time></trkpt><trkpt lat="42.5473393" lon="12.6171975"><ele>127.0</ele><time>2026-04-08T15:36:57.983Z</time></trkpt><trkpt lat="42.5473219" lon="12.6171144"><ele>127.00000000000001</ele><time>2026-04-08T15:36:58.982Z</time></trkpt><trkpt lat="42.5473008" lon="12.6170267"><ele>127.0</ele><time>2026-04-08T15:36:59.982Z</time></trkpt><trkpt lat="42.547268" lon="12.6168538"><ele>126.83333333333334</ele><time>2026-04-08T15:37:01.983Z</time></trkpt><trkpt lat="42.547222" lon="12.6166838"><ele>126.66666666666667</ele><time>2026-04-08T15:37:03.982Z</time></trkpt><trkpt lat="42.547204" lon="12.6166001"><ele>126.5</ele><time>2026-04-08T15:37:04.983Z</time></trkpt><trkpt lat="42.5471891" lon="12.6165086"><ele>126.33333333333334</ele><time>2026-04-08T15:37:05.982Z</time></trkpt><trkpt lat="42.5471641" lon="12.6164154"><ele>126.16666666666667</ele><time>2026-04-08T15:37:06.982Z</time></trkpt><trkpt lat="42.5471449" lon="12.6163257"><ele>126.0</ele><time>2026-04-08T15:37:07.982Z</time></trkpt><trkpt lat="42.5471273" lon="12.6162346"><ele>125.57142857142857</ele><time>2026-04-08T15:37:08.982Z</time></trkpt><trkpt lat="42.5471006" lon="12.6161386"><ele>125.14285714285714</ele><time>2026-04-08T15:37:09.982Z</time></trkpt><trkpt lat="42.5470766" lon="12.6160477"><ele>124.71428571428572</ele><time>2026-04-08T15:37:10.982Z</time></trkpt><trkpt lat="42.5470517" lon="12.6159508"><ele>124.28571428571429</ele><time>2026-04-08T15:37:11.982Z</time></trkpt><trkpt lat="42.5470349" lon="12.6158579"><ele>123.85714285714286</ele><time>2026-04-08T15:37:12.981Z</time></trkpt><trkpt lat="42.5470134" lon="12.6157645"><ele>123.42857142857144</ele><time>2026-04-08T15:37:13.981Z</time></trkpt><trkpt lat="42.5469869" lon="12.6156706"><ele>123.00000000000001</ele><time>2026-04-08T15:37:14.982Z</time></trkpt><trkpt lat="42.5469652" lon="12.6155792"><ele>123.0</ele><time>2026-04-08T15:37:15.981Z</time></trkpt><trkpt lat="42.5469402" lon="12.6154874"><ele>123.0</ele><time>2026-04-08T15:37:16.982Z</time></trkpt><trkpt lat="42.546918" lon="12.6153924"><ele>123.0</ele><time>2026-04-08T15:37:17.983Z</time></trkpt><trkpt lat="42.5468722" lon="12.6152197"><ele>123.0</ele><time>2026-04-08T15:37:19.982Z</time></trkpt><trkpt lat="42.5468512" lon="12.6151385"><ele>123.0</ele><time>2026-04-08T15:37:20.982Z</time></trkpt><trkpt lat="42.5468268" lon="12.6150479"><ele>123.0</ele><time>2026-04-08T15:37:21.982Z</time></trkpt><trkpt lat="42.5468062" lon="12.6149581"><ele>123.00000000000001</ele><time>2026-04-08T15:37:22.982Z</time></trkpt><trkpt lat="42.5467864" lon="12.614863"><ele>123.0</ele><time>2026-04-08T15:37:23.982Z</time></trkpt><trkpt lat="42.546763" lon="12.6147731"><ele>123.00000000000001</ele><time>2026-04-08T15:37:24.983Z</time></trkpt><trkpt lat="42.5467449" lon="12.6146822"><ele>123.00000000000001</ele><time>2026-04-08T15:37:25.981Z</time></trkpt><trkpt lat="42.5467206" lon="12.614594"><ele>123.0</ele><time>2026-04-08T15:37:26.982Z</time></trkpt><trkpt lat="42.5466998" lon="12.614507"><ele>123.00000000000001</ele><time>2026-04-08T15:37:27.982Z</time></trkpt><trkpt lat="42.5466906" lon="12.6144165"><ele>123.00000000000001</ele><time>2026-04-08T15:37:28.983Z</time></trkpt><trkpt lat="42.5467041" lon="12.6142437"><ele>122.71428571428572</ele><time>2026-04-08T15:37:30.982Z</time></trkpt><trkpt lat="42.5467276" lon="12.6141636"><ele>122.42857142857143</ele><time>2026-04-08T15:37:31.982Z</time></trkpt><trkpt lat="42.546757" lon="12.6140859"><ele>122.14285714285714</ele><time>2026-04-08T15:37:32.983Z</time></trkpt><trkpt lat="42.5468321" lon="12.6139565"><ele>121.85714285714286</ele><time>2026-04-08T15:37:34.981Z</time></trkpt><trkpt lat="42.5468835" lon="12.6138948"><ele>121.57142857142856</ele><time>2026-04-08T15:37:35.981Z</time></trkpt><trkpt lat="42.5469341" lon="12.6138402"><ele>121.28571428571428</ele><time>2026-04-08T15:37:36.982Z</time></trkpt><trkpt lat="42.5469881" lon="12.6137883"><ele>121.0</ele><time>2026-04-08T15:37:37.982Z</time></trkpt><trkpt lat="42.5470407" lon="12.6137373"><ele>121.14285714285714</ele><time>2026-04-08T15:37:38.982Z</time></trkpt><trkpt lat="42.5470968" lon="12.6136837"><ele>121.28571428571428</ele><time>2026-04-08T15:37:39.982Z</time></trkpt><trkpt lat="42.5471522" lon="12.6136314"><ele>121.42857142857142</ele><time>2026-04-08T15:37:40.981Z</time></trkpt><trkpt lat="42.5472064" lon="12.6135847"><ele>121.57142857142856</ele><time>2026-04-08T15:37:41.982Z</time></trkpt><trkpt lat="42.5472588" lon="12.6135373"><ele>121.71428571428571</ele><time>2026-04-08T15:37:42.982Z</time></trkpt><trkpt lat="42.547313" lon="12.6134851"><ele>121.85714285714283</ele><time>2026-04-08T15:37:43.983Z</time></trkpt><trkpt lat="42.5473659" lon="12.6134382"><ele>121.99999999999999</ele><time>2026-04-08T15:37:44.983Z</time></trkpt><trkpt lat="42.5474238" lon="12.613395"><ele>121.99999999999999</ele><time>2026-04-08T15:37:45.981Z</time></trkpt><trkpt lat="42.5474805" lon="12.6133523"><ele>122.0</ele><time>2026-04-08T15:37:46.982Z</time></trkpt><trkpt lat="42.5475371" lon="12.6133082"><ele>121.99999999999999</ele><time>2026-04-08T15:37:47.981Z</time></trkpt><trkpt lat="42.5475972" lon="12.6132674"><ele>121.99999999999999</ele><time>2026-04-08T15:37:48.982Z</time></trkpt><trkpt lat="42.5476541" lon="12.6132234"><ele>122.0</ele><time>2026-04-08T15:37:49.982Z</time></trkpt><trkpt lat="42.5477122" lon="12.6131746"><ele>121.99999999999999</ele><time>2026-04-08T15:37:50.982Z</time></trkpt><trkpt lat="42.5477728" lon="12.6131249"><ele>121.99999999999999</ele><time>2026-04-08T15:37:51.981Z</time></trkpt><trkpt lat="42.5478298" lon="12.6130796"><ele>121.85714285714283</ele><time>2026-04-08T15:37:52.981Z</time></trkpt><trkpt lat="42.547889" lon="12.6130345"><ele>121.71428571428571</ele><time>2026-04-08T15:37:53.982Z</time></trkpt><trkpt lat="42.5479496" lon="12.6129886"><ele>121.57142857142856</ele><time>2026-04-08T15:37:54.981Z</time></trkpt><trkpt lat="42.5480112" lon="12.6129442"><ele>121.42857142857142</ele><time>2026-04-08T15:37:55.982Z</time></trkpt><trkpt lat="42.5480713" lon="12.6129012"><ele>121.28571428571428</ele><time>2026-04-08T15:37:56.982Z</time></trkpt><trkpt lat="42.5481316" lon="12.6128554"><ele>121.14285714285714</ele><time>2026-04-08T15:37:57.982Z</time></trkpt><trkpt lat="42.5481915" lon="12.6128114"><ele>121.0</ele><time>2026-04-08T15:37:58.983Z</time></trkpt><trkpt lat="42.5482484" lon="12.6127652"><ele>120.57142857142857</ele><time>2026-04-08T15:37:59.983Z</time></trkpt><trkpt lat="42.548307" lon="12.6127267"><ele>120.14285714285714</ele><time>2026-04-08T15:38:00.983Z</time></trkpt><trkpt lat="42.5483632" lon="12.6126848"><ele>119.71428571428571</ele><time>2026-04-08T15:38:01.982Z</time></trkpt><trkpt lat="42.5484213" lon="12.6126436"><ele>119.28571428571428</ele><time>2026-04-08T15:38:02.982Z</time></trkpt><trkpt lat="42.5484817" lon="12.6126097"><ele>118.85714285714286</ele><time>2026-04-08T15:38:03.982Z</time></trkpt><trkpt lat="42.5485386" lon="12.6125626"><ele>118.42857142857142</ele><time>2026-04-08T15:38:04.982Z</time></trkpt><trkpt lat="42.5485975" lon="12.6125234"><ele>118.0</ele><time>2026-04-08T15:38:05.982Z</time></trkpt><trkpt lat="42.5486533" lon="12.6124797"><ele>118.25</ele><time>2026-04-08T15:38:06.982Z</time></trkpt><trkpt lat="42.5487672" lon="12.6124048"><ele>118.5</ele><time>2026-04-08T15:38:08.982Z</time></trkpt><trkpt lat="42.5488786" lon="12.6123339"><ele>118.75</ele><time>2026-04-08T15:38:10.982Z</time></trkpt><trkpt lat="42.548992" lon="12.6122525"><ele>119.0</ele><time>2026-04-08T15:38:12.982Z</time></trkpt><trkpt lat="42.5491056" lon="12.6121779"><ele>119.0</ele><time>2026-04-08T15:38:14.982Z</time></trkpt><trkpt lat="42.5492048" lon="12.6121068"><ele>119.0</ele><time>2026-04-08T15:38:16.981Z</time></trkpt><trkpt lat="42.5493128" lon="12.6120453"><ele>119.0</ele><time>2026-04-08T15:38:18.982Z</time></trkpt><trkpt lat="42.5494099" lon="12.6119792"><ele>119.0</ele><time>2026-04-08T15:38:20.982Z</time></trkpt><trkpt lat="42.5495023" lon="12.6119171"><ele>119.0</ele><time>2026-04-08T15:38:22.982Z</time></trkpt><trkpt lat="42.5495898" lon="12.6118647"><ele>118.0</ele><time>2026-04-08T15:38:24.983Z</time></trkpt><trkpt lat="42.5496563" lon="12.6118291"><ele>118.0</ele><time>2026-04-08T15:38:26.982Z</time></trkpt><trkpt lat="42.5496917" lon="12.611757"><ele>118.0</ele><time>2026-04-08T15:39:16.981Z</time></trkpt><trkpt lat="42.5497579" lon="12.6117045"><ele>118.0</ele><time>2026-04-08T15:39:19.982Z</time></trkpt><trkpt lat="42.5498175" lon="12.6116423"><ele>118.0</ele><time>2026-04-08T15:39:21.982Z</time></trkpt><trkpt lat="42.5498832" lon="12.6115706"><ele>118.0</ele><time>2026-04-08T15:39:23.982Z</time></trkpt></trkseg><trkseg><trkpt lat="42.5524057" lon="12.6099357"><ele>115.00000000000001</ele><time>2026-04-08T15:41:48.981Z</time></trkpt><trkpt lat="42.5524857" lon="12.6099112"><ele>115.0</ele><time>2026-04-08T15:41:51.982Z</time></trkpt><trkpt lat="42.5525808" lon="12.6098784"><ele>115.0</ele><time>2026-04-08T15:41:54.982Z</time></trkpt><trkpt lat="42.5526592" lon="12.6098656"><ele>115.0</ele><time>2026-04-08T15:41:56.982Z</time></trkpt><trkpt lat="42.5527458" lon="12.6098379"><ele>115.00000000000001</ele><time>2026-04-08T15:41:58.982Z</time></trkpt><trkpt lat="42.5528378" lon="12.6097999"><ele>115.0</ele><time>2026-04-08T15:42:00.982Z</time></trkpt><trkpt lat="42.5529321" lon="12.6097616"><ele>115.6</ele><time>2026-04-08T15:42:02.982Z</time></trkpt><trkpt lat="42.5530381" lon="12.6097201"><ele>116.2</ele><time>2026-04-08T15:42:04.982Z</time></trkpt><trkpt lat="42.5531347" lon="12.6096684"><ele>116.80000000000001</ele><time>2026-04-08T15:42:06.982Z</time></trkpt><trkpt lat="42.5532477" lon="12.6096239"><ele>117.4</ele><time>2026-04-08T15:42:08.982Z</time></trkpt><trkpt lat="42.5533568" lon="12.6095694"><ele>118.0</ele><time>2026-04-08T15:42:10.981Z</time></trkpt><trkpt lat="42.5534181" lon="12.609547"><ele>118.00000000000001</ele><time>2026-04-08T15:42:11.982Z</time></trkpt><trkpt lat="42.5535371" lon="12.6095214"><ele>118.0</ele><time>2026-04-08T15:42:13.982Z</time></trkpt><trkpt lat="42.5536006" lon="12.6095048"><ele>118.0</ele><time>2026-04-08T15:42:14.981Z</time></trkpt><trkpt lat="42.5536617" lon="12.6094767"><ele>118.0</ele><time>2026-04-08T15:42:15.981Z</time></trkpt><trkpt lat="42.5537256" lon="12.6094631"><ele>118.00000000000001</ele><time>2026-04-08T15:42:16.981Z</time></trkpt><trkpt lat="42.5538446" lon="12.6094418"><ele>118.0</ele><time>2026-04-08T15:42:18.981Z</time></trkpt><trkpt lat="42.5539083" lon="12.6094236"><ele>117.33333333333334</ele><time>2026-04-08T15:42:19.98Z</time></trkpt><trkpt lat="42.5539721" lon="12.6094093"><ele>116.66666666666667</ele><time>2026-04-08T15:42:20.98Z</time></trkpt><trkpt lat="42.5540372" lon="12.6093943"><ele>116.0</ele><time>2026-04-08T15:42:21.982Z</time></trkpt><trkpt lat="42.5541006" lon="12.6093902"><ele>115.33333333333334</ele><time>2026-04-08T15:42:22.982Z</time></trkpt><trkpt lat="42.5542211" lon="12.6093787"><ele>114.66666666666667</ele><time>2026-04-08T15:42:24.981Z</time></trkpt><trkpt lat="42.5542844" lon="12.6093789"><ele>114.0</ele><time>2026-04-08T15:42:25.982Z</time></trkpt><trkpt lat="42.5543555" lon="12.6093882"><ele>114.0</ele><time>2026-04-08T15:42:26.98Z</time></trkpt><trkpt lat="42.5544217" lon="12.6093872"><ele>114.0</ele><time>2026-04-08T15:42:27.982Z</time></trkpt><trkpt lat="42.5545487" lon="12.6093878"><ele>114.0</ele><time>2026-04-08T15:42:29.981Z</time></trkpt><trkpt lat="42.5546815" lon="12.6093951"><ele>114.0</ele><time>2026-04-08T15:42:31.982Z</time></trkpt><trkpt lat="42.5547481" lon="12.6094006"><ele>114.0</ele><time>2026-04-08T15:42:32.981Z</time></trkpt><trkpt lat="42.5548203" lon="12.6094021"><ele>113.85714285714285</ele><time>2026-04-08T15:42:33.981Z</time></trkpt><trkpt lat="42.5548865" lon="12.6094071"><ele>113.7142857142857</ele><time>2026-04-08T15:42:34.982Z</time></trkpt><trkpt lat="42.5549533" lon="12.6094122"><ele>113.57142857142857</ele><time>2026-04-08T15:42:35.981Z</time></trkpt><trkpt lat="42.5550224" lon="12.6094179"><ele>113.42857142857142</ele><time>2026-04-08T15:42:36.982Z</time></trkpt><trkpt lat="42.5550919" lon="12.6094247"><ele>113.28571428571428</ele><time>2026-04-08T15:42:37.982Z</time></trkpt><trkpt lat="42.5551616" lon="12.6094235"><ele>113.14285714285714</ele><time>2026-04-08T15:42:38.982Z</time></trkpt><trkpt lat="42.5552301" lon="12.6094271"><ele>113.0</ele><time>2026-04-08T15:42:39.982Z</time></trkpt><trkpt lat="42.5552993" lon="12.6094448"><ele>112.99999999999999</ele><time>2026-04-08T15:42:40.982Z</time></trkpt><trkpt lat="42.555433" lon="12.609455"><ele>113.0</ele><time>2026-04-08T15:42:42.982Z</time></trkpt><trkpt lat="42.5555074" lon="12.6094576"><ele>113.0</ele><time>2026-04-08T15:42:43.982Z</time></trkpt><trkpt lat="42.5555822" lon="12.6094627"><ele>113.0</ele><time>2026-04-08T15:42:44.981Z</time></trkpt><trkpt lat="42.5556526" lon="12.6094603"><ele>112.99999999999999</ele><time>2026-04-08T15:42:45.982Z</time></trkpt><trkpt lat="42.5557209" lon="12.6094617"><ele>113.0</ele><time>2026-04-08T15:42:46.981Z</time></trkpt><trkpt lat="42.5557916" lon="12.6094629"><ele>113.0</ele><time>2026-04-08T15:42:47.982Z</time></trkpt><trkpt lat="42.5558577" lon="12.6094669"><ele>113.0</ele><time>2026-04-08T15:42:48.982Z</time></trkpt><trkpt lat="42.5559251" lon="12.6094713"><ele>113.0</ele><time>2026-04-08T15:42:49.982Z</time></trkpt><trkpt lat="42.5559946" lon="12.6094786"><ele>113.0</ele><time>2026-04-08T15:42:50.98Z</time></trkpt><trkpt lat="42.5560619" lon="12.6094823"><ele>113.0</ele><time>2026-04-08T15:42:51.982Z</time></trkpt><trkpt lat="42.556127" lon="12.6094913"><ele>113.0</ele><time>2026-04-08T15:42:52.981Z</time></trkpt><trkpt lat="42.5561934" lon="12.609497"><ele>113.0</ele><time>2026-04-08T15:42:53.982Z</time></trkpt><trkpt lat="42.5562565" lon="12.6094999"><ele>112.71428571428572</ele><time>2026-04-08T15:42:54.982Z</time></trkpt><trkpt lat="42.5563197" lon="12.6095042"><ele>112.42857142857142</ele><time>2026-04-08T15:42:55.982Z</time></trkpt><trkpt lat="42.5563848" lon="12.6095055"><ele>112.14285714285714</ele><time>2026-04-08T15:42:56.981Z</time></trkpt><trkpt lat="42.5564484" lon="12.6095064"><ele>111.85714285714286</ele><time>2026-04-08T15:42:57.981Z</time></trkpt><trkpt lat="42.5565175" lon="12.6095085"><ele>111.57142857142858</ele><time>2026-04-08T15:42:58.981Z</time></trkpt><trkpt lat="42.5565848" lon="12.6095101"><ele>111.28571428571428</ele><time>2026-04-08T15:42:59.982Z</time></trkpt><trkpt lat="42.5566498" lon="12.6095102"><ele>111.0</ele><time>2026-04-08T15:43:00.982Z</time></trkpt><trkpt lat="42.5567164" lon="12.6095146"><ele>111.0</ele><time>2026-04-08T15:43:01.982Z</time></trkpt><trkpt lat="42.5568264" lon="12.6095338"><ele>111.0</ele><time>2026-04-08T15:43:03.981Z</time></trkpt><trkpt lat="42.5569212" lon="12.6095102"><ele>111.0</ele><time>2026-04-08T15:43:05.982Z</time></trkpt><trkpt lat="42.5569685" lon="12.6094369"><ele>111.0</ele><time>2026-04-08T15:43:07.982Z</time></trkpt><trkpt lat="42.5570018" lon="12.609332"><ele>111.0</ele><time>2026-04-08T15:43:09.981Z</time></trkpt><trkpt lat="42.5570211" lon="12.6091995"><ele>111.0</ele><time>2026-04-08T15:43:11.982Z</time></trkpt><trkpt lat="42.5570346" lon="12.6090676"><ele>111.0</ele><time>2026-04-08T15:43:13.981Z</time></trkpt><trkpt lat="42.5570564" lon="12.6089209"><ele>111.0</ele><time>2026-04-08T15:43:15.981Z</time></trkpt><trkpt lat="42.5570622" lon="12.6087753"><ele>111.0</ele><time>2026-04-08T15:43:17.982Z</time></trkpt><trkpt lat="42.5570709" lon="12.6086288"><ele>111.0</ele><time>2026-04-08T15:43:19.982Z</time></trkpt><trkpt lat="42.5570776" lon="12.6085032"><ele>111.0</ele><time>2026-04-08T15:43:21.982Z</time></trkpt><trkpt lat="42.5571033" lon="12.6083998"><ele>111.0</ele><time>2026-04-08T15:43:23.982Z</time></trkpt><trkpt lat="42.5571295" lon="12.6082916"><ele>111.0</ele><time>2026-04-08T15:43:25.981Z</time></trkpt><trkpt lat="42.5571602" lon="12.6081763"><ele>111.0</ele><time>2026-04-08T15:43:27.981Z</time></trkpt><trkpt lat="42.5572262" lon="12.6081101"><ele>111.0</ele><time>2026-04-08T15:43:29.981Z</time></trkpt><trkpt lat="42.5573025" lon="12.608155"><ele>111.0</ele><time>2026-04-08T15:43:31.982Z</time></trkpt><trkpt lat="42.5573904" lon="12.6082129"><ele>111.0</ele><time>2026-04-08T15:43:33.982Z</time></trkpt><trkpt lat="42.5574803" lon="12.6082909"><ele>111.0</ele><time>2026-04-08T15:43:35.982Z</time></trkpt><trkpt lat="42.5575756" lon="12.6083447"><ele>111.0</ele><time>2026-04-08T15:43:37.98Z</time></trkpt><trkpt lat="42.5576684" lon="12.6083882"><ele>111.0</ele><time>2026-04-08T15:43:39.982Z</time></trkpt><trkpt lat="42.5577504" lon="12.6084378"><ele>111.0</ele><time>2026-04-08T15:43:41.982Z</time></trkpt><trkpt lat="42.5578336" lon="12.6084734"><ele>111.6</ele><time>2026-04-08T15:43:43.981Z</time></trkpt><trkpt lat="42.5579153" lon="12.6085165"><ele>112.19999999999999</ele><time>2026-04-08T15:43:45.982Z</time></trkpt><trkpt lat="42.5580016" lon="12.6085666"><ele>112.80000000000001</ele><time>2026-04-08T15:43:47.981Z</time></trkpt><trkpt lat="42.5580931" lon="12.6086155"><ele>113.4</ele><time>2026-04-08T15:43:49.982Z</time></trkpt><trkpt lat="42.5581839" lon="12.6086647"><ele>114.0</ele><time>2026-04-08T15:43:51.982Z</time></trkpt><trkpt lat="42.5582787" lon="12.608717"><ele>114.0</ele><time>2026-04-08T15:43:53.981Z</time></trkpt><trkpt lat="42.5583702" lon="12.6087512"><ele>114.0</ele><time>2026-04-08T15:43:55.982Z</time></trkpt><trkpt lat="42.5584546" lon="12.6087285"><ele>114.0</ele><time>2026-04-08T15:43:57.982Z</time></trkpt><trkpt lat="42.5584922" lon="12.6086354"><ele>114.0</ele><time>2026-04-08T15:43:59.981Z</time></trkpt><trkpt lat="42.5584859" lon="12.6085146"><ele>114.0</ele><time>2026-04-08T15:44:01.981Z</time></trkpt><trkpt lat="42.5584768" lon="12.6083971"><ele>114.0</ele><time>2026-04-08T15:44:03.982Z</time></trkpt><trkpt lat="42.5584679" lon="12.608263"><ele>114.0</ele><time>2026-04-08T15:44:05.981Z</time></trkpt><trkpt lat="42.558453" lon="12.6081427"><ele>114.0</ele><time>2026-04-08T15:44:07.982Z</time></trkpt><trkpt lat="42.5584498" lon="12.6080124"><ele>114.0</ele><time>2026-04-08T15:44:09.982Z</time></trkpt><trkpt lat="42.5584347" lon="12.6078634"><ele>114.0</ele><time>2026-04-08T15:44:11.982Z</time></trkpt><trkpt lat="42.5584243" lon="12.6077322"><ele>114.0</ele><time>2026-04-08T15:44:13.98Z</time></trkpt><trkpt lat="42.5584085" lon="12.6075856"><ele>113.6</ele><time>2026-04-08T15:44:15.981Z</time></trkpt><trkpt lat="42.5584058" lon="12.6074544"><ele>113.2</ele><time>2026-04-08T15:44:17.981Z</time></trkpt><trkpt lat="42.558418" lon="12.607321"><ele>112.79999999999998</ele><time>2026-04-08T15:44:19.981Z</time></trkpt><trkpt lat="42.5584576" lon="12.6071958"><ele>112.39999999999999</ele><time>2026-04-08T15:44:21.981Z</time></trkpt><trkpt lat="42.558537" lon="12.6071157"><ele>112.0</ele><time>2026-04-08T15:44:23.982Z</time></trkpt><trkpt lat="42.5586251" lon="12.6070571"><ele>112.19999999999999</ele><time>2026-04-08T15:44:25.98Z</time></trkpt><trkpt lat="42.5587201" lon="12.6070231"><ele>112.39999999999999</ele><time>2026-04-08T15:44:27.982Z</time></trkpt><trkpt lat="42.5588172" lon="12.6069972"><ele>112.60000000000001</ele><time>2026-04-08T15:44:29.982Z</time></trkpt><trkpt lat="42.5589038" lon="12.6069467"><ele>112.80000000000001</ele><time>2026-04-08T15:44:31.981Z</time></trkpt><trkpt lat="42.5589588" lon="12.6068444"><ele>113.0</ele><time>2026-04-08T15:44:33.981Z</time></trkpt><trkpt lat="42.5589604" lon="12.606709"><ele>113.0</ele><time>2026-04-08T15:44:35.981Z</time></trkpt><trkpt lat="42.5589434" lon="12.6065989"><ele>113.00000000000001</ele><time>2026-04-08T15:44:37.981Z</time></trkpt><trkpt lat="42.5589295" lon="12.6064648"><ele>113.00000000000001</ele><time>2026-04-08T15:44:39.982Z</time></trkpt><trkpt lat="42.558923" lon="12.6063167"><ele>113.0</ele><time>2026-04-08T15:44:41.981Z</time></trkpt><trkpt lat="42.5589185" lon="12.6061745"><ele>113.0</ele><time>2026-04-08T15:44:43.981Z</time></trkpt><trkpt lat="42.5589678" lon="12.606043"><ele>112.4</ele><time>2026-04-08T15:44:45.981Z</time></trkpt><trkpt lat="42.5590426" lon="12.6059353"><ele>111.80000000000001</ele><time>2026-04-08T15:44:47.98Z</time></trkpt><trkpt lat="42.5591428" lon="12.6058898"><ele>111.2</ele><time>2026-04-08T15:44:49.982Z</time></trkpt><trkpt lat="42.5592527" lon="12.6058703"><ele>110.6</ele><time>2026-04-08T15:44:51.981Z</time></trkpt><trkpt lat="42.5593662" lon="12.6058406"><ele>110.0</ele><time>2026-04-08T15:44:53.981Z</time></trkpt><trkpt lat="42.5594745" lon="12.6057896"><ele>109.0</ele><time>2026-04-08T15:44:55.981Z</time></trkpt><trkpt lat="42.5595795" lon="12.6057211"><ele>108.0</ele><time>2026-04-08T15:44:57.982Z</time></trkpt><trkpt lat="42.5596797" lon="12.605645"><ele>107.0</ele><time>2026-04-08T15:44:59.981Z</time></trkpt><trkpt lat="42.5597781" lon="12.6055551"><ele>106.0</ele><time>2026-04-08T15:45:01.981Z</time></trkpt><trkpt lat="42.5598721" lon="12.6054581"><ele>106.0</ele><time>2026-04-08T15:45:03.981Z</time></trkpt><trkpt lat="42.5599641" lon="12.6053672"><ele>106.0</ele><time>2026-04-08T15:45:05.98Z</time></trkpt><trkpt lat="42.560053" lon="12.6052839"><ele>106.0</ele><time>2026-04-08T15:45:07.981Z</time></trkpt><trkpt lat="42.5601602" lon="12.6052259"><ele>106.0</ele><time>2026-04-08T15:45:09.981Z</time></trkpt><trkpt lat="42.5602676" lon="12.6051834"><ele>106.0</ele><time>2026-04-08T15:45:11.981Z</time></trkpt><trkpt lat="42.5603849" lon="12.6051543"><ele>106.4</ele><time>2026-04-08T15:45:13.981Z</time></trkpt><trkpt lat="42.5604988" lon="12.6051447"><ele>106.8</ele><time>2026-04-08T15:45:15.981Z</time></trkpt><trkpt lat="42.5606118" lon="12.6051407"><ele>107.20000000000002</ele><time>2026-04-08T15:45:17.981Z</time></trkpt><trkpt lat="42.5607229" lon="12.6051328"><ele>107.60000000000001</ele><time>2026-04-08T15:45:19.981Z</time></trkpt><trkpt lat="42.5608335" lon="12.6051309"><ele>108.0</ele><time>2026-04-08T15:45:21.982Z</time></trkpt><trkpt lat="42.5609416" lon="12.6051314"><ele>108.0</ele><time>2026-04-08T15:45:23.982Z</time></trkpt><trkpt lat="42.5610493" lon="12.6051316"><ele>108.00000000000001</ele><time>2026-04-08T15:45:25.981Z</time></trkpt><trkpt lat="42.5611561" lon="12.6051322"><ele>108.00000000000001</ele><time>2026-04-08T15:45:27.98Z</time></trkpt><trkpt lat="42.561271" lon="12.6051244"><ele>108.0</ele><time>2026-04-08T15:45:29.98Z</time></trkpt><trkpt lat="42.5613792" lon="12.6051327"><ele>108.0</ele><time>2026-04-08T15:45:31.981Z</time></trkpt><trkpt lat="42.561494" lon="12.605133"><ele>107.60000000000001</ele><time>2026-04-08T15:45:33.981Z</time></trkpt><trkpt lat="42.5616103" lon="12.6051327"><ele>107.20000000000002</ele><time>2026-04-08T15:45:35.981Z</time></trkpt><trkpt lat="42.5616737" lon="12.6051392"><ele>106.8</ele><time>2026-04-08T15:45:36.981Z</time></trkpt><trkpt lat="42.5618047" lon="12.6051351"><ele>106.4</ele><time>2026-04-08T15:45:38.981Z</time></trkpt><trkpt lat="42.5618853" lon="12.6051382"><ele>106.0</ele><time>2026-04-08T15:45:39.982Z</time></trkpt><trkpt lat="42.5619554" lon="12.6051371"><ele>106.33333333333334</ele><time>2026-04-08T15:45:40.981Z</time></trkpt><trkpt lat="42.562033" lon="12.6051355"><ele>106.66666666666667</ele><time>2026-04-08T15:45:41.982Z</time></trkpt><trkpt lat="42.5621066" lon="12.6051279"><ele>107.0</ele><time>2026-04-08T15:45:42.982Z</time></trkpt><trkpt lat="42.5621877" lon="12.6051253"><ele>107.33333333333334</ele><time>2026-04-08T15:45:43.982Z</time></trkpt><trkpt lat="42.5622662" lon="12.6051252"><ele>107.66666666666667</ele><time>2026-04-08T15:45:44.981Z</time></trkpt><trkpt lat="42.562338" lon="12.6051193"><ele>108.0</ele><time>2026-04-08T15:45:45.981Z</time></trkpt><trkpt lat="42.5624115" lon="12.6051216"><ele>108.0</ele><time>2026-04-08T15:45:46.981Z</time></trkpt><trkpt lat="42.562489" lon="12.6051127"><ele>108.0</ele><time>2026-04-08T15:45:47.98Z</time></trkpt><trkpt lat="42.5625626" lon="12.6051181"><ele>108.0</ele><time>2026-04-08T15:45:48.981Z</time></trkpt><trkpt lat="42.5626357" lon="12.6051185"><ele>108.0</ele><time>2026-04-08T15:45:49.982Z</time></trkpt><trkpt lat="42.5627085" lon="12.6051158"><ele>108.0</ele><time>2026-04-08T15:45:50.981Z</time></trkpt><trkpt lat="42.562783" lon="12.6051114"><ele>108.0</ele><time>2026-04-08T15:45:51.981Z</time></trkpt><trkpt lat="42.5628578" lon="12.6051063"><ele>108.0</ele><time>2026-04-08T15:45:52.981Z</time></trkpt><trkpt lat="42.5629252" lon="12.6051028"><ele>108.2</ele><time>2026-04-08T15:45:53.981Z</time></trkpt><trkpt lat="42.5629935" lon="12.6050971"><ele>108.4</ele><time>2026-04-08T15:45:54.981Z</time></trkpt><trkpt lat="42.5630575" lon="12.6050969"><ele>108.60000000000001</ele><time>2026-04-08T15:45:55.981Z</time></trkpt><trkpt lat="42.5631669" lon="12.6051086"><ele>108.80000000000001</ele><time>2026-04-08T15:45:57.981Z</time></trkpt><trkpt lat="42.5632833" lon="12.6051111"><ele>109.0</ele><time>2026-04-08T15:45:59.981Z</time></trkpt><trkpt lat="42.563392" lon="12.6051112"><ele>109.0</ele><time>2026-04-08T15:46:01.981Z</time></trkpt><trkpt lat="42.5634971" lon="12.605113"><ele>109.0</ele><time>2026-04-08T15:46:03.981Z</time></trkpt><trkpt lat="42.5636089" lon="12.6050935"><ele>109.0</ele><time>2026-04-08T15:46:05.981Z</time></trkpt><trkpt lat="42.5637157" lon="12.6050748"><ele>109.0</ele><time>2026-04-08T15:46:07.981Z</time></trkpt><trkpt lat="42.5638296" lon="12.6050611"><ele>109.0</ele><time>2026-04-08T15:46:09.981Z</time></trkpt><trkpt lat="42.5639395" lon="12.6050519"><ele>109.0</ele><time>2026-04-08T15:46:11.982Z</time></trkpt><trkpt lat="42.5640516" lon="12.6050553"><ele>109.0</ele><time>2026-04-08T15:46:13.981Z</time></trkpt><trkpt lat="42.5641637" lon="12.6050515"><ele>109.0</ele><time>2026-04-08T15:46:15.981Z</time></trkpt><trkpt lat="42.5642846" lon="12.60505"><ele>109.0</ele><time>2026-04-08T15:46:17.981Z</time></trkpt><trkpt lat="42.5644093" lon="12.6050487"><ele>108.75</ele><time>2026-04-08T15:46:19.981Z</time></trkpt><trkpt lat="42.564534" lon="12.6050486"><ele>108.5</ele><time>2026-04-08T15:46:21.98Z</time></trkpt><trkpt lat="42.5646609" lon="12.6050381"><ele>108.25</ele><time>2026-04-08T15:46:23.982Z</time></trkpt><trkpt lat="42.5647854" lon="12.6050417"><ele>108.0</ele><time>2026-04-08T15:46:25.981Z</time></trkpt><trkpt lat="42.5649029" lon="12.6050424"><ele>108.0</ele><time>2026-04-08T15:46:27.981Z</time></trkpt><trkpt lat="42.5650288" lon="12.6050363"><ele>108.00000000000001</ele><time>2026-04-08T15:46:29.981Z</time></trkpt><trkpt lat="42.5651594" lon="12.6050327"><ele>108.00000000000001</ele><time>2026-04-08T15:46:31.981Z</time></trkpt><trkpt lat="42.5652253" lon="12.6050276"><ele>108.0</ele><time>2026-04-08T15:46:32.981Z</time></trkpt><trkpt lat="42.5653495" lon="12.6050243"><ele>108.0</ele><time>2026-04-08T15:46:34.981Z</time></trkpt><trkpt lat="42.5654141" lon="12.605023"><ele>108.2</ele><time>2026-04-08T15:46:35.981Z</time></trkpt><trkpt lat="42.5655383" lon="12.6050257"><ele>108.4</ele><time>2026-04-08T15:46:37.981Z</time></trkpt><trkpt lat="42.5656633" lon="12.6050226"><ele>108.60000000000001</ele><time>2026-04-08T15:46:39.98Z</time></trkpt><trkpt lat="42.5657272" lon="12.6050213"><ele>108.80000000000001</ele><time>2026-04-08T15:46:40.982Z</time></trkpt><trkpt lat="42.5658549" lon="12.6050255"><ele>109.0</ele><time>2026-04-08T15:46:42.981Z</time></trkpt><trkpt lat="42.5659173" lon="12.6050413"><ele>109.0</ele><time>2026-04-08T15:46:43.982Z</time></trkpt><trkpt lat="42.5660374" lon="12.6050876"><ele>109.0</ele><time>2026-04-08T15:46:45.981Z</time></trkpt><trkpt lat="42.566149" lon="12.6051589"><ele>109.0</ele><time>2026-04-08T15:46:47.981Z</time></trkpt><trkpt lat="42.5662485" lon="12.6052528"><ele>109.0</ele><time>2026-04-08T15:46:49.98Z</time></trkpt><trkpt lat="42.5663563" lon="12.6053504"><ele>108.83333333333334</ele><time>2026-04-08T15:46:51.981Z</time></trkpt><trkpt lat="42.5664099" lon="12.6054062"><ele>108.66666666666667</ele><time>2026-04-08T15:46:52.981Z</time></trkpt><trkpt lat="42.5664572" lon="12.6054645"><ele>108.5</ele><time>2026-04-08T15:46:53.982Z</time></trkpt><trkpt lat="42.5665263" lon="12.6055642"><ele>108.33333333333334</ele><time>2026-04-08T15:46:55.981Z</time></trkpt><trkpt lat="42.5665756" lon="12.6056403"><ele>108.16666666666667</ele><time>2026-04-08T15:46:58.982Z</time></trkpt><trkpt lat="42.5666349" lon="12.6057268"><ele>108.0</ele><time>2026-04-08T15:47:01.981Z</time></trkpt><trkpt lat="42.5667051" lon="12.6057896"><ele>108.0</ele><time>2026-04-08T15:47:03.981Z</time></trkpt><trkpt lat="42.5667967" lon="12.6057795"><ele>108.00000000000001</ele><time>2026-04-08T15:47:05.981Z</time></trkpt><trkpt lat="42.5668893" lon="12.6056675"><ele>108.00000000000001</ele><time>2026-04-08T15:47:07.981Z</time></trkpt><trkpt lat="42.5669411" lon="12.6055198"><ele>108.0</ele><time>2026-04-08T15:47:09.981Z</time></trkpt><trkpt lat="42.5669653" lon="12.6053735"><ele>108.0</ele><time>2026-04-08T15:47:11.981Z</time></trkpt><trkpt lat="42.5669913" lon="12.605211"><ele>108.4</ele><time>2026-04-08T15:47:13.981Z</time></trkpt><trkpt lat="42.5670051" lon="12.6051234"><ele>108.80000000000001</ele><time>2026-04-08T15:47:14.981Z</time></trkpt><trkpt lat="42.5670416" lon="12.6049626"><ele>109.2</ele><time>2026-04-08T15:47:16.981Z</time></trkpt><trkpt lat="42.5670738" lon="12.6048232"><ele>109.6</ele><time>2026-04-08T15:47:18.981Z</time></trkpt><trkpt lat="42.5671138" lon="12.604686"><ele>110.0</ele><time>2026-04-08T15:47:20.981Z</time></trkpt><trkpt lat="42.5671448" lon="12.6045533"><ele>109.4</ele><time>2026-04-08T15:47:22.981Z</time></trkpt><trkpt lat="42.5671783" lon="12.6044145"><ele>108.8</ele><time>2026-04-08T15:47:24.981Z</time></trkpt><trkpt lat="42.5672174" lon="12.6042757"><ele>108.19999999999999</ele><time>2026-04-08T15:47:26.98Z</time></trkpt><trkpt lat="42.5672533" lon="12.6041393"><ele>107.6</ele><time>2026-04-08T15:47:28.981Z</time></trkpt><trkpt lat="42.5672886" lon="12.6040031"><ele>107.0</ele><time>2026-04-08T15:47:30.981Z</time></trkpt><trkpt lat="42.5673259" lon="12.6038737"><ele>107.0</ele><time>2026-04-08T15:47:32.981Z</time></trkpt><trkpt lat="42.5673587" lon="12.6037466"><ele>106.99999999999999</ele><time>2026-04-08T15:47:34.981Z</time></trkpt><trkpt lat="42.5673878" lon="12.6036224"><ele>106.99999999999999</ele><time>2026-04-08T15:47:36.981Z</time></trkpt><trkpt lat="42.5674238" lon="12.6034856"><ele>107.0</ele><time>2026-04-08T15:47:38.981Z</time></trkpt><trkpt lat="42.5674557" lon="12.6033482"><ele>107.0</ele><time>2026-04-08T15:47:40.981Z</time></trkpt><trkpt lat="42.5674892" lon="12.6032209"><ele>107.0</ele><time>2026-04-08T15:47:42.981Z</time></trkpt><trkpt lat="42.5675216" lon="12.603081"><ele>106.99999999999999</ele><time>2026-04-08T15:47:44.982Z</time></trkpt><trkpt lat="42.5675541" lon="12.6029414"><ele>106.99999999999999</ele><time>2026-04-08T15:47:46.981Z</time></trkpt><trkpt lat="42.5675812" lon="12.6027946"><ele>107.0</ele><time>2026-04-08T15:47:48.981Z</time></trkpt><trkpt lat="42.5676051" lon="12.6026528"><ele>107.0</ele><time>2026-04-08T15:47:50.98Z</time></trkpt><trkpt lat="42.5676285" lon="12.6025056"><ele>107.0</ele><time>2026-04-08T15:47:52.981Z</time></trkpt><trkpt lat="42.5676543" lon="12.6023622"><ele>106.99999999999999</ele><time>2026-04-08T15:47:54.981Z</time></trkpt><trkpt lat="42.5676691" lon="12.6022163"><ele>106.99999999999999</ele><time>2026-04-08T15:47:56.981Z</time></trkpt><trkpt lat="42.5676857" lon="12.6020628"><ele>107.0</ele><time>2026-04-08T15:47:58.981Z</time></trkpt><trkpt lat="42.5676989" lon="12.6019101"><ele>107.0</ele><time>2026-04-08T15:48:00.981Z</time></trkpt><trkpt lat="42.5677083" lon="12.6017441"><ele>106.8</ele><time>2026-04-08T15:48:02.981Z</time></trkpt><trkpt lat="42.5677122" lon="12.6015979"><ele>106.6</ele><time>2026-04-08T15:48:04.982Z</time></trkpt><trkpt lat="42.5677137" lon="12.6014523"><ele>106.39999999999999</ele><time>2026-04-08T15:48:06.982Z</time></trkpt><trkpt lat="42.5677124" lon="12.6013067"><ele>106.19999999999999</ele><time>2026-04-08T15:48:08.981Z</time></trkpt><trkpt lat="42.5677119" lon="12.6011589"><ele>106.0</ele><time>2026-04-08T15:48:10.981Z</time></trkpt><trkpt lat="42.5677097" lon="12.6010159"><ele>106.0</ele><time>2026-04-08T15:48:12.981Z</time></trkpt><trkpt lat="42.567696" lon="12.6008678"><ele>106.0</ele><time>2026-04-08T15:48:14.981Z</time></trkpt><trkpt lat="42.567686" lon="12.6007278"><ele>106.0</ele><time>2026-04-08T15:48:16.982Z</time></trkpt><trkpt lat="42.5676774" lon="12.6005767"><ele>106.0</ele><time>2026-04-08T15:48:18.981Z</time></trkpt><trkpt lat="42.5676641" lon="12.6004334"><ele>106.0</ele><time>2026-04-08T15:48:20.981Z</time></trkpt><trkpt lat="42.567646" lon="12.6002898"><ele>105.8</ele><time>2026-04-08T15:48:22.981Z</time></trkpt><trkpt lat="42.5676256" lon="12.6001418"><ele>105.6</ele><time>2026-04-08T15:48:24.981Z</time></trkpt><trkpt lat="42.5676026" lon="12.6000033"><ele>105.4</ele><time>2026-04-08T15:48:26.982Z</time></trkpt><trkpt lat="42.5675794" lon="12.59987"><ele>105.2</ele><time>2026-04-08T15:48:28.981Z</time></trkpt><trkpt lat="42.567555" lon="12.5997324"><ele>105.0</ele><time>2026-04-08T15:48:30.981Z</time></trkpt><trkpt lat="42.5675304" lon="12.5995977"><ele>105.2</ele><time>2026-04-08T15:48:32.981Z</time></trkpt><trkpt lat="42.5675025" lon="12.5994689"><ele>105.4</ele><time>2026-04-08T15:48:34.981Z</time></trkpt><trkpt lat="42.5674754" lon="12.5993287"><ele>105.6</ele><time>2026-04-08T15:48:36.981Z</time></trkpt><trkpt lat="42.5674433" lon="12.599192"><ele>105.8</ele><time>2026-04-08T15:48:38.981Z</time></trkpt><trkpt lat="42.5674078" lon="12.5990658"><ele>106.0</ele><time>2026-04-08T15:48:40.981Z</time></trkpt><trkpt lat="42.5673732" lon="12.5989287"><ele>106.0</ele><time>2026-04-08T15:48:42.98Z</time></trkpt><trkpt lat="42.5673316" lon="12.5988023"><ele>106.0</ele><time>2026-04-08T15:48:44.981Z</time></trkpt><trkpt lat="42.5672872" lon="12.5986723"><ele>106.0</ele><time>2026-04-08T15:48:46.981Z</time></trkpt><trkpt lat="42.5672398" lon="12.5985489"><ele>106.0</ele><time>2026-04-08T15:48:48.981Z</time></trkpt><trkpt lat="42.5671898" lon="12.5984161"><ele>106.0</ele><time>2026-04-08T15:48:50.982Z</time></trkpt><trkpt lat="42.5671479" lon="12.5982908"><ele>106.0</ele><time>2026-04-08T15:48:52.981Z</time></trkpt><trkpt lat="42.5671295" lon="12.5981582"><ele>106.0</ele><time>2026-04-08T15:48:54.98Z</time></trkpt><trkpt lat="42.5671624" lon="12.5980287"><ele>106.0</ele><time>2026-04-08T15:48:56.981Z</time></trkpt><trkpt lat="42.5672128" lon="12.597917"><ele>106.0</ele><time>2026-04-08T15:48:58.981Z</time></trkpt><trkpt lat="42.5672928" lon="12.5978585"><ele>106.0</ele><time>2026-04-08T15:49:00.981Z</time></trkpt><trkpt lat="42.5673794" lon="12.5978173"><ele>106.16666666666667</ele><time>2026-04-08T15:49:02.981Z</time></trkpt><trkpt lat="42.5674672" lon="12.5977845"><ele>106.33333333333334</ele><time>2026-04-08T15:49:04.981Z</time></trkpt><trkpt lat="42.5675379" lon="12.5977561"><ele>106.5</ele><time>2026-04-08T15:49:06.981Z</time></trkpt><trkpt lat="42.567624" lon="12.5977299"><ele>106.66666666666666</ele><time>2026-04-08T15:49:09.982Z</time></trkpt><trkpt lat="42.5677071" lon="12.5977083"><ele>106.83333333333333</ele><time>2026-04-08T15:49:12.981Z</time></trkpt><trkpt lat="42.5677917" lon="12.5976891"><ele>107.0</ele><time>2026-04-08T15:49:15.981Z</time></trkpt><trkpt lat="42.5678799" lon="12.5976739"><ele>107.66666666666666</ele><time>2026-04-08T15:49:18.981Z</time></trkpt><trkpt lat="42.5679732" lon="12.5976605"><ele>108.33333333333333</ele><time>2026-04-08T15:49:21.98Z</time></trkpt><trkpt lat="42.5680669" lon="12.5976549"><ele>109.0</ele><time>2026-04-08T15:49:24.981Z</time></trkpt><trkpt lat="42.5681569" lon="12.5976454"><ele>109.66666666666666</ele><time>2026-04-08T15:49:27.981Z</time></trkpt><trkpt lat="42.568242" lon="12.5976383"><ele>110.33333333333333</ele><time>2026-04-08T15:49:30.981Z</time></trkpt><trkpt lat="42.5683231" lon="12.597636"><ele>111.0</ele><time>2026-04-08T15:49:33.98Z</time></trkpt><trkpt lat="42.5683984" lon="12.5976329"><ele>111.0</ele><time>2026-04-08T15:49:36.981Z</time></trkpt><trkpt lat="42.5684748" lon="12.5976261"><ele>111.0</ele><time>2026-04-08T15:49:39.981Z</time></trkpt><trkpt lat="42.5685509" lon="12.597623"><ele>111.0</ele><time>2026-04-08T15:49:42.98Z</time></trkpt><trkpt lat="42.568625" lon="12.5976232"><ele>111.0</ele><time>2026-04-08T15:49:45.981Z</time></trkpt><trkpt lat="42.5686948" lon="12.5976239"><ele>111.0</ele><time>2026-04-08T15:49:48.982Z</time></trkpt><trkpt lat="42.5687679" lon="12.5976261"><ele>111.0</ele><time>2026-04-08T15:49:51.981Z</time></trkpt><trkpt lat="42.568844" lon="12.5976164"><ele>111.0</ele><time>2026-04-08T15:49:54.98Z</time></trkpt><trkpt lat="42.5689233" lon="12.5976223"><ele>111.16666666666667</ele><time>2026-04-08T15:49:57.981Z</time></trkpt><trkpt lat="42.5690115" lon="12.5976212"><ele>111.33333333333334</ele><time>2026-04-08T15:50:00.98Z</time></trkpt><trkpt lat="42.5690765" lon="12.5976156"><ele>111.5</ele><time>2026-04-08T15:50:02.981Z</time></trkpt><trkpt lat="42.5691473" lon="12.5976047"><ele>111.66666666666667</ele><time>2026-04-08T15:50:04.981Z</time></trkpt><trkpt lat="42.5692215" lon="12.5975931"><ele>111.83333333333334</ele><time>2026-04-08T15:50:06.981Z</time></trkpt><trkpt lat="42.5693012" lon="12.5975813"><ele>112.0</ele><time>2026-04-08T15:50:08.981Z</time></trkpt><trkpt lat="42.5693844" lon="12.597575"><ele>112.00000000000001</ele><time>2026-04-08T15:50:10.981Z</time></trkpt><trkpt lat="42.5694688" lon="12.5975689"><ele>112.0</ele><time>2026-04-08T15:50:12.98Z</time></trkpt><trkpt lat="42.5695531" lon="12.5975647"><ele>112.0</ele><time>2026-04-08T15:50:14.981Z</time></trkpt><trkpt lat="42.5696377" lon="12.5975585"><ele>112.0</ele><time>2026-04-08T15:50:16.981Z</time></trkpt><trkpt lat="42.5697197" lon="12.5975571"><ele>112.00000000000001</ele><time>2026-04-08T15:50:18.981Z</time></trkpt><trkpt lat="42.569803" lon="12.5975565"><ele>112.0</ele><time>2026-04-08T15:50:20.98Z</time></trkpt><trkpt lat="42.5698886" lon="12.5975535"><ele>112.0</ele><time>2026-04-08T15:50:22.981Z</time></trkpt><trkpt lat="42.569984" lon="12.597561"><ele>111.99999999999999</ele><time>2026-04-08T15:50:24.981Z</time></trkpt><trkpt lat="42.5700902" lon="12.5975652"><ele>111.99999999999999</ele><time>2026-04-08T15:50:26.98Z</time></trkpt><trkpt lat="42.5702022" lon="12.5975701"><ele>112.0</ele><time>2026-04-08T15:50:28.981Z</time></trkpt><trkpt lat="42.5703166" lon="12.5975739"><ele>112.0</ele><time>2026-04-08T15:50:30.981Z</time></trkpt><trkpt lat="42.5704224" lon="12.597594"><ele>111.39999999999999</ele><time>2026-04-08T15:50:32.981Z</time></trkpt><trkpt lat="42.5705266" lon="12.5976253"><ele>110.79999999999998</ele><time>2026-04-08T15:50:34.981Z</time></trkpt><trkpt lat="42.5706307" lon="12.5976811"><ele>110.2</ele><time>2026-04-08T15:50:36.981Z</time></trkpt><trkpt lat="42.5707403" lon="12.5977422"><ele>109.6</ele><time>2026-04-08T15:50:38.979Z</time></trkpt><trkpt lat="42.5707972" lon="12.5977805"><ele>109.0</ele><time>2026-04-08T15:50:39.981Z</time></trkpt><trkpt lat="42.5709033" lon="12.597872"><ele>109.00000000000001</ele><time>2026-04-08T15:50:41.981Z</time></trkpt><trkpt lat="42.5710031" lon="12.5979789"><ele>109.0</ele><time>2026-04-08T15:50:43.981Z</time></trkpt><trkpt lat="42.5710506" lon="12.59804"><ele>109.0</ele><time>2026-04-08T15:50:44.981Z</time></trkpt><trkpt lat="42.5710968" lon="12.5981031"><ele>109.0</ele><time>2026-04-08T15:50:45.981Z</time></trkpt><trkpt lat="42.5711446" lon="12.5981742"><ele>109.00000000000001</ele><time>2026-04-08T15:50:46.981Z</time></trkpt><trkpt lat="42.5711903" lon="12.5982475"><ele>109.0</ele><time>2026-04-08T15:50:47.981Z</time></trkpt><trkpt lat="42.5712347" lon="12.5983249"><ele>109.0</ele><time>2026-04-08T15:50:48.981Z</time></trkpt><trkpt lat="42.5712762" lon="12.5984037"><ele>109.0</ele><time>2026-04-08T15:50:49.981Z</time></trkpt><trkpt lat="42.5713184" lon="12.5984872"><ele>109.0</ele><time>2026-04-08T15:50:50.981Z</time></trkpt><trkpt lat="42.5713552" lon="12.5985766"><ele>109.0</ele><time>2026-04-08T15:50:51.981Z</time></trkpt><trkpt lat="42.5713881" lon="12.5986665"><ele>109.0</ele><time>2026-04-08T15:50:52.981Z</time></trkpt><trkpt lat="42.571419" lon="12.5987556"><ele>109.0</ele><time>2026-04-08T15:50:53.981Z</time></trkpt><trkpt lat="42.5714453" lon="12.5988514"><ele>109.0</ele><time>2026-04-08T15:50:54.981Z</time></trkpt><trkpt lat="42.5714678" lon="12.5989466"><ele>109.14285714285714</ele><time>2026-04-08T15:50:55.981Z</time></trkpt><trkpt lat="42.5714875" lon="12.5990455"><ele>109.28571428571429</ele><time>2026-04-08T15:50:56.981Z</time></trkpt><trkpt lat="42.5715039" lon="12.5991452"><ele>109.42857142857142</ele><time>2026-04-08T15:50:57.98Z</time></trkpt><trkpt lat="42.5715201" lon="12.5992408"><ele>109.57142857142857</ele><time>2026-04-08T15:50:58.981Z</time></trkpt><trkpt lat="42.5715317" lon="12.5993339"><ele>109.71428571428571</ele><time>2026-04-08T15:50:59.981Z</time></trkpt><trkpt lat="42.5715407" lon="12.5994303"><ele>109.85714285714285</ele><time>2026-04-08T15:51:00.981Z</time></trkpt><trkpt lat="42.5715516" lon="12.5995274"><ele>110.0</ele><time>2026-04-08T15:51:01.981Z</time></trkpt><trkpt lat="42.5715621" lon="12.5996264"><ele>109.99999999999999</ele><time>2026-04-08T15:51:02.98Z</time></trkpt><trkpt lat="42.5715695" lon="12.5997214"><ele>110.0</ele><time>2026-04-08T15:51:03.981Z</time></trkpt><trkpt lat="42.5715769" lon="12.5998221"><ele>110.0</ele><time>2026-04-08T15:51:04.981Z</time></trkpt><trkpt lat="42.5715857" lon="12.5999116"><ele>110.0</ele><time>2026-04-08T15:51:05.981Z</time></trkpt><trkpt lat="42.5715926" lon="12.6000073"><ele>110.0</ele><time>2026-04-08T15:51:06.981Z</time></trkpt><trkpt lat="42.5716016" lon="12.6000998"><ele>109.99999999999999</ele><time>2026-04-08T15:51:07.981Z</time></trkpt><trkpt lat="42.5716109" lon="12.6001917"><ele>110.0</ele><time>2026-04-08T15:51:08.981Z</time></trkpt><trkpt lat="42.571616" lon="12.6002862"><ele>109.8</ele><time>2026-04-08T15:51:09.981Z</time></trkpt><trkpt lat="42.5716214" lon="12.6003717"><ele>109.6</ele><time>2026-04-08T15:51:10.981Z</time></trkpt><trkpt lat="42.5716402" lon="12.6005327"><ele>109.4</ele><time>2026-04-08T15:51:12.98Z</time></trkpt><trkpt lat="42.571657" lon="12.6006745"><ele>109.2</ele><time>2026-04-08T15:51:14.981Z</time></trkpt><trkpt lat="42.5716955" lon="12.6008082"><ele>109.0</ele><time>2026-04-08T15:51:16.981Z</time></trkpt><trkpt lat="42.5717288" lon="12.6009409"><ele>109.0</ele><time>2026-04-08T15:51:18.98Z</time></trkpt><trkpt lat="42.571766" lon="12.60107"><ele>109.0</ele><time>2026-04-08T15:51:20.981Z</time></trkpt><trkpt lat="42.5717926" lon="12.6012041"><ele>109.0</ele><time>2026-04-08T15:51:22.981Z</time></trkpt><trkpt lat="42.5718104" lon="12.6013447"><ele>109.0</ele><time>2026-04-08T15:51:24.981Z</time></trkpt><trkpt lat="42.5718336" lon="12.6014829"><ele>109.0</ele><time>2026-04-08T15:51:26.98Z</time></trkpt><trkpt lat="42.571859" lon="12.6016175"><ele>109.0</ele><time>2026-04-08T15:51:28.981Z</time></trkpt><trkpt lat="42.5719305" lon="12.6017202"><ele>109.0</ele><time>2026-04-08T15:51:30.981Z</time></trkpt><trkpt lat="42.5720224" lon="12.6017508"><ele>109.0</ele><time>2026-04-08T15:51:32.98Z</time></trkpt><trkpt lat="42.5721199" lon="12.6017065"><ele>109.0</ele><time>2026-04-08T15:51:34.981Z</time></trkpt><trkpt lat="42.5722027" lon="12.6016269"><ele>109.0</ele><time>2026-04-08T15:51:36.98Z</time></trkpt><trkpt lat="42.5722761" lon="12.6015561"><ele>109.16666666666667</ele><time>2026-04-08T15:51:38.981Z</time></trkpt><trkpt lat="42.5723411" lon="12.6014953"><ele>109.33333333333334</ele><time>2026-04-08T15:51:40.981Z</time></trkpt><trkpt lat="42.5724063" lon="12.6014252"><ele>109.5</ele><time>2026-04-08T15:51:42.981Z</time></trkpt><trkpt lat="42.5724699" lon="12.601362"><ele>109.66666666666666</ele><time>2026-04-08T15:51:44.98Z</time></trkpt><trkpt lat="42.5725255" lon="12.6012938"><ele>109.83333333333333</ele><time>2026-04-08T15:51:46.981Z</time></trkpt><trkpt lat="42.5725838" lon="12.6012261"><ele>110.0</ele><time>2026-04-08T15:51:48.981Z</time></trkpt><trkpt lat="42.5726429" lon="12.6011635"><ele>109.99999999999999</ele><time>2026-04-08T15:51:50.98Z</time></trkpt><trkpt lat="42.5726999" lon="12.6011006"><ele>110.0</ele><time>2026-04-08T15:51:52.98Z</time></trkpt><trkpt lat="42.5727599" lon="12.6010343"><ele>110.0</ele><time>2026-04-08T15:51:54.981Z</time></trkpt><trkpt lat="42.5728205" lon="12.6009662"><ele>110.0</ele><time>2026-04-08T15:51:56.981Z</time></trkpt><trkpt lat="42.5728839" lon="12.6009027"><ele>109.99999999999999</ele><time>2026-04-08T15:51:58.981Z</time></trkpt><trkpt lat="42.5729469" lon="12.6008364"><ele>110.0</ele><time>2026-04-08T15:52:00.981Z</time></trkpt><trkpt lat="42.5730086" lon="12.6007706"><ele>110.57142857142856</ele><time>2026-04-08T15:52:02.98Z</time></trkpt><trkpt lat="42.5730726" lon="12.6007056"><ele>111.14285714285714</ele><time>2026-04-08T15:52:04.981Z</time></trkpt><trkpt lat="42.5731323" lon="12.6006404"><ele>111.71428571428571</ele><time>2026-04-08T15:52:06.981Z</time></trkpt><trkpt lat="42.5731921" lon="12.6005801"><ele>112.28571428571428</ele><time>2026-04-08T15:52:08.98Z</time></trkpt><trkpt lat="42.5732464" lon="12.6005266"><ele>112.85714285714285</ele><time>2026-04-08T15:52:10.981Z</time></trkpt><trkpt lat="42.5732952" lon="12.6004627"><ele>113.42857142857142</ele><time>2026-04-08T15:53:54.98Z</time></trkpt><trkpt lat="42.5733482" lon="12.6004109"><ele>114.0</ele><time>2026-04-08T15:53:57.981Z</time></trkpt><trkpt lat="42.5734124" lon="12.6003488"><ele>114.14285714285714</ele><time>2026-04-08T15:54:00.98Z</time></trkpt><trkpt lat="42.5734643" lon="12.6002988"><ele>114.28571428571428</ele><time>2026-04-08T15:54:02.981Z</time></trkpt><trkpt lat="42.5735227" lon="12.6002426"><ele>114.42857142857142</ele><time>2026-04-08T15:54:04.98Z</time></trkpt><trkpt lat="42.5735802" lon="12.6001811"><ele>114.57142857142856</ele><time>2026-04-08T15:54:06.98Z</time></trkpt><trkpt lat="42.5736365" lon="12.6001169"><ele>114.71428571428571</ele><time>2026-04-08T15:54:08.98Z</time></trkpt><trkpt lat="42.5736949" lon="12.6000552"><ele>114.85714285714283</ele><time>2026-04-08T15:54:10.981Z</time></trkpt><trkpt lat="42.5737524" lon="12.5999921"><ele>114.99999999999999</ele><time>2026-04-08T15:54:12.981Z</time></trkpt><trkpt lat="42.5738105" lon="12.5999295"><ele>115.00000000000001</ele><time>2026-04-08T15:54:14.981Z</time></trkpt><trkpt lat="42.5738684" lon="12.5998701"><ele>115.0</ele><time>2026-04-08T15:54:16.981Z</time></trkpt><trkpt lat="42.5739353" lon="12.5997978"><ele>115.0</ele><time>2026-04-08T15:54:18.98Z</time></trkpt><trkpt lat="42.5740121" lon="12.599723"><ele>115.0</ele><time>2026-04-08T15:54:20.981Z</time></trkpt><trkpt lat="42.5740885" lon="12.5996462"><ele>115.00000000000001</ele><time>2026-04-08T15:54:22.98Z</time></trkpt><trkpt lat="42.5741574" lon="12.5995758"><ele>115.0</ele><time>2026-04-08T15:54:24.981Z</time></trkpt><trkpt lat="42.5742257" lon="12.5994993"><ele>114.57142857142856</ele><time>2026-04-08T15:54:26.981Z</time></trkpt><trkpt lat="42.574289" lon="12.5994368"><ele>114.14285714285714</ele><time>2026-04-08T15:54:28.981Z</time></trkpt><trkpt lat="42.574349" lon="12.5993703"><ele>113.71428571428571</ele><time>2026-04-08T15:54:30.981Z</time></trkpt><trkpt lat="42.5744063" lon="12.5993057"><ele>113.28571428571428</ele><time>2026-04-08T15:54:32.981Z</time></trkpt><trkpt lat="42.5744626" lon="12.5992505"><ele>112.85714285714286</ele><time>2026-04-08T15:54:34.981Z</time></trkpt><trkpt lat="42.5745175" lon="12.5991882"><ele>112.42857142857143</ele><time>2026-04-08T15:54:36.981Z</time></trkpt><trkpt lat="42.5745734" lon="12.5991264"><ele>112.0</ele><time>2026-04-08T15:54:38.981Z</time></trkpt><trkpt lat="42.574631" lon="12.5990673"><ele>113.16666666666667</ele><time>2026-04-08T15:54:40.98Z</time></trkpt><trkpt lat="42.5746899" lon="12.5990058"><ele>114.33333333333334</ele><time>2026-04-08T15:54:42.981Z</time></trkpt><trkpt lat="42.5747517" lon="12.5989405"><ele>115.5</ele><time>2026-04-08T15:54:44.98Z</time></trkpt><trkpt lat="42.5748158" lon="12.5988721"><ele>116.66666666666666</ele><time>2026-04-08T15:54:46.979Z</time></trkpt><trkpt lat="42.574878" lon="12.5988034"><ele>117.83333333333333</ele><time>2026-04-08T15:54:48.981Z</time></trkpt><trkpt lat="42.5749424" lon="12.5987383"><ele>119.0</ele><time>2026-04-08T15:54:50.98Z</time></trkpt><trkpt lat="42.5750037" lon="12.5986752"><ele>118.66666666666666</ele><time>2026-04-08T15:54:52.98Z</time></trkpt><trkpt lat="42.5750669" lon="12.5986033"><ele>118.33333333333333</ele><time>2026-04-08T15:54:54.98Z</time></trkpt><trkpt lat="42.5751296" lon="12.5985351"><ele>118.0</ele><time>2026-04-08T15:54:56.981Z</time></trkpt><trkpt lat="42.5751902" lon="12.5984663"><ele>117.66666666666666</ele><time>2026-04-08T15:54:58.98Z</time></trkpt><trkpt lat="42.575251" lon="12.5983976"><ele>117.33333333333333</ele><time>2026-04-08T15:55:00.981Z</time></trkpt><trkpt lat="42.5753174" lon="12.5983292"><ele>117.0</ele><time>2026-04-08T15:55:02.981Z</time></trkpt><trkpt lat="42.5753841" lon="12.5982651"><ele>118.83333333333333</ele><time>2026-04-08T15:55:04.981Z</time></trkpt><trkpt lat="42.5754474" lon="12.5981968"><ele>120.66666666666666</ele><time>2026-04-08T15:55:06.98Z</time></trkpt><trkpt lat="42.5755085" lon="12.5981335"><ele>122.5</ele><time>2026-04-08T15:55:08.979Z</time></trkpt><trkpt lat="42.5755624" lon="12.5980613"><ele>124.33333333333333</ele><time>2026-04-08T15:55:10.98Z</time></trkpt><trkpt lat="42.5756147" lon="12.5979867"><ele>126.16666666666666</ele><time>2026-04-08T15:55:12.98Z</time></trkpt><trkpt lat="42.5756693" lon="12.5979104"><ele>128.0</ele><time>2026-04-08T15:55:14.98Z</time></trkpt><trkpt lat="42.5757303" lon="12.5978449"><ele>127.16666666666666</ele><time>2026-04-08T15:55:16.981Z</time></trkpt><trkpt lat="42.575793" lon="12.5977809"><ele>126.33333333333333</ele><time>2026-04-08T15:55:18.98Z</time></trkpt><trkpt lat="42.5758612" lon="12.5977254"><ele>125.5</ele><time>2026-04-08T15:55:20.98Z</time></trkpt><trkpt lat="42.5759348" lon="12.5976775"><ele>124.66666666666666</ele><time>2026-04-08T15:55:22.981Z</time></trkpt><trkpt lat="42.5760083" lon="12.5976163"><ele>123.83333333333333</ele><time>2026-04-08T15:55:24.98Z</time></trkpt><trkpt lat="42.5760792" lon="12.5975449"><ele>123.0</ele><time>2026-04-08T15:55:26.981Z</time></trkpt><trkpt lat="42.5761505" lon="12.5974749"><ele>124.0</ele><time>2026-04-08T15:55:28.98Z</time></trkpt><trkpt lat="42.5762204" lon="12.5974"><ele>125.0</ele><time>2026-04-08T15:55:30.981Z</time></trkpt><trkpt lat="42.5762899" lon="12.5973239"><ele>126.0</ele><time>2026-04-08T15:55:32.981Z</time></trkpt><trkpt lat="42.5763623" lon="12.5972498"><ele>127.0</ele><time>2026-04-08T15:55:34.981Z</time></trkpt><trkpt lat="42.576433" lon="12.5971763"><ele>128.0</ele><time>2026-04-08T15:55:36.98Z</time></trkpt><trkpt lat="42.5764995" lon="12.5971026"><ele>129.0</ele><time>2026-04-08T15:55:38.981Z</time></trkpt><trkpt lat="42.5765648" lon="12.5970364"><ele>127.83333333333333</ele><time>2026-04-08T15:55:40.98Z</time></trkpt><trkpt lat="42.5766364" lon="12.5969675"><ele>126.66666666666666</ele><time>2026-04-08T15:55:42.981Z</time></trkpt><trkpt lat="42.5767082" lon="12.5968873"><ele>125.5</ele><time>2026-04-08T15:55:44.981Z</time></trkpt><trkpt lat="42.5767726" lon="12.5968112"><ele>124.33333333333333</ele><time>2026-04-08T15:55:46.98Z</time></trkpt><trkpt lat="42.5768455" lon="12.5967405"><ele>123.16666666666666</ele><time>2026-04-08T15:55:48.98Z</time></trkpt><trkpt lat="42.5769086" lon="12.596668"><ele>122.0</ele><time>2026-04-08T15:55:50.98Z</time></trkpt><trkpt lat="42.5769781" lon="12.5965954"><ele>122.16666666666666</ele><time>2026-04-08T15:55:52.981Z</time></trkpt><trkpt lat="42.5770498" lon="12.596524"><ele>122.33333333333333</ele><time>2026-04-08T15:55:54.981Z</time></trkpt><trkpt lat="42.5771179" lon="12.5964476"><ele>122.5</ele><time>2026-04-08T15:55:56.981Z</time></trkpt><trkpt lat="42.5771917" lon="12.5963701"><ele>122.66666666666666</ele><time>2026-04-08T15:55:58.98Z</time></trkpt><trkpt lat="42.5772639" lon="12.5962995"><ele>122.83333333333333</ele><time>2026-04-08T15:56:00.98Z</time></trkpt><trkpt lat="42.5773317" lon="12.5962255"><ele>123.0</ele><time>2026-04-08T15:56:02.981Z</time></trkpt><trkpt lat="42.5773982" lon="12.5961493"><ele>123.0</ele><time>2026-04-08T15:56:04.98Z</time></trkpt><trkpt lat="42.5774692" lon="12.5960761"><ele>123.0</ele><time>2026-04-08T15:56:06.981Z</time></trkpt><trkpt lat="42.5775397" lon="12.5960033"><ele>123.0</ele><time>2026-04-08T15:56:08.979Z</time></trkpt><trkpt lat="42.5776078" lon="12.5959318"><ele>123.0</ele><time>2026-04-08T15:56:10.981Z</time></trkpt><trkpt lat="42.5776747" lon="12.5958539"><ele>123.0</ele><time>2026-04-08T15:56:12.98Z</time></trkpt><trkpt lat="42.5777342" lon="12.5957611"><ele>123.0</ele><time>2026-04-08T15:56:14.981Z</time></trkpt><trkpt lat="42.5777898" lon="12.5956603"><ele>123.0</ele><time>2026-04-08T15:56:16.98Z</time></trkpt><trkpt lat="42.577805" lon="12.5955416"><ele>123.0</ele><time>2026-04-08T15:56:18.981Z</time></trkpt><trkpt lat="42.5778144" lon="12.5954322"><ele>123.0</ele><time>2026-04-08T15:56:20.98Z</time></trkpt><trkpt lat="42.577845" lon="12.5953335"><ele>123.0</ele><time>2026-04-08T15:56:22.98Z</time></trkpt><trkpt lat="42.5778927" lon="12.5952609"><ele>123.0</ele><time>2026-04-08T15:56:24.981Z</time></trkpt><trkpt lat="42.5779326" lon="12.5951854"><ele>123.0</ele><time>2026-04-08T15:56:26.98Z</time></trkpt><trkpt lat="42.5779465" lon="12.5950862"><ele>122.60000000000001</ele><time>2026-04-08T15:56:28.981Z</time></trkpt><trkpt lat="42.5779506" lon="12.594967"><ele>122.20000000000002</ele><time>2026-04-08T15:56:30.981Z</time></trkpt><trkpt lat="42.5779877" lon="12.594852"><ele>121.8</ele><time>2026-04-08T15:56:32.98Z</time></trkpt><trkpt lat="42.5779864" lon="12.5947172"><ele>121.4</ele><time>2026-04-08T15:56:34.98Z</time></trkpt><trkpt lat="42.5779644" lon="12.594565"><ele>121.0</ele><time>2026-04-08T15:56:36.979Z</time></trkpt><trkpt lat="42.5779414" lon="12.594485"><ele>120.25</ele><time>2026-04-08T15:56:37.98Z</time></trkpt><trkpt lat="42.5778937" lon="12.5943322"><ele>119.5</ele><time>2026-04-08T15:56:39.981Z</time></trkpt><trkpt lat="42.5778387" lon="12.5941889"><ele>118.75</ele><time>2026-04-08T15:56:41.981Z</time></trkpt><trkpt lat="42.5777678" lon="12.5940514"><ele>118.0</ele><time>2026-04-08T15:56:43.98Z</time></trkpt><trkpt lat="42.577704" lon="12.5939122"><ele>117.80000000000001</ele><time>2026-04-08T15:56:45.98Z</time></trkpt><trkpt lat="42.5776716" lon="12.5938342"><ele>117.60000000000001</ele><time>2026-04-08T15:56:46.981Z</time></trkpt><trkpt lat="42.5776414" lon="12.5937577"><ele>117.39999999999999</ele><time>2026-04-08T15:56:47.98Z</time></trkpt><trkpt lat="42.5775755" lon="12.5936177"><ele>117.19999999999999</ele><time>2026-04-08T15:56:49.981Z</time></trkpt><trkpt lat="42.5775014" lon="12.5934789"><ele>117.0</ele><time>2026-04-08T15:56:51.979Z</time></trkpt><trkpt lat="42.5774325" lon="12.5933402"><ele>117.0</ele><time>2026-04-08T15:56:53.98Z</time></trkpt><trkpt lat="42.5773956" lon="12.5932709"><ele>116.99999999999999</ele><time>2026-04-08T15:56:54.98Z</time></trkpt><trkpt lat="42.5773357" lon="12.5931301"><ele>116.99999999999999</ele><time>2026-04-08T15:56:56.981Z</time></trkpt><trkpt lat="42.5772706" lon="12.5929813"><ele>117.0</ele><time>2026-04-08T15:56:58.981Z</time></trkpt><trkpt lat="42.5772188" lon="12.5928423"><ele>117.0</ele><time>2026-04-08T15:57:00.981Z</time></trkpt><trkpt lat="42.5771683" lon="12.5927036"><ele>117.0</ele><time>2026-04-08T15:57:02.98Z</time></trkpt><trkpt lat="42.5771179" lon="12.5925614"><ele>116.99999999999999</ele><time>2026-04-08T15:57:04.981Z</time></trkpt><trkpt lat="42.5770633" lon="12.5924332"><ele>116.99999999999999</ele><time>2026-04-08T15:57:06.981Z</time></trkpt><trkpt lat="42.5770221" lon="12.5922933"><ele>117.0</ele><time>2026-04-08T15:57:08.98Z</time></trkpt><trkpt lat="42.576982" lon="12.5921543"><ele>117.0</ele><time>2026-04-08T15:57:10.979Z</time></trkpt><trkpt lat="42.5769396" lon="12.5920156"><ele>116.8</ele><time>2026-04-08T15:57:12.98Z</time></trkpt><trkpt lat="42.5769172" lon="12.5918795"><ele>116.6</ele><time>2026-04-08T15:57:14.979Z</time></trkpt><trkpt lat="42.5769362" lon="12.5917527"><ele>116.39999999999999</ele><time>2026-04-08T15:57:16.981Z</time></trkpt><trkpt lat="42.5770121" lon="12.5916932"><ele>116.19999999999999</ele><time>2026-04-08T15:57:18.98Z</time></trkpt><trkpt lat="42.5771009" lon="12.5916165"><ele>116.0</ele><time>2026-04-08T15:57:20.98Z</time></trkpt><trkpt lat="42.5771756" lon="12.5915267"><ele>116.0</ele><time>2026-04-08T15:57:22.98Z</time></trkpt><trkpt lat="42.5772445" lon="12.5914293"><ele>116.0</ele><time>2026-04-08T15:57:24.981Z</time></trkpt><trkpt lat="42.5773022" lon="12.5913162"><ele>116.0</ele><time>2026-04-08T15:57:26.979Z</time></trkpt><trkpt lat="42.577351" lon="12.5912043"><ele>116.0</ele><time>2026-04-08T15:57:28.981Z</time></trkpt><trkpt lat="42.5774026" lon="12.5910936"><ele>116.0</ele><time>2026-04-08T15:57:30.98Z</time></trkpt><trkpt lat="42.577448" lon="12.5909854"><ele>115.99999999999999</ele><time>2026-04-08T15:57:32.98Z</time></trkpt><trkpt lat="42.5774988" lon="12.5908819"><ele>116.0</ele><time>2026-04-08T15:57:34.981Z</time></trkpt><trkpt lat="42.5775487" lon="12.5907831"><ele>116.0</ele><time>2026-04-08T15:57:36.98Z</time></trkpt><trkpt lat="42.5775999" lon="12.5906816"><ele>116.0</ele><time>2026-04-08T15:57:38.981Z</time></trkpt><trkpt lat="42.5776538" lon="12.5905829"><ele>115.99999999999999</ele><time>2026-04-08T15:57:40.981Z</time></trkpt><trkpt lat="42.5777071" lon="12.5904914"><ele>116.0</ele><time>2026-04-08T15:57:42.98Z</time></trkpt><trkpt lat="42.5777634" lon="12.5904023"><ele>116.33333333333333</ele><time>2026-04-08T15:57:44.98Z</time></trkpt><trkpt lat="42.5778179" lon="12.5903159"><ele>116.66666666666666</ele><time>2026-04-08T15:57:46.981Z</time></trkpt><trkpt lat="42.5778779" lon="12.590225"><ele>117.0</ele><time>2026-04-08T15:57:48.981Z</time></trkpt><trkpt lat="42.5779394" lon="12.5901351"><ele>117.33333333333334</ele><time>2026-04-08T15:57:50.98Z</time></trkpt><trkpt lat="42.5780021" lon="12.5900448"><ele>117.66666666666667</ele><time>2026-04-08T15:57:52.98Z</time></trkpt><trkpt lat="42.5780678" lon="12.5899551"><ele>118.0</ele><time>2026-04-08T15:57:54.98Z</time></trkpt><trkpt lat="42.5781331" lon="12.5898719"><ele>118.0</ele><time>2026-04-08T15:57:56.98Z</time></trkpt><trkpt lat="42.5781979" lon="12.5897896"><ele>118.00000000000001</ele><time>2026-04-08T15:57:58.98Z</time></trkpt><trkpt lat="42.5782573" lon="12.5896987"><ele>118.00000000000001</ele><time>2026-04-08T15:58:00.98Z</time></trkpt><trkpt lat="42.5783099" lon="12.5895978"><ele>118.0</ele><time>2026-04-08T15:58:02.981Z</time></trkpt><trkpt lat="42.5783576" lon="12.5894934"><ele>118.0</ele><time>2026-04-08T15:58:04.98Z</time></trkpt><trkpt lat="42.5784058" lon="12.5893861"><ele>117.80000000000001</ele><time>2026-04-08T15:58:06.98Z</time></trkpt><trkpt lat="42.5784488" lon="12.5892776"><ele>117.60000000000001</ele><time>2026-04-08T15:58:08.979Z</time></trkpt><trkpt lat="42.5784864" lon="12.5891563"><ele>117.39999999999999</ele><time>2026-04-08T15:58:10.98Z</time></trkpt><trkpt lat="42.5785208" lon="12.5890428"><ele>117.19999999999999</ele><time>2026-04-08T15:58:12.98Z</time></trkpt><trkpt lat="42.5785516" lon="12.5889261"><ele>117.0</ele><time>2026-04-08T15:58:14.98Z</time></trkpt><trkpt lat="42.5785835" lon="12.5888147"><ele>117.0</ele><time>2026-04-08T15:58:16.98Z</time></trkpt><trkpt lat="42.5786182" lon="12.5886977"><ele>116.99999999999999</ele><time>2026-04-08T15:58:18.98Z</time></trkpt><trkpt lat="42.5786469" lon="12.5885758"><ele>116.99999999999999</ele><time>2026-04-08T15:58:20.98Z</time></trkpt><trkpt lat="42.5786751" lon="12.588459"><ele>117.0</ele><time>2026-04-08T15:58:22.98Z</time></trkpt><trkpt lat="42.5787065" lon="12.5883438"><ele>117.0</ele><time>2026-04-08T15:58:24.98Z</time></trkpt><trkpt lat="42.5787366" lon="12.5882346"><ele>117.16666666666667</ele><time>2026-04-08T15:58:26.981Z</time></trkpt><trkpt lat="42.578767" lon="12.5881179"><ele>117.33333333333334</ele><time>2026-04-08T15:58:28.98Z</time></trkpt><trkpt lat="42.5787966" lon="12.5880118"><ele>117.5</ele><time>2026-04-08T15:58:30.981Z</time></trkpt><trkpt lat="42.5788313" lon="12.587904"><ele>117.66666666666667</ele><time>2026-04-08T15:58:32.981Z</time></trkpt><trkpt lat="42.5788591" lon="12.5877932"><ele>117.83333333333334</ele><time>2026-04-08T15:58:34.98Z</time></trkpt><trkpt lat="42.5788899" lon="12.5876814"><ele>118.0</ele><time>2026-04-08T15:58:36.98Z</time></trkpt><trkpt lat="42.5789171" lon="12.5875609"><ele>118.0</ele><time>2026-04-08T15:58:38.98Z</time></trkpt><trkpt lat="42.57894" lon="12.5874398"><ele>118.00000000000001</ele><time>2026-04-08T15:58:40.98Z</time></trkpt><trkpt lat="42.5789612" lon="12.5873239"><ele>118.00000000000001</ele><time>2026-04-08T15:58:42.981Z</time></trkpt><trkpt lat="42.578996" lon="12.5871916"><ele>118.0</ele><time>2026-04-08T15:58:44.98Z</time></trkpt><trkpt lat="42.5790266" lon="12.5870643"><ele>118.0</ele><time>2026-04-08T15:58:46.98Z</time></trkpt><trkpt lat="42.5790571" lon="12.5869407"><ele>118.0</ele><time>2026-04-08T15:58:48.98Z</time></trkpt><trkpt lat="42.5790919" lon="12.5868252"><ele>118.00000000000001</ele><time>2026-04-08T15:58:50.979Z</time></trkpt><trkpt lat="42.5791254" lon="12.5867112"><ele>118.00000000000001</ele><time>2026-04-08T15:58:52.981Z</time></trkpt><trkpt lat="42.5791634" lon="12.5865964"><ele>118.0</ele><time>2026-04-08T15:58:54.981Z</time></trkpt><trkpt lat="42.5791977" lon="12.5864789"><ele>118.0</ele><time>2026-04-08T15:58:56.981Z</time></trkpt><trkpt lat="42.5792383" lon="12.5863662"><ele>118.0</ele><time>2026-04-08T15:58:58.981Z</time></trkpt><trkpt lat="42.5792779" lon="12.5862571"><ele>118.00000000000001</ele><time>2026-04-08T15:59:00.981Z</time></trkpt><trkpt lat="42.57932" lon="12.5861516"><ele>118.00000000000001</ele><time>2026-04-08T15:59:02.979Z</time></trkpt><trkpt lat="42.579358" lon="12.5860389"><ele>118.0</ele><time>2026-04-08T15:59:04.98Z</time></trkpt><trkpt lat="42.5793945" lon="12.5859245"><ele>118.0</ele><time>2026-04-08T15:59:06.979Z</time></trkpt><trkpt lat="42.5794255" lon="12.5858084"><ele>118.80000000000001</ele><time>2026-04-08T15:59:08.98Z</time></trkpt><trkpt lat="42.5794583" lon="12.5856926"><ele>119.60000000000001</ele><time>2026-04-08T15:59:10.98Z</time></trkpt><trkpt lat="42.5794858" lon="12.5855781"><ele>120.39999999999999</ele><time>2026-04-08T15:59:12.981Z</time></trkpt><trkpt lat="42.5795158" lon="12.5854563"><ele>121.19999999999999</ele><time>2026-04-08T15:59:14.98Z</time></trkpt><trkpt lat="42.5795391" lon="12.5853421"><ele>122.0</ele><time>2026-04-08T15:59:16.98Z</time></trkpt><trkpt lat="42.5795633" lon="12.5852269"><ele>122.0</ele><time>2026-04-08T15:59:18.981Z</time></trkpt><trkpt lat="42.5795965" lon="12.5851127"><ele>121.99999999999999</ele><time>2026-04-08T15:59:20.98Z</time></trkpt><trkpt lat="42.5796241" lon="12.5849925"><ele>121.99999999999999</ele><time>2026-04-08T15:59:22.98Z</time></trkpt><trkpt lat="42.5796536" lon="12.5848774"><ele>122.0</ele><time>2026-04-08T15:59:24.981Z</time></trkpt><trkpt lat="42.5796789" lon="12.5847641"><ele>122.0</ele><time>2026-04-08T15:59:26.98Z</time></trkpt><trkpt lat="42.5797076" lon="12.5846477"><ele>121.99999999999999</ele><time>2026-04-08T15:59:28.981Z</time></trkpt><trkpt lat="42.5797361" lon="12.5845298"><ele>122.0</ele><time>2026-04-08T15:59:30.98Z</time></trkpt><trkpt lat="42.5797636" lon="12.5844115"><ele>122.0</ele><time>2026-04-08T15:59:32.98Z</time></trkpt><trkpt lat="42.5797938" lon="12.5842971"><ele>122.0</ele><time>2026-04-08T15:59:34.98Z</time></trkpt><trkpt lat="42.5798163" lon="12.584182"><ele>121.99999999999999</ele><time>2026-04-08T15:59:36.981Z</time></trkpt><trkpt lat="42.5798373" lon="12.58407"><ele>122.0</ele><time>2026-04-08T15:59:38.98Z</time></trkpt><trkpt lat="42.5798624" lon="12.5839567"><ele>121.33333333333333</ele><time>2026-04-08T15:59:40.979Z</time></trkpt><trkpt lat="42.579888" lon="12.5838433"><ele>120.66666666666666</ele><time>2026-04-08T15:59:42.98Z</time></trkpt><trkpt lat="42.5799153" lon="12.5837293"><ele>120.0</ele><time>2026-04-08T15:59:44.979Z</time></trkpt><trkpt lat="42.5833938" lon="12.5803099"><ele>125.0</ele><time>2026-04-08T16:01:47.299Z</time></trkpt><trkpt lat="42.5837305" lon="12.5801816"><ele>127.0</ele><time>2026-04-08T16:01:53.684Z</time></trkpt></trkseg></trk></gpx>